<?xml version="1.0" encoding="UTF-8" standalone="no" ?>
<gpx xmlns="http://www.topografix.com/GPX/1/1" xmlns:xsi="http://www.w3.org/2001/XMLSchema-instance" xsi:schemaLocation="http://www.topografix.com/GPX/1/1 http://www.topografix.com/GPX/1/1/gpx.xsd" version="1.1" creator="VisuGPX - https://www.visugpx.com">
  <metadata>
    <name>GTVAD2-reel</name>
    <desc><![CDATA[

]]></desc>
  </metadata>
  <trk>
    <name><![CDATA[GTVAD2-reel]]></name>
    <trkseg>
      <trkpt lat="45.68957" lon="3.00434">
        <ele>941.748779</ele>
        <time>2013-05-06T09:07:02Z</time>
      </trkpt>
      <trkpt lat="45.68943" lon="3.00435">
        <ele>941.748779</ele>
        <time>2013-05-06T09:07:21Z</time>
      </trkpt>
      <trkpt lat="45.68942" lon="3.00432">
        <ele>945.113281</ele>
        <time>2013-05-06T09:07:43Z</time>
      </trkpt>
      <trkpt lat="45.68922" lon="3.0043">
        <ele>946.55542</ele>
        <time>2013-05-06T09:08:00Z</time>
      </trkpt>
      <trkpt lat="45.68893" lon="3.00432">
        <ele>944.632568</ele>
        <time>2013-05-06T09:08:08Z</time>
      </trkpt>
      <trkpt lat="45.6885" lon="3.00443">
        <ele>944.632568</ele>
        <time>2013-05-06T09:08:23Z</time>
      </trkpt>
      <trkpt lat="45.68796" lon="3.00447">
        <ele>943.190674</ele>
        <time>2013-05-06T09:08:44Z</time>
      </trkpt>
      <trkpt lat="45.68776" lon="3.00446">
        <ele>940.787354</ele>
        <time>2013-05-06T09:08:51Z</time>
      </trkpt>
      <trkpt lat="45.68765" lon="3.00442">
        <ele>936.941895</ele>
        <time>2013-05-06T09:08:55Z</time>
      </trkpt>
      <trkpt lat="45.68762" lon="3.00442">
        <ele>936.941895</ele>
        <time>2013-05-06T09:08:56Z</time>
      </trkpt>
      <trkpt lat="45.6875" lon="3.00439">
        <ele>933.577393</ele>
        <time>2013-05-06T09:09:00Z</time>
      </trkpt>
      <trkpt lat="45.68734" lon="3.00437">
        <ele>930.212891</ele>
        <time>2013-05-06T09:09:04Z</time>
      </trkpt>
      <trkpt lat="45.68725" lon="3.00437">
        <ele>929.251465</ele>
        <time>2013-05-06T09:09:06Z</time>
      </trkpt>
      <trkpt lat="45.68708" lon="3.00434">
        <ele>926.848389</ele>
        <time>2013-05-06T09:09:09Z</time>
      </trkpt>
      <trkpt lat="45.68644" lon="3.0044">
        <ele>925.886963</ele>
        <time>2013-05-06T09:09:22Z</time>
      </trkpt>
      <trkpt lat="45.68606" lon="3.00433">
        <ele>927.329102</ele>
        <time>2013-05-06T09:09:38Z</time>
      </trkpt>
      <trkpt lat="45.68571" lon="3.00409">
        <ele>927.80957</ele>
        <time>2013-05-06T09:09:59Z</time>
      </trkpt>
      <trkpt lat="45.68555" lon="3.00397">
        <ele>929.732178</ele>
        <time>2013-05-06T09:10:11Z</time>
      </trkpt>
      <trkpt lat="45.68532" lon="3.00377">
        <ele>930.212891</ele>
        <time>2013-05-06T09:10:31Z</time>
      </trkpt>
      <trkpt lat="45.68511" lon="3.00351">
        <ele>931.174316</ele>
        <time>2013-05-06T09:10:50Z</time>
      </trkpt>
      <trkpt lat="45.68487" lon="3.00311">
        <ele>931.174316</ele>
        <time>2013-05-06T09:11:13Z</time>
      </trkpt>
      <trkpt lat="45.68466" lon="3.00272">
        <ele>932.135498</ele>
        <time>2013-05-06T09:11:34Z</time>
      </trkpt>
      <trkpt lat="45.68447" lon="3.00236">
        <ele>932.616211</ele>
        <time>2013-05-06T09:11:53Z</time>
      </trkpt>
      <trkpt lat="45.6844" lon="3.00229">
        <ele>934.058105</ele>
        <time>2013-05-06T09:11:59Z</time>
      </trkpt>
      <trkpt lat="45.68435" lon="3.00226">
        <ele>935.019531</ele>
        <time>2013-05-06T09:12:04Z</time>
      </trkpt>
      <trkpt lat="45.68429" lon="3.0022">
        <ele>935.019531</ele>
        <time>2013-05-06T09:12:10Z</time>
      </trkpt>
      <trkpt lat="45.68413" lon="3.00202">
        <ele>935.5</ele>
        <time>2013-05-06T09:12:26Z</time>
      </trkpt>
      <trkpt lat="45.68409" lon="3.00199">
        <ele>936.461426</ele>
        <time>2013-05-06T09:12:30Z</time>
      </trkpt>
      <trkpt lat="45.68397" lon="3.00195">
        <ele>938.864746</ele>
        <time>2013-05-06T09:12:40Z</time>
      </trkpt>
      <trkpt lat="45.68375" lon="3.0019">
        <ele>942.229492</ele>
        <time>2013-05-06T09:13:00Z</time>
      </trkpt>
      <trkpt lat="45.68348" lon="3.002">
        <ele>940.787354</ele>
        <time>2013-05-06T09:13:19Z</time>
      </trkpt>
      <trkpt lat="45.68338" lon="3.00198">
        <ele>939.345215</ele>
        <time>2013-05-06T09:13:23Z</time>
      </trkpt>
      <trkpt lat="45.6833" lon="3.00192">
        <ele>935.019531</ele>
        <time>2013-05-06T09:13:26Z</time>
      </trkpt>
      <trkpt lat="45.68327" lon="3.00189">
        <ele>935.019531</ele>
        <time>2013-05-06T09:13:27Z</time>
      </trkpt>
      <trkpt lat="45.68315" lon="3.00179">
        <ele>931.174316</ele>
        <time>2013-05-06T09:13:31Z</time>
      </trkpt>
      <trkpt lat="45.68304" lon="3.00171">
        <ele>928.770996</ele>
        <time>2013-05-06T09:13:34Z</time>
      </trkpt>
      <trkpt lat="45.68293" lon="3.00163">
        <ele>924.445068</ele>
        <time>2013-05-06T09:13:37Z</time>
      </trkpt>
      <trkpt lat="45.68289" lon="3.00161">
        <ele>924.925781</ele>
        <time>2013-05-06T09:13:38Z</time>
      </trkpt>
      <trkpt lat="45.6827" lon="3.00153">
        <ele>919.638428</ele>
        <time>2013-05-06T09:13:42Z</time>
      </trkpt>
      <trkpt lat="45.68256" lon="3.00147">
        <ele>918.196289</ele>
        <time>2013-05-06T09:13:44Z</time>
      </trkpt>
      <trkpt lat="45.682" lon="3.00132">
        <ele>916.754395</ele>
        <time>2013-05-06T09:13:56Z</time>
      </trkpt>
      <trkpt lat="45.6819" lon="3.00122">
        <ele>915.3125</ele>
        <time>2013-05-06T09:13:59Z</time>
      </trkpt>
      <trkpt lat="45.68162" lon="3.00105">
        <ele>913.870361</ele>
        <time>2013-05-06T09:14:06Z</time>
      </trkpt>
      <trkpt lat="45.68108" lon="3.00095">
        <ele>911.947998</ele>
        <time>2013-05-06T09:14:19Z</time>
      </trkpt>
      <trkpt lat="45.681" lon="3.00094">
        <ele>910.986572</ele>
        <time>2013-05-06T09:14:21Z</time>
      </trkpt>
      <trkpt lat="45.68075" lon="3.00096">
        <ele>910.986572</ele>
        <time>2013-05-06T09:14:35Z</time>
      </trkpt>
      <trkpt lat="45.68041" lon="3.00092">
        <ele>909.063965</ele>
        <time>2013-05-06T09:14:47Z</time>
      </trkpt>
      <trkpt lat="45.68024" lon="3.0009">
        <ele>908.102783</ele>
        <time>2013-05-06T09:14:51Z</time>
      </trkpt>
      <trkpt lat="45.68015" lon="3.0009">
        <ele>907.621826</ele>
        <time>2013-05-06T09:14:53Z</time>
      </trkpt>
      <trkpt lat="45.67987" lon="3.001">
        <ele>909.063965</ele>
        <time>2013-05-06T09:15:06Z</time>
      </trkpt>
      <trkpt lat="45.67971" lon="3.00115">
        <ele>912.428467</ele>
        <time>2013-05-06T09:15:21Z</time>
      </trkpt>
      <trkpt lat="45.67956" lon="3.00136">
        <ele>913.870361</ele>
        <time>2013-05-06T09:15:42Z</time>
      </trkpt>
      <trkpt lat="45.67954" lon="3.00138">
        <ele>914.351074</ele>
        <time>2013-05-06T09:15:44Z</time>
      </trkpt>
      <trkpt lat="45.67937" lon="3.00165">
        <ele>917.235107</ele>
        <time>2013-05-06T09:16:09Z</time>
      </trkpt>
      <trkpt lat="45.67925" lon="3.00199">
        <ele>920.118896</ele>
        <time>2013-05-06T09:16:32Z</time>
      </trkpt>
      <trkpt lat="45.67916" lon="3.00216">
        <ele>920.599609</ele>
        <time>2013-05-06T09:16:51Z</time>
      </trkpt>
      <trkpt lat="45.67914" lon="3.00218">
        <ele>919.157715</ele>
        <time>2013-05-06T09:17:13Z</time>
      </trkpt>
      <trkpt lat="45.67907" lon="3.00217">
        <ele>917.715576</ele>
        <time>2013-05-06T09:17:55Z</time>
      </trkpt>
      <trkpt lat="45.679" lon="3.00228">
        <ele>919.157715</ele>
        <time>2013-05-06T09:19:16Z</time>
      </trkpt>
      <trkpt lat="45.67886" lon="3.00254">
        <ele>920.118896</ele>
        <time>2013-05-06T09:19:34Z</time>
      </trkpt>
      <trkpt lat="45.67874" lon="3.00289">
        <ele>920.599609</ele>
        <time>2013-05-06T09:19:54Z</time>
      </trkpt>
      <trkpt lat="45.67867" lon="3.00299">
        <ele>920.599609</ele>
        <time>2013-05-06T09:19:59Z</time>
      </trkpt>
      <trkpt lat="45.6786" lon="3.0031">
        <ele>919.638428</ele>
        <time>2013-05-06T09:20:03Z</time>
      </trkpt>
      <trkpt lat="45.67833" lon="3.00297">
        <ele>915.793213</ele>
        <time>2013-05-06T09:20:14Z</time>
      </trkpt>
      <trkpt lat="45.6783" lon="3.00295">
        <ele>915.793213</ele>
        <time>2013-05-06T09:20:15Z</time>
      </trkpt>
      <trkpt lat="45.67817" lon="3.0029">
        <ele>912.90918</ele>
        <time>2013-05-06T09:20:19Z</time>
      </trkpt>
      <trkpt lat="45.67802" lon="3.0028">
        <ele>911.947998</ele>
        <time>2013-05-06T09:20:33Z</time>
      </trkpt>
      <trkpt lat="45.678" lon="3.00282">
        <ele>910.986572</ele>
        <time>2013-05-06T09:20:46Z</time>
      </trkpt>
      <trkpt lat="45.678" lon="3.00282">
        <ele>911.947998</ele>
        <time>2013-05-06T09:22:52Z</time>
      </trkpt>
      <trkpt lat="45.67779" lon="3.00276">
        <ele>909.063965</ele>
        <time>2013-05-06T09:23:03Z</time>
      </trkpt>
      <trkpt lat="45.6775" lon="3.0026">
        <ele>904.737793</ele>
        <time>2013-05-06T09:23:16Z</time>
      </trkpt>
      <trkpt lat="45.67738" lon="3.00251">
        <ele>903.776611</ele>
        <time>2013-05-06T09:23:20Z</time>
      </trkpt>
      <trkpt lat="45.67736" lon="3.00221">
        <ele>900.892578</ele>
        <time>2013-05-06T09:23:26Z</time>
      </trkpt>
      <trkpt lat="45.67738" lon="3.00158">
        <ele>897.528076</ele>
        <time>2013-05-06T09:23:35Z</time>
      </trkpt>
      <trkpt lat="45.67739" lon="3.0011">
        <ele>895.124756</ele>
        <time>2013-05-06T09:23:41Z</time>
      </trkpt>
      <trkpt lat="45.67737" lon="3.00092">
        <ele>894.163574</ele>
        <time>2013-05-06T09:23:43Z</time>
      </trkpt>
      <trkpt lat="45.67733" lon="3.00064">
        <ele>892.72168</ele>
        <time>2013-05-06T09:23:46Z</time>
      </trkpt>
      <trkpt lat="45.67732" lon="3.00055">
        <ele>892.240967</ele>
        <time>2013-05-06T09:23:47Z</time>
      </trkpt>
      <trkpt lat="45.6774" lon="2.99964">
        <ele>890.798584</ele>
        <time>2013-05-06T09:23:57Z</time>
      </trkpt>
      <trkpt lat="45.67743" lon="2.99945">
        <ele>889.837402</ele>
        <time>2013-05-06T09:23:59Z</time>
      </trkpt>
      <trkpt lat="45.6775" lon="2.99914">
        <ele>888.395508</ele>
        <time>2013-05-06T09:24:03Z</time>
      </trkpt>
      <trkpt lat="45.67756" lon="2.99894">
        <ele>887.434082</ele>
        <time>2013-05-06T09:24:06Z</time>
      </trkpt>
      <trkpt lat="45.67779" lon="2.99835">
        <ele>883.108154</ele>
        <time>2013-05-06T09:24:15Z</time>
      </trkpt>
      <trkpt lat="45.67782" lon="2.99828">
        <ele>882.627686</ele>
        <time>2013-05-06T09:24:16Z</time>
      </trkpt>
      <trkpt lat="45.67804" lon="2.99796">
        <ele>881.66626</ele>
        <time>2013-05-06T09:24:25Z</time>
      </trkpt>
      <trkpt lat="45.67796" lon="2.99801">
        <ele>882.146973</ele>
        <time>2013-05-06T09:24:33Z</time>
      </trkpt>
      <trkpt lat="45.67786" lon="2.99804">
        <ele>881.66626</ele>
        <time>2013-05-06T09:24:39Z</time>
      </trkpt>
      <trkpt lat="45.67791" lon="2.99805">
        <ele>881.66626</ele>
        <time>2013-05-06T09:24:51Z</time>
      </trkpt>
      <trkpt lat="45.67783" lon="2.99803">
        <ele>881.185791</ele>
        <time>2013-05-06T09:25:05Z</time>
      </trkpt>
      <trkpt lat="45.67786" lon="2.99806">
        <ele>882.146973</ele>
        <time>2013-05-06T09:26:27Z</time>
      </trkpt>
      <trkpt lat="45.67788" lon="2.99805">
        <ele>882.146973</ele>
        <time>2013-05-06T09:27:05Z</time>
      </trkpt>
      <trkpt lat="45.67791" lon="2.99807">
        <ele>881.66626</ele>
        <time>2013-05-06T09:28:35Z</time>
      </trkpt>
      <trkpt lat="45.67791" lon="2.99804">
        <ele>882.146973</ele>
        <time>2013-05-06T09:28:46Z</time>
      </trkpt>
      <trkpt lat="45.67786" lon="2.99808">
        <ele>881.66626</ele>
        <time>2013-05-06T09:28:50Z</time>
      </trkpt>
      <trkpt lat="45.67735" lon="2.99805">
        <ele>879.262939</ele>
        <time>2013-05-06T09:29:06Z</time>
      </trkpt>
      <trkpt lat="45.67687" lon="2.99823">
        <ele>878.782471</ele>
        <time>2013-05-06T09:29:23Z</time>
      </trkpt>
      <trkpt lat="45.67681" lon="2.99826">
        <ele>878.301758</ele>
        <time>2013-05-06T09:29:26Z</time>
      </trkpt>
      <trkpt lat="45.67665" lon="2.99814">
        <ele>875.41748</ele>
        <time>2013-05-06T09:29:32Z</time>
      </trkpt>
      <trkpt lat="45.67662" lon="2.99813">
        <ele>874.937012</ele>
        <time>2013-05-06T09:29:33Z</time>
      </trkpt>
      <trkpt lat="45.67652" lon="2.99815">
        <ele>873.495117</ele>
        <time>2013-05-06T09:29:37Z</time>
      </trkpt>
      <trkpt lat="45.6763" lon="2.99806">
        <ele>870.611084</ele>
        <time>2013-05-06T09:29:45Z</time>
      </trkpt>
      <trkpt lat="45.67613" lon="2.99792">
        <ele>868.207764</ele>
        <time>2013-05-06T09:29:49Z</time>
      </trkpt>
      <trkpt lat="45.67606" lon="2.99784">
        <ele>867.727051</ele>
        <time>2013-05-06T09:29:51Z</time>
      </trkpt>
      <trkpt lat="45.67591" lon="2.99766">
        <ele>867.246582</ele>
        <time>2013-05-06T09:29:57Z</time>
      </trkpt>
      <trkpt lat="45.67573" lon="2.99769">
        <ele>865.804688</ele>
        <time>2013-05-06T09:30:07Z</time>
      </trkpt>
      <trkpt lat="45.67542" lon="2.99782">
        <ele>863.401367</ele>
        <time>2013-05-06T09:30:16Z</time>
      </trkpt>
      <trkpt lat="45.6751" lon="2.99809">
        <ele>860.998047</ele>
        <time>2013-05-06T09:30:26Z</time>
      </trkpt>
      <trkpt lat="45.67496" lon="2.99826">
        <ele>859.075195</ele>
        <time>2013-05-06T09:30:30Z</time>
      </trkpt>
      <trkpt lat="45.67483" lon="2.99841">
        <ele>857.152588</ele>
        <time>2013-05-06T09:30:34Z</time>
      </trkpt>
      <trkpt lat="45.67445" lon="2.99853">
        <ele>854.268799</ele>
        <time>2013-05-06T09:30:44Z</time>
      </trkpt>
      <trkpt lat="45.67438" lon="2.99838">
        <ele>850.904053</ele>
        <time>2013-05-06T09:30:50Z</time>
      </trkpt>
      <trkpt lat="45.67439" lon="2.99833">
        <ele>850.423584</ele>
        <time>2013-05-06T09:30:52Z</time>
      </trkpt>
      <trkpt lat="45.6744" lon="2.9983">
        <ele>849.942871</ele>
        <time>2013-05-06T09:30:53Z</time>
      </trkpt>
      <trkpt lat="45.67442" lon="2.99795">
        <ele>846.097656</ele>
        <time>2013-05-06T09:31:04Z</time>
      </trkpt>
      <trkpt lat="45.67435" lon="2.99771">
        <ele>842.252197</ele>
        <time>2013-05-06T09:31:11Z</time>
      </trkpt>
      <trkpt lat="45.67427" lon="2.99765">
        <ele>841.771484</ele>
        <time>2013-05-06T09:31:13Z</time>
      </trkpt>
      <trkpt lat="45.67404" lon="2.99753">
        <ele>842.73291</ele>
        <time>2013-05-06T09:31:19Z</time>
      </trkpt>
      <trkpt lat="45.67399" lon="2.9975">
        <ele>843.213379</ele>
        <time>2013-05-06T09:31:22Z</time>
      </trkpt>
      <trkpt lat="45.67398" lon="2.99737">
        <ele>843.213379</ele>
        <time>2013-05-06T09:31:27Z</time>
      </trkpt>
      <trkpt lat="45.67408" lon="2.99708">
        <ele>843.694092</ele>
        <time>2013-05-06T09:31:38Z</time>
      </trkpt>
      <trkpt lat="45.674" lon="2.99671">
        <ele>845.13623</ele>
        <time>2013-05-06T09:31:54Z</time>
      </trkpt>
      <trkpt lat="45.67403" lon="2.99632">
        <ele>846.097656</ele>
        <time>2013-05-06T09:32:12Z</time>
      </trkpt>
      <trkpt lat="45.67408" lon="2.99588">
        <ele>847.058838</ele>
        <time>2013-05-06T09:32:32Z</time>
      </trkpt>
      <trkpt lat="45.67409" lon="2.99579">
        <ele>847.058838</ele>
        <time>2013-05-06T09:32:37Z</time>
      </trkpt>
      <trkpt lat="45.67405" lon="2.99562">
        <ele>848.020264</ele>
        <time>2013-05-06T09:32:48Z</time>
      </trkpt>
      <trkpt lat="45.67409" lon="2.99537">
        <ele>849.942871</ele>
        <time>2013-05-06T09:33:03Z</time>
      </trkpt>
      <trkpt lat="45.67413" lon="2.9952">
        <ele>850.904053</ele>
        <time>2013-05-06T09:33:13Z</time>
      </trkpt>
      <trkpt lat="45.67419" lon="2.99485">
        <ele>850.904053</ele>
        <time>2013-05-06T09:33:31Z</time>
      </trkpt>
      <trkpt lat="45.67418" lon="2.99472">
        <ele>851.865479</ele>
        <time>2013-05-06T09:33:38Z</time>
      </trkpt>
      <trkpt lat="45.67415" lon="2.99465">
        <ele>851.865479</ele>
        <time>2013-05-06T09:33:42Z</time>
      </trkpt>
      <trkpt lat="45.67407" lon="2.99435">
        <ele>849.942871</ele>
        <time>2013-05-06T09:33:49Z</time>
      </trkpt>
      <trkpt lat="45.67402" lon="2.99422">
        <ele>849.462158</ele>
        <time>2013-05-06T09:33:51Z</time>
      </trkpt>
      <trkpt lat="45.67394" lon="2.99377">
        <ele>849.942871</ele>
        <time>2013-05-06T09:34:05Z</time>
      </trkpt>
      <trkpt lat="45.67404" lon="2.99342">
        <ele>850.904053</ele>
        <time>2013-05-06T09:34:19Z</time>
      </trkpt>
      <trkpt lat="45.67392" lon="2.99344">
        <ele>849.942871</ele>
        <time>2013-05-06T09:34:27Z</time>
      </trkpt>
      <trkpt lat="45.67362" lon="2.9938">
        <ele>849.462158</ele>
        <time>2013-05-06T09:34:42Z</time>
      </trkpt>
      <trkpt lat="45.67357" lon="2.99361">
        <ele>849.942871</ele>
        <time>2013-05-06T09:34:49Z</time>
      </trkpt>
      <trkpt lat="45.67357" lon="2.99339">
        <ele>850.423584</ele>
        <time>2013-05-06T09:34:57Z</time>
      </trkpt>
      <trkpt lat="45.67346" lon="2.9933">
        <ele>850.423584</ele>
        <time>2013-05-06T09:35:07Z</time>
      </trkpt>
      <trkpt lat="45.67331" lon="2.9933">
        <ele>849.942871</ele>
        <time>2013-05-06T09:35:20Z</time>
      </trkpt>
      <trkpt lat="45.67304" lon="2.99328">
        <ele>850.904053</ele>
        <time>2013-05-06T09:35:38Z</time>
      </trkpt>
      <trkpt lat="45.67291" lon="2.99322">
        <ele>850.904053</ele>
        <time>2013-05-06T09:35:48Z</time>
      </trkpt>
      <trkpt lat="45.67287" lon="2.99301">
        <ele>852.82666</ele>
        <time>2013-05-06T09:36:00Z</time>
      </trkpt>
      <trkpt lat="45.67273" lon="2.9928">
        <ele>852.82666</ele>
        <time>2013-05-06T09:36:12Z</time>
      </trkpt>
      <trkpt lat="45.6727" lon="2.99275">
        <ele>852.82666</ele>
        <time>2013-05-06T09:36:14Z</time>
      </trkpt>
      <trkpt lat="45.67267" lon="2.99267">
        <ele>852.345947</ele>
        <time>2013-05-06T09:36:18Z</time>
      </trkpt>
      <trkpt lat="45.67245" lon="2.99218">
        <ele>852.345947</ele>
        <time>2013-05-06T09:36:36Z</time>
      </trkpt>
      <trkpt lat="45.67221" lon="2.99175">
        <ele>852.345947</ele>
        <time>2013-05-06T09:36:54Z</time>
      </trkpt>
      <trkpt lat="45.67208" lon="2.99147">
        <ele>854.268799</ele>
        <time>2013-05-06T09:37:08Z</time>
      </trkpt>
      <trkpt lat="45.67203" lon="2.99141">
        <ele>854.268799</ele>
        <time>2013-05-06T09:37:25Z</time>
      </trkpt>
      <trkpt lat="45.67201" lon="2.99139">
        <ele>854.268799</ele>
        <time>2013-05-06T09:37:53Z</time>
      </trkpt>
      <trkpt lat="45.67181" lon="2.9911">
        <ele>855.710693</ele>
        <time>2013-05-06T09:38:09Z</time>
      </trkpt>
      <trkpt lat="45.67138" lon="2.99054">
        <ele>857.152588</ele>
        <time>2013-05-06T09:38:31Z</time>
      </trkpt>
      <trkpt lat="45.67122" lon="2.99033">
        <ele>854.749268</ele>
        <time>2013-05-06T09:38:36Z</time>
      </trkpt>
      <trkpt lat="45.67091" lon="2.98993">
        <ele>852.82666</ele>
        <time>2013-05-06T09:38:43Z</time>
      </trkpt>
      <trkpt lat="45.67059" lon="2.98979">
        <ele>850.423584</ele>
        <time>2013-05-06T09:38:48Z</time>
      </trkpt>
      <trkpt lat="45.67037" lon="2.98987">
        <ele>848.500732</ele>
        <time>2013-05-06T09:38:51Z</time>
      </trkpt>
      <trkpt lat="45.67007" lon="2.99003">
        <ele>847.058838</ele>
        <time>2013-05-06T09:38:55Z</time>
      </trkpt>
      <trkpt lat="45.66976" lon="2.98976">
        <ele>844.655518</ele>
        <time>2013-05-06T09:39:00Z</time>
      </trkpt>
      <trkpt lat="45.66971" lon="2.98963">
        <ele>843.213379</ele>
        <time>2013-05-06T09:39:02Z</time>
      </trkpt>
      <trkpt lat="45.66949" lon="2.98938">
        <ele>842.73291</ele>
        <time>2013-05-06T09:39:12Z</time>
      </trkpt>
      <trkpt lat="45.6695" lon="2.98944">
        <ele>842.73291</ele>
        <time>2013-05-06T09:39:21Z</time>
      </trkpt>
      <trkpt lat="45.6697" lon="2.98939">
        <ele>842.252197</ele>
        <time>2013-05-06T09:39:30Z</time>
      </trkpt>
      <trkpt lat="45.66977" lon="2.98925">
        <ele>841.290771</ele>
        <time>2013-05-06T09:39:33Z</time>
      </trkpt>
      <trkpt lat="45.66971" lon="2.9892">
        <ele>840.810059</ele>
        <time>2013-05-06T09:39:38Z</time>
      </trkpt>
      <trkpt lat="45.6696" lon="2.98919">
        <ele>840.32959</ele>
        <time>2013-05-06T09:39:45Z</time>
      </trkpt>
      <trkpt lat="45.66946" lon="2.98929">
        <ele>841.771484</ele>
        <time>2013-05-06T09:39:53Z</time>
      </trkpt>
      <trkpt lat="45.66919" lon="2.98906">
        <ele>839.848877</ele>
        <time>2013-05-06T09:40:06Z</time>
      </trkpt>
      <trkpt lat="45.66873" lon="2.98894">
        <ele>839.368164</ele>
        <time>2013-05-06T09:40:22Z</time>
      </trkpt>
      <trkpt lat="45.6687" lon="2.98892">
        <ele>839.848877</ele>
        <time>2013-05-06T09:40:33Z</time>
      </trkpt>
      <trkpt lat="45.66873" lon="2.98895">
        <ele>839.848877</ele>
        <time>2013-05-06T09:40:45Z</time>
      </trkpt>
      <trkpt lat="45.6688" lon="2.98894">
        <ele>840.32959</ele>
        <time>2013-05-06T09:40:50Z</time>
      </trkpt>
      <trkpt lat="45.66919" lon="2.98909">
        <ele>840.810059</ele>
        <time>2013-05-06T09:41:09Z</time>
      </trkpt>
      <trkpt lat="45.66935" lon="2.98929">
        <ele>841.771484</ele>
        <time>2013-05-06T09:41:19Z</time>
      </trkpt>
      <trkpt lat="45.66967" lon="2.98917">
        <ele>841.290771</ele>
        <time>2013-05-06T09:41:34Z</time>
      </trkpt>
      <trkpt lat="45.66985" lon="2.98909">
        <ele>840.810059</ele>
        <time>2013-05-06T09:41:39Z</time>
      </trkpt>
      <trkpt lat="45.66996" lon="2.98897">
        <ele>840.32959</ele>
        <time>2013-05-06T09:41:42Z</time>
      </trkpt>
      <trkpt lat="45.67008" lon="2.98874">
        <ele>839.368164</ele>
        <time>2013-05-06T09:41:46Z</time>
      </trkpt>
      <trkpt lat="45.67014" lon="2.98838">
        <ele>839.368164</ele>
        <time>2013-05-06T09:41:52Z</time>
      </trkpt>
      <trkpt lat="45.67002" lon="2.98763">
        <ele>839.848877</ele>
        <time>2013-05-06T09:42:09Z</time>
      </trkpt>
      <trkpt lat="45.6699" lon="2.98753">
        <ele>840.32959</ele>
        <time>2013-05-06T09:42:15Z</time>
      </trkpt>
      <trkpt lat="45.66982" lon="2.98747">
        <ele>840.810059</ele>
        <time>2013-05-06T09:42:21Z</time>
      </trkpt>
      <trkpt lat="45.6695" lon="2.98695">
        <ele>841.290771</ele>
        <time>2013-05-06T09:42:39Z</time>
      </trkpt>
      <trkpt lat="45.669" lon="2.9861">
        <ele>842.73291</ele>
        <time>2013-05-06T09:43:02Z</time>
      </trkpt>
      <trkpt lat="45.66874" lon="2.98574">
        <ele>843.694092</ele>
        <time>2013-05-06T09:43:19Z</time>
      </trkpt>
      <trkpt lat="45.6687" lon="2.98572">
        <ele>843.694092</ele>
        <time>2013-05-06T09:43:22Z</time>
      </trkpt>
      <trkpt lat="45.66861" lon="2.98563">
        <ele>843.213379</ele>
        <time>2013-05-06T09:43:42Z</time>
      </trkpt>
      <trkpt lat="45.66859" lon="2.9856">
        <ele>843.213379</ele>
        <time>2013-05-06T09:43:43Z</time>
      </trkpt>
      <trkpt lat="45.66823" lon="2.9852">
        <ele>841.290771</ele>
        <time>2013-05-06T09:43:55Z</time>
      </trkpt>
      <trkpt lat="45.66776" lon="2.98461">
        <ele>841.771484</ele>
        <time>2013-05-06T09:44:11Z</time>
      </trkpt>
      <trkpt lat="45.66745" lon="2.9842">
        <ele>841.771484</ele>
        <time>2013-05-06T09:44:29Z</time>
      </trkpt>
      <trkpt lat="45.66741" lon="2.98419">
        <ele>841.771484</ele>
        <time>2013-05-06T09:44:43Z</time>
      </trkpt>
      <trkpt lat="45.66735" lon="2.98411">
        <ele>842.73291</ele>
        <time>2013-05-06T09:44:47Z</time>
      </trkpt>
      <trkpt lat="45.66717" lon="2.98372">
        <ele>843.213379</ele>
        <time>2013-05-06T09:45:02Z</time>
      </trkpt>
      <trkpt lat="45.66729" lon="2.98367">
        <ele>846.578369</ele>
        <time>2013-05-06T09:45:14Z</time>
      </trkpt>
      <trkpt lat="45.66731" lon="2.98355">
        <ele>847.539551</ele>
        <time>2013-05-06T09:45:22Z</time>
      </trkpt>
      <trkpt lat="45.66732" lon="2.98348">
        <ele>848.500732</ele>
        <time>2013-05-06T09:45:26Z</time>
      </trkpt>
      <trkpt lat="45.66728" lon="2.98307">
        <ele>848.500732</ele>
        <time>2013-05-06T09:45:51Z</time>
      </trkpt>
      <trkpt lat="45.66723" lon="2.98294">
        <ele>848.981445</ele>
        <time>2013-05-06T09:46:01Z</time>
      </trkpt>
      <trkpt lat="45.66719" lon="2.98288">
        <ele>848.981445</ele>
        <time>2013-05-06T09:46:06Z</time>
      </trkpt>
      <trkpt lat="45.66693" lon="2.98265">
        <ele>849.462158</ele>
        <time>2013-05-06T09:46:26Z</time>
      </trkpt>
      <trkpt lat="45.66668" lon="2.98253">
        <ele>850.423584</ele>
        <time>2013-05-06T09:46:42Z</time>
      </trkpt>
      <trkpt lat="45.6667" lon="2.98238">
        <ele>851.865479</ele>
        <time>2013-05-06T09:46:51Z</time>
      </trkpt>
      <trkpt lat="45.66678" lon="2.9823">
        <ele>853.307373</ele>
        <time>2013-05-06T09:46:59Z</time>
      </trkpt>
      <trkpt lat="45.66682" lon="2.98227">
        <ele>853.307373</ele>
        <time>2013-05-06T09:47:02Z</time>
      </trkpt>
      <trkpt lat="45.66683" lon="2.98221">
        <ele>853.307373</ele>
        <time>2013-05-06T09:47:06Z</time>
      </trkpt>
      <trkpt lat="45.66669" lon="2.98216">
        <ele>853.307373</ele>
        <time>2013-05-06T09:47:15Z</time>
      </trkpt>
      <trkpt lat="45.66614" lon="2.98214">
        <ele>851.865479</ele>
        <time>2013-05-06T09:47:32Z</time>
      </trkpt>
      <trkpt lat="45.66599" lon="2.98223">
        <ele>851.384766</ele>
        <time>2013-05-06T09:47:36Z</time>
      </trkpt>
      <trkpt lat="45.66591" lon="2.98225">
        <ele>849.942871</ele>
        <time>2013-05-06T09:47:38Z</time>
      </trkpt>
      <trkpt lat="45.66557" lon="2.98201">
        <ele>846.097656</ele>
        <time>2013-05-06T09:47:45Z</time>
      </trkpt>
      <trkpt lat="45.66505" lon="2.98117">
        <ele>842.73291</ele>
        <time>2013-05-06T09:47:55Z</time>
      </trkpt>
      <trkpt lat="45.6642" lon="2.98022">
        <ele>841.290771</ele>
        <time>2013-05-06T09:48:09Z</time>
      </trkpt>
      <trkpt lat="45.66333" lon="2.97982">
        <ele>840.32959</ele>
        <time>2013-05-06T09:48:26Z</time>
      </trkpt>
      <trkpt lat="45.66272" lon="2.97887">
        <ele>839.848877</ele>
        <time>2013-05-06T09:48:45Z</time>
      </trkpt>
      <trkpt lat="45.66199" lon="2.97788">
        <ele>840.810059</ele>
        <time>2013-05-06T09:49:09Z</time>
      </trkpt>
      <trkpt lat="45.66156" lon="2.97704">
        <ele>841.771484</ele>
        <time>2013-05-06T09:49:31Z</time>
      </trkpt>
      <trkpt lat="45.66143" lon="2.97623">
        <ele>842.252197</ele>
        <time>2013-05-06T09:49:53Z</time>
      </trkpt>
      <trkpt lat="45.66125" lon="2.97545">
        <ele>842.73291</ele>
        <time>2013-05-06T09:50:15Z</time>
      </trkpt>
      <trkpt lat="45.66109" lon="2.97479">
        <ele>842.73291</ele>
        <time>2013-05-06T09:50:33Z</time>
      </trkpt>
      <trkpt lat="45.66079" lon="2.97441">
        <ele>843.213379</ele>
        <time>2013-05-06T09:50:50Z</time>
      </trkpt>
      <trkpt lat="45.66045" lon="2.9745">
        <ele>844.655518</ele>
        <time>2013-05-06T09:51:07Z</time>
      </trkpt>
      <trkpt lat="45.6601" lon="2.97454">
        <ele>845.616943</ele>
        <time>2013-05-06T09:51:28Z</time>
      </trkpt>
      <trkpt lat="45.66004" lon="2.97465">
        <ele>846.578369</ele>
        <time>2013-05-06T09:51:36Z</time>
      </trkpt>
      <trkpt lat="45.66003" lon="2.97473">
        <ele>847.058838</ele>
        <time>2013-05-06T09:51:51Z</time>
      </trkpt>
      <trkpt lat="45.66005" lon="2.97478">
        <ele>846.578369</ele>
        <time>2013-05-06T09:52:10Z</time>
      </trkpt>
      <trkpt lat="45.66006" lon="2.9748">
        <ele>847.539551</ele>
        <time>2013-05-06T09:53:08Z</time>
      </trkpt>
      <trkpt lat="45.66005" lon="2.97481">
        <ele>845.13623</ele>
        <time>2013-05-06T10:19:49Z</time>
      </trkpt>
      <trkpt lat="45.66001" lon="2.97479">
        <ele>846.578369</ele>
        <time>2013-05-06T10:19:59Z</time>
      </trkpt>
      <trkpt lat="45.66002" lon="2.97482">
        <ele>849.942871</ele>
        <time>2013-05-06T10:20:14Z</time>
      </trkpt>
      <trkpt lat="45.66002" lon="2.97483">
        <ele>852.82666</ele>
        <time>2013-05-06T10:20:33Z</time>
      </trkpt>
      <trkpt lat="45.66002" lon="2.97483">
        <ele>852.82666</ele>
        <time>2013-05-06T10:20:36Z</time>
      </trkpt>
      <trkpt lat="45.66004" lon="2.97485">
        <ele>853.307373</ele>
        <time>2013-05-06T10:20:39Z</time>
      </trkpt>
      <trkpt lat="45.66004" lon="2.97472">
        <ele>854.268799</ele>
        <time>2013-05-06T10:20:46Z</time>
      </trkpt>
      <trkpt lat="45.66003" lon="2.97461">
        <ele>854.749268</ele>
        <time>2013-05-06T10:20:52Z</time>
      </trkpt>
      <trkpt lat="45.65998" lon="2.97456">
        <ele>854.749268</ele>
        <time>2013-05-06T10:20:56Z</time>
      </trkpt>
      <trkpt lat="45.65978" lon="2.97444">
        <ele>856.191162</ele>
        <time>2013-05-06T10:21:11Z</time>
      </trkpt>
      <trkpt lat="45.65974" lon="2.97457">
        <ele>857.152588</ele>
        <time>2013-05-06T10:21:22Z</time>
      </trkpt>
      <trkpt lat="45.65972" lon="2.97483">
        <ele>858.594482</ele>
        <time>2013-05-06T10:21:40Z</time>
      </trkpt>
      <trkpt lat="45.65963" lon="2.97506">
        <ele>859.555908</ele>
        <time>2013-05-06T10:21:57Z</time>
      </trkpt>
      <trkpt lat="45.6596" lon="2.97513">
        <ele>860.517334</ele>
        <time>2013-05-06T10:22:02Z</time>
      </trkpt>
      <trkpt lat="45.65953" lon="2.97526">
        <ele>860.998047</ele>
        <time>2013-05-06T10:22:12Z</time>
      </trkpt>
      <trkpt lat="45.65952" lon="2.97535">
        <ele>861.47876</ele>
        <time>2013-05-06T10:22:18Z</time>
      </trkpt>
      <trkpt lat="45.65951" lon="2.97558">
        <ele>862.439941</ele>
        <time>2013-05-06T10:22:33Z</time>
      </trkpt>
      <trkpt lat="45.65952" lon="2.97571">
        <ele>862.920654</ele>
        <time>2013-05-06T10:22:41Z</time>
      </trkpt>
      <trkpt lat="45.65953" lon="2.97574">
        <ele>863.401367</ele>
        <time>2013-05-06T10:22:43Z</time>
      </trkpt>
      <trkpt lat="45.65952" lon="2.97585">
        <ele>864.362549</ele>
        <time>2013-05-06T10:22:50Z</time>
      </trkpt>
      <trkpt lat="45.65953" lon="2.97591">
        <ele>863.881836</ele>
        <time>2013-05-06T10:22:54Z</time>
      </trkpt>
      <trkpt lat="45.65952" lon="2.976">
        <ele>864.362549</ele>
        <time>2013-05-06T10:23:00Z</time>
      </trkpt>
      <trkpt lat="45.65953" lon="2.97606">
        <ele>865.323975</ele>
        <time>2013-05-06T10:23:04Z</time>
      </trkpt>
      <trkpt lat="45.65953" lon="2.97618">
        <ele>865.804688</ele>
        <time>2013-05-06T10:23:12Z</time>
      </trkpt>
      <trkpt lat="45.65953" lon="2.97632">
        <ele>866.765869</ele>
        <time>2013-05-06T10:23:21Z</time>
      </trkpt>
      <trkpt lat="45.65955" lon="2.97671">
        <ele>868.207764</ele>
        <time>2013-05-06T10:23:44Z</time>
      </trkpt>
      <trkpt lat="45.65958" lon="2.97712">
        <ele>868.688477</ele>
        <time>2013-05-06T10:24:04Z</time>
      </trkpt>
      <trkpt lat="45.65965" lon="2.97755">
        <ele>867.727051</ele>
        <time>2013-05-06T10:24:21Z</time>
      </trkpt>
      <trkpt lat="45.65977" lon="2.97814">
        <ele>868.688477</ele>
        <time>2013-05-06T10:24:40Z</time>
      </trkpt>
      <trkpt lat="45.65982" lon="2.97864">
        <ele>869.649902</ele>
        <time>2013-05-06T10:24:57Z</time>
      </trkpt>
      <trkpt lat="45.65985" lon="2.97913">
        <ele>870.611084</ele>
        <time>2013-05-06T10:25:17Z</time>
      </trkpt>
      <trkpt lat="45.65999" lon="2.97959">
        <ele>871.572266</ele>
        <time>2013-05-06T10:25:37Z</time>
      </trkpt>
      <trkpt lat="45.66016" lon="2.98007">
        <ele>873.495117</ele>
        <time>2013-05-06T10:26:00Z</time>
      </trkpt>
      <trkpt lat="45.66022" lon="2.98052">
        <ele>875.41748</ele>
        <time>2013-05-06T10:26:21Z</time>
      </trkpt>
      <trkpt lat="45.66016" lon="2.98089">
        <ele>878.301758</ele>
        <time>2013-05-06T10:26:43Z</time>
      </trkpt>
      <trkpt lat="45.66014" lon="2.98102">
        <ele>879.743652</ele>
        <time>2013-05-06T10:26:50Z</time>
      </trkpt>
      <trkpt lat="45.66008" lon="2.9814">
        <ele>881.185791</ele>
        <time>2013-05-06T10:27:13Z</time>
      </trkpt>
      <trkpt lat="45.66002" lon="2.98173">
        <ele>882.146973</ele>
        <time>2013-05-06T10:27:33Z</time>
      </trkpt>
      <trkpt lat="45.65997" lon="2.98209">
        <ele>884.06958</ele>
        <time>2013-05-06T10:27:55Z</time>
      </trkpt>
      <trkpt lat="45.65991" lon="2.98248">
        <ele>884.550293</ele>
        <time>2013-05-06T10:28:18Z</time>
      </trkpt>
      <trkpt lat="45.65989" lon="2.98262">
        <ele>885.031006</ele>
        <time>2013-05-06T10:28:26Z</time>
      </trkpt>
      <trkpt lat="45.65986" lon="2.98266">
        <ele>885.031006</ele>
        <time>2013-05-06T10:28:45Z</time>
      </trkpt>
      <trkpt lat="45.65979" lon="2.98267">
        <ele>886.4729</ele>
        <time>2013-05-06T10:29:22Z</time>
      </trkpt>
      <trkpt lat="45.65958" lon="2.9827">
        <ele>887.434082</ele>
        <time>2013-05-06T10:29:40Z</time>
      </trkpt>
      <trkpt lat="45.65946" lon="2.98274">
        <ele>888.395508</ele>
        <time>2013-05-06T10:29:50Z</time>
      </trkpt>
      <trkpt lat="45.65942" lon="2.98277">
        <ele>888.395508</ele>
        <time>2013-05-06T10:29:54Z</time>
      </trkpt>
      <trkpt lat="45.65937" lon="2.98278">
        <ele>888.876221</ele>
        <time>2013-05-06T10:29:58Z</time>
      </trkpt>
      <trkpt lat="45.65913" lon="2.98289">
        <ele>891.76001</ele>
        <time>2013-05-06T10:30:22Z</time>
      </trkpt>
      <trkpt lat="45.6589" lon="2.98302">
        <ele>894.163574</ele>
        <time>2013-05-06T10:30:45Z</time>
      </trkpt>
      <trkpt lat="45.65878" lon="2.98309">
        <ele>897.047363</ele>
        <time>2013-05-06T10:30:57Z</time>
      </trkpt>
      <trkpt lat="45.65871" lon="2.98314">
        <ele>897.528076</ele>
        <time>2013-05-06T10:31:21Z</time>
      </trkpt>
      <trkpt lat="45.65863" lon="2.98319">
        <ele>898.489258</ele>
        <time>2013-05-06T10:31:45Z</time>
      </trkpt>
      <trkpt lat="45.65859" lon="2.9832">
        <ele>899.931396</ele>
        <time>2013-05-06T10:32:12Z</time>
      </trkpt>
      <trkpt lat="45.6585" lon="2.98316">
        <ele>901.854004</ele>
        <time>2013-05-06T10:32:37Z</time>
      </trkpt>
      <trkpt lat="45.6584" lon="2.98303">
        <ele>905.218506</ele>
        <time>2013-05-06T10:32:56Z</time>
      </trkpt>
      <trkpt lat="45.65834" lon="2.98293">
        <ele>906.179688</ele>
        <time>2013-05-06T10:33:25Z</time>
      </trkpt>
      <trkpt lat="45.65828" lon="2.9828">
        <ele>907.621826</ele>
        <time>2013-05-06T10:33:58Z</time>
      </trkpt>
      <trkpt lat="45.65818" lon="2.98258">
        <ele>910.505859</ele>
        <time>2013-05-06T10:34:27Z</time>
      </trkpt>
      <trkpt lat="45.65812" lon="2.98242">
        <ele>912.428467</ele>
        <time>2013-05-06T10:34:52Z</time>
      </trkpt>
      <trkpt lat="45.65804" lon="2.98232">
        <ele>914.831787</ele>
        <time>2013-05-06T10:35:13Z</time>
      </trkpt>
      <trkpt lat="45.65804" lon="2.98231">
        <ele>914.831787</ele>
        <time>2013-05-06T10:35:14Z</time>
      </trkpt>
      <trkpt lat="45.65795" lon="2.98222">
        <ele>916.273682</ele>
        <time>2013-05-06T10:35:40Z</time>
      </trkpt>
      <trkpt lat="45.65786" lon="2.9821">
        <ele>918.196289</ele>
        <time>2013-05-06T10:36:06Z</time>
      </trkpt>
      <trkpt lat="45.65779" lon="2.98198">
        <ele>921.560791</ele>
        <time>2013-05-06T10:37:23Z</time>
      </trkpt>
      <trkpt lat="45.65765" lon="2.98178">
        <ele>923.483643</ele>
        <time>2013-05-06T10:37:48Z</time>
      </trkpt>
      <trkpt lat="45.65757" lon="2.98166">
        <ele>926.367676</ele>
        <time>2013-05-06T10:38:03Z</time>
      </trkpt>
      <trkpt lat="45.65741" lon="2.98144">
        <ele>927.329102</ele>
        <time>2013-05-06T10:38:30Z</time>
      </trkpt>
      <trkpt lat="45.6573" lon="2.9813">
        <ele>927.80957</ele>
        <time>2013-05-06T10:38:56Z</time>
      </trkpt>
      <trkpt lat="45.65725" lon="2.98124">
        <ele>928.290283</ele>
        <time>2013-05-06T10:39:32Z</time>
      </trkpt>
      <trkpt lat="45.65707" lon="2.98103">
        <ele>930.212891</ele>
        <time>2013-05-06T10:39:54Z</time>
      </trkpt>
      <trkpt lat="45.65698" lon="2.98092">
        <ele>932.616211</ele>
        <time>2013-05-06T10:40:06Z</time>
      </trkpt>
      <trkpt lat="45.65694" lon="2.9809">
        <ele>932.135498</ele>
        <time>2013-05-06T10:40:10Z</time>
      </trkpt>
      <trkpt lat="45.65685" lon="2.98091">
        <ele>933.09668</ele>
        <time>2013-05-06T10:40:19Z</time>
      </trkpt>
      <trkpt lat="45.65681" lon="2.98099">
        <ele>935.5</ele>
        <time>2013-05-06T10:40:26Z</time>
      </trkpt>
      <trkpt lat="45.65678" lon="2.98103">
        <ele>935.5</ele>
        <time>2013-05-06T10:40:30Z</time>
      </trkpt>
      <trkpt lat="45.65676" lon="2.98109">
        <ele>936.941895</ele>
        <time>2013-05-06T10:40:35Z</time>
      </trkpt>
      <trkpt lat="45.65663" lon="2.98126">
        <ele>938.864746</ele>
        <time>2013-05-06T10:40:53Z</time>
      </trkpt>
      <trkpt lat="45.65656" lon="2.98129">
        <ele>939.345215</ele>
        <time>2013-05-06T10:41:00Z</time>
      </trkpt>
      <trkpt lat="45.65628" lon="2.98138">
        <ele>940.306885</ele>
        <time>2013-05-06T10:41:23Z</time>
      </trkpt>
      <trkpt lat="45.65595" lon="2.98161">
        <ele>939.345215</ele>
        <time>2013-05-06T10:41:38Z</time>
      </trkpt>
      <trkpt lat="45.65579" lon="2.98173">
        <ele>938.864746</ele>
        <time>2013-05-06T10:41:42Z</time>
      </trkpt>
      <trkpt lat="45.65522" lon="2.98207">
        <ele>935.019531</ele>
        <time>2013-05-06T10:41:53Z</time>
      </trkpt>
      <trkpt lat="45.6547" lon="2.9825">
        <ele>933.09668</ele>
        <time>2013-05-06T10:42:02Z</time>
      </trkpt>
      <trkpt lat="45.65455" lon="2.98262">
        <ele>933.09668</ele>
        <time>2013-05-06T10:42:12Z</time>
      </trkpt>
      <trkpt lat="45.65455" lon="2.98263">
        <ele>934.058105</ele>
        <time>2013-05-06T10:43:23Z</time>
      </trkpt>
      <trkpt lat="45.65452" lon="2.98262">
        <ele>934.538818</ele>
        <time>2013-05-06T10:43:26Z</time>
      </trkpt>
      <trkpt lat="45.65449" lon="2.98263">
        <ele>934.058105</ele>
        <time>2013-05-06T10:43:28Z</time>
      </trkpt>
      <trkpt lat="45.65428" lon="2.98265">
        <ele>934.538818</ele>
        <time>2013-05-06T10:43:46Z</time>
      </trkpt>
      <trkpt lat="45.65402" lon="2.98274">
        <ele>935.980713</ele>
        <time>2013-05-06T10:44:06Z</time>
      </trkpt>
      <trkpt lat="45.65378" lon="2.98292">
        <ele>937.90332</ele>
        <time>2013-05-06T10:44:27Z</time>
      </trkpt>
      <trkpt lat="45.65357" lon="2.98316">
        <ele>939.345215</ele>
        <time>2013-05-06T10:44:48Z</time>
      </trkpt>
      <trkpt lat="45.65341" lon="2.98331">
        <ele>940.787354</ele>
        <time>2013-05-06T10:45:06Z</time>
      </trkpt>
      <trkpt lat="45.65322" lon="2.9835">
        <ele>942.710205</ele>
        <time>2013-05-06T10:45:28Z</time>
      </trkpt>
      <trkpt lat="45.65316" lon="2.98356">
        <ele>943.190674</ele>
        <time>2013-05-06T10:45:34Z</time>
      </trkpt>
      <trkpt lat="45.65311" lon="2.9836">
        <ele>943.190674</ele>
        <time>2013-05-06T10:45:39Z</time>
      </trkpt>
      <trkpt lat="45.65304" lon="2.98365">
        <ele>943.671387</ele>
        <time>2013-05-06T10:45:46Z</time>
      </trkpt>
      <trkpt lat="45.6528" lon="2.98384">
        <ele>945.113281</ele>
        <time>2013-05-06T10:46:11Z</time>
      </trkpt>
      <trkpt lat="45.65258" lon="2.98387">
        <ele>947.035889</ele>
        <time>2013-05-06T10:46:31Z</time>
      </trkpt>
      <trkpt lat="45.6525" lon="2.98386">
        <ele>947.035889</ele>
        <time>2013-05-06T10:46:36Z</time>
      </trkpt>
      <trkpt lat="45.65192" lon="2.98397">
        <ele>943.671387</ele>
        <time>2013-05-06T10:46:52Z</time>
      </trkpt>
      <trkpt lat="45.65081" lon="2.98411">
        <ele>941.268066</ele>
        <time>2013-05-06T10:47:11Z</time>
      </trkpt>
      <trkpt lat="45.65076" lon="2.98413">
        <ele>941.748779</ele>
        <time>2013-05-06T10:47:12Z</time>
      </trkpt>
      <trkpt lat="45.65063" lon="2.98423">
        <ele>942.229492</ele>
        <time>2013-05-06T10:47:15Z</time>
      </trkpt>
      <trkpt lat="45.65035" lon="2.98465">
        <ele>943.671387</ele>
        <time>2013-05-06T10:47:31Z</time>
      </trkpt>
      <trkpt lat="45.65019" lon="2.98501">
        <ele>945.113281</ele>
        <time>2013-05-06T10:47:50Z</time>
      </trkpt>
      <trkpt lat="45.65003" lon="2.98537">
        <ele>946.55542</ele>
        <time>2013-05-06T10:48:12Z</time>
      </trkpt>
      <trkpt lat="45.64988" lon="2.98569">
        <ele>947.997314</ele>
        <time>2013-05-06T10:48:32Z</time>
      </trkpt>
      <trkpt lat="45.64975" lon="2.98596">
        <ele>948.958496</ele>
        <time>2013-05-06T10:48:50Z</time>
      </trkpt>
      <trkpt lat="45.64956" lon="2.98624">
        <ele>950.400635</ele>
        <time>2013-05-06T10:49:11Z</time>
      </trkpt>
      <trkpt lat="45.64931" lon="2.98658">
        <ele>952.803711</ele>
        <time>2013-05-06T10:49:36Z</time>
      </trkpt>
      <trkpt lat="45.64906" lon="2.98691">
        <ele>953.765137</ele>
        <time>2013-05-06T10:50:00Z</time>
      </trkpt>
      <trkpt lat="45.64888" lon="2.98719">
        <ele>955.687744</ele>
        <time>2013-05-06T10:50:20Z</time>
      </trkpt>
      <trkpt lat="45.64884" lon="2.98727">
        <ele>956.168457</ele>
        <time>2013-05-06T10:50:25Z</time>
      </trkpt>
      <trkpt lat="45.64879" lon="2.98737">
        <ele>956.64917</ele>
        <time>2013-05-06T10:50:32Z</time>
      </trkpt>
      <trkpt lat="45.64878" lon="2.98746">
        <ele>956.64917</ele>
        <time>2013-05-06T10:50:37Z</time>
      </trkpt>
      <trkpt lat="45.64857" lon="2.9878">
        <ele>957.129883</ele>
        <time>2013-05-06T10:51:00Z</time>
      </trkpt>
      <trkpt lat="45.6484" lon="2.98815">
        <ele>959.533203</ele>
        <time>2013-05-06T10:51:22Z</time>
      </trkpt>
      <trkpt lat="45.64822" lon="2.98848">
        <ele>960.975098</ele>
        <time>2013-05-06T10:51:43Z</time>
      </trkpt>
      <trkpt lat="45.64794" lon="2.98877">
        <ele>961.936523</ele>
        <time>2013-05-06T10:52:05Z</time>
      </trkpt>
      <trkpt lat="45.64763" lon="2.98903">
        <ele>961.936523</ele>
        <time>2013-05-06T10:52:23Z</time>
      </trkpt>
      <trkpt lat="45.64756" lon="2.98913">
        <ele>962.416992</ele>
        <time>2013-05-06T10:52:31Z</time>
      </trkpt>
      <trkpt lat="45.64754" lon="2.98908">
        <ele>962.416992</ele>
        <time>2013-05-06T10:52:36Z</time>
      </trkpt>
      <trkpt lat="45.64755" lon="2.989">
        <ele>962.416992</ele>
        <time>2013-05-06T10:52:40Z</time>
      </trkpt>
      <trkpt lat="45.64753" lon="2.98893">
        <ele>962.416992</ele>
        <time>2013-05-06T10:52:57Z</time>
      </trkpt>
      <trkpt lat="45.64754" lon="2.98893">
        <ele>962.897705</ele>
        <time>2013-05-06T10:54:35Z</time>
      </trkpt>
      <trkpt lat="45.64751" lon="2.98885">
        <ele>962.897705</ele>
        <time>2013-05-06T10:54:59Z</time>
      </trkpt>
      <trkpt lat="45.64751" lon="2.98883">
        <ele>963.378418</ele>
        <time>2013-05-06T10:55:53Z</time>
      </trkpt>
      <trkpt lat="45.64746" lon="2.98834">
        <ele>962.897705</ele>
        <time>2013-05-06T10:56:10Z</time>
      </trkpt>
      <trkpt lat="45.64739" lon="2.98762">
        <ele>963.378418</ele>
        <time>2013-05-06T10:56:30Z</time>
      </trkpt>
      <trkpt lat="45.64734" lon="2.98708">
        <ele>963.858887</ele>
        <time>2013-05-06T10:56:44Z</time>
      </trkpt>
      <trkpt lat="45.64733" lon="2.98633">
        <ele>965.781738</ele>
        <time>2013-05-06T10:57:04Z</time>
      </trkpt>
      <trkpt lat="45.64736" lon="2.9857">
        <ele>968.184814</ele>
        <time>2013-05-06T10:57:29Z</time>
      </trkpt>
      <trkpt lat="45.6474" lon="2.98524">
        <ele>969.626953</ele>
        <time>2013-05-06T10:57:48Z</time>
      </trkpt>
      <trkpt lat="45.64745" lon="2.9847">
        <ele>970.107422</ele>
        <time>2013-05-06T10:58:13Z</time>
      </trkpt>
      <trkpt lat="45.64746" lon="2.98468">
        <ele>971.068848</ele>
        <time>2013-05-06T10:58:34Z</time>
      </trkpt>
      <trkpt lat="45.64749" lon="2.98453">
        <ele>972.030273</ele>
        <time>2013-05-06T10:59:02Z</time>
      </trkpt>
      <trkpt lat="45.64751" lon="2.98443">
        <ele>972.510986</ele>
        <time>2013-05-06T10:59:07Z</time>
      </trkpt>
      <trkpt lat="45.64761" lon="2.98412">
        <ele>972.510986</ele>
        <time>2013-05-06T10:59:25Z</time>
      </trkpt>
      <trkpt lat="45.64763" lon="2.98405">
        <ele>972.991699</ele>
        <time>2013-05-06T10:59:29Z</time>
      </trkpt>
      <trkpt lat="45.64775" lon="2.98366">
        <ele>974.433594</ele>
        <time>2013-05-06T10:59:53Z</time>
      </trkpt>
      <trkpt lat="45.64788" lon="2.98327">
        <ele>974.914307</ele>
        <time>2013-05-06T11:00:15Z</time>
      </trkpt>
      <trkpt lat="45.64793" lon="2.98279">
        <ele>975.394775</ele>
        <time>2013-05-06T11:00:33Z</time>
      </trkpt>
      <trkpt lat="45.64793" lon="2.98204">
        <ele>975.875488</ele>
        <time>2013-05-06T11:00:56Z</time>
      </trkpt>
      <trkpt lat="45.64792" lon="2.98144">
        <ele>977.317627</ele>
        <time>2013-05-06T11:01:17Z</time>
      </trkpt>
      <trkpt lat="45.64792" lon="2.98085">
        <ele>978.278809</ele>
        <time>2013-05-06T11:01:38Z</time>
      </trkpt>
      <trkpt lat="45.64791" lon="2.98042">
        <ele>981.643311</ele>
        <time>2013-05-06T11:01:56Z</time>
      </trkpt>
      <trkpt lat="45.64787" lon="2.97991">
        <ele>982.124023</ele>
        <time>2013-05-06T11:02:18Z</time>
      </trkpt>
      <trkpt lat="45.6479" lon="2.97941">
        <ele>984.046631</ele>
        <time>2013-05-06T11:02:43Z</time>
      </trkpt>
      <trkpt lat="45.64793" lon="2.97926">
        <ele>985.008057</ele>
        <time>2013-05-06T11:02:53Z</time>
      </trkpt>
      <trkpt lat="45.64795" lon="2.979">
        <ele>986.449951</ele>
        <time>2013-05-06T11:03:10Z</time>
      </trkpt>
      <trkpt lat="45.64796" lon="2.9787">
        <ele>987.891846</ele>
        <time>2013-05-06T11:03:29Z</time>
      </trkpt>
      <trkpt lat="45.64801" lon="2.97836">
        <ele>989.814697</ele>
        <time>2013-05-06T11:03:49Z</time>
      </trkpt>
      <trkpt lat="45.64808" lon="2.97804">
        <ele>991.737305</ele>
        <time>2013-05-06T11:04:07Z</time>
      </trkpt>
      <trkpt lat="45.64813" lon="2.97774">
        <ele>992.69873</ele>
        <time>2013-05-06T11:04:27Z</time>
      </trkpt>
      <trkpt lat="45.64814" lon="2.97774">
        <ele>991.256592</ele>
        <time>2013-05-06T11:06:00Z</time>
      </trkpt>
      <trkpt lat="45.64815" lon="2.97773">
        <ele>991.737305</ele>
        <time>2013-05-06T11:08:35Z</time>
      </trkpt>
      <trkpt lat="45.64814" lon="2.97761">
        <ele>991.737305</ele>
        <time>2013-05-06T11:08:44Z</time>
      </trkpt>
      <trkpt lat="45.64812" lon="2.97711">
        <ele>990.29541</ele>
        <time>2013-05-06T11:09:00Z</time>
      </trkpt>
      <trkpt lat="45.64814" lon="2.97635">
        <ele>988.853516</ele>
        <time>2013-05-06T11:09:16Z</time>
      </trkpt>
      <trkpt lat="45.64819" lon="2.97568">
        <ele>987.411133</ele>
        <time>2013-05-06T11:09:29Z</time>
      </trkpt>
      <trkpt lat="45.64826" lon="2.97488">
        <ele>985.969238</ele>
        <time>2013-05-06T11:09:46Z</time>
      </trkpt>
      <trkpt lat="45.64816" lon="2.97402">
        <ele>983.565918</ele>
        <time>2013-05-06T11:10:04Z</time>
      </trkpt>
      <trkpt lat="45.64799" lon="2.97369">
        <ele>984.046631</ele>
        <time>2013-05-06T11:10:24Z</time>
      </trkpt>
      <trkpt lat="45.64787" lon="2.97342">
        <ele>985.969238</ele>
        <time>2013-05-06T11:10:43Z</time>
      </trkpt>
      <trkpt lat="45.64783" lon="2.97335">
        <ele>986.93042</ele>
        <time>2013-05-06T11:10:49Z</time>
      </trkpt>
      <trkpt lat="45.64782" lon="2.97332">
        <ele>987.411133</ele>
        <time>2013-05-06T11:10:52Z</time>
      </trkpt>
      <trkpt lat="45.64781" lon="2.97329">
        <ele>987.891846</ele>
        <time>2013-05-06T11:10:54Z</time>
      </trkpt>
      <trkpt lat="45.64777" lon="2.97323">
        <ele>988.853516</ele>
        <time>2013-05-06T11:10:59Z</time>
      </trkpt>
      <trkpt lat="45.6476" lon="2.9729">
        <ele>990.29541</ele>
        <time>2013-05-06T11:11:26Z</time>
      </trkpt>
      <trkpt lat="45.64742" lon="2.97263">
        <ele>991.256592</ele>
        <time>2013-05-06T11:11:47Z</time>
      </trkpt>
      <trkpt lat="45.64723" lon="2.97237">
        <ele>993.659912</ele>
        <time>2013-05-06T11:12:08Z</time>
      </trkpt>
      <trkpt lat="45.64705" lon="2.97211">
        <ele>995.58252</ele>
        <time>2013-05-06T11:12:29Z</time>
      </trkpt>
      <trkpt lat="45.64686" lon="2.97186">
        <ele>997.505127</ele>
        <time>2013-05-06T11:12:51Z</time>
      </trkpt>
      <trkpt lat="45.6467" lon="2.97165">
        <ele>999.908447</ele>
        <time>2013-05-06T11:13:12Z</time>
      </trkpt>
      <trkpt lat="45.64666" lon="2.9716">
        <ele>1000.38916</ele>
        <time>2013-05-06T11:13:17Z</time>
      </trkpt>
      <trkpt lat="45.64663" lon="2.97155">
        <ele>1000.869629</ele>
        <time>2013-05-06T11:13:21Z</time>
      </trkpt>
      <trkpt lat="45.64658" lon="2.97149">
        <ele>1000.869629</ele>
        <time>2013-05-06T11:13:41Z</time>
      </trkpt>
      <trkpt lat="45.64652" lon="2.97142">
        <ele>1000.869629</ele>
        <time>2013-05-06T11:14:32Z</time>
      </trkpt>
      <trkpt lat="45.64643" lon="2.97125">
        <ele>1002.792236</ele>
        <time>2013-05-06T11:14:54Z</time>
      </trkpt>
      <trkpt lat="45.64637" lon="2.97107">
        <ele>1004.234619</ele>
        <time>2013-05-06T11:15:23Z</time>
      </trkpt>
      <trkpt lat="45.64632" lon="2.97092">
        <ele>1005.195801</ele>
        <time>2013-05-06T11:15:44Z</time>
      </trkpt>
      <trkpt lat="45.64625" lon="2.97069">
        <ele>1008.560303</ele>
        <time>2013-05-06T11:16:07Z</time>
      </trkpt>
      <trkpt lat="45.64616" lon="2.97044">
        <ele>1010.963623</ele>
        <time>2013-05-06T11:16:33Z</time>
      </trkpt>
      <trkpt lat="45.64613" lon="2.97034">
        <ele>1012.405518</ele>
        <time>2013-05-06T11:17:01Z</time>
      </trkpt>
      <trkpt lat="45.64611" lon="2.97012">
        <ele>1014.328125</ele>
        <time>2013-05-06T11:17:26Z</time>
      </trkpt>
      <trkpt lat="45.6461" lon="2.96993">
        <ele>1015.289551</ele>
        <time>2013-05-06T11:17:54Z</time>
      </trkpt>
      <trkpt lat="45.64611" lon="2.96993">
        <ele>1016.731445</ele>
        <time>2013-05-06T11:18:37Z</time>
      </trkpt>
      <trkpt lat="45.6461" lon="2.96978">
        <ele>1016.731445</ele>
        <time>2013-05-06T11:18:47Z</time>
      </trkpt>
      <trkpt lat="45.64608" lon="2.96956">
        <ele>1017.212158</ele>
        <time>2013-05-06T11:19:01Z</time>
      </trkpt>
      <trkpt lat="45.64605" lon="2.96934">
        <ele>1018.654053</ele>
        <time>2013-05-06T11:19:16Z</time>
      </trkpt>
      <trkpt lat="45.64604" lon="2.96914">
        <ele>1020.576904</ele>
        <time>2013-05-06T11:19:29Z</time>
      </trkpt>
      <trkpt lat="45.64595" lon="2.96884">
        <ele>1021.057617</ele>
        <time>2013-05-06T11:19:50Z</time>
      </trkpt>
      <trkpt lat="45.64591" lon="2.96876">
        <ele>1021.538086</ele>
        <time>2013-05-06T11:19:56Z</time>
      </trkpt>
      <trkpt lat="45.64587" lon="2.96858">
        <ele>1022.018799</ele>
        <time>2013-05-06T11:20:09Z</time>
      </trkpt>
      <trkpt lat="45.64578" lon="2.96826">
        <ele>1022.499512</ele>
        <time>2013-05-06T11:20:29Z</time>
      </trkpt>
      <trkpt lat="45.64567" lon="2.96778">
        <ele>1023.460938</ele>
        <time>2013-05-06T11:20:50Z</time>
      </trkpt>
      <trkpt lat="45.64552" lon="2.96721">
        <ele>1023.941406</ele>
        <time>2013-05-06T11:21:08Z</time>
      </trkpt>
      <trkpt lat="45.64532" lon="2.96628">
        <ele>1022.499512</ele>
        <time>2013-05-06T11:21:32Z</time>
      </trkpt>
      <trkpt lat="45.64523" lon="2.96575">
        <ele>1022.499512</ele>
        <time>2013-05-06T11:21:49Z</time>
      </trkpt>
      <trkpt lat="45.64526" lon="2.96508">
        <ele>1022.980225</ele>
        <time>2013-05-06T11:22:11Z</time>
      </trkpt>
      <trkpt lat="45.64526" lon="2.96454">
        <ele>1022.018799</ele>
        <time>2013-05-06T11:22:33Z</time>
      </trkpt>
      <trkpt lat="45.64526" lon="2.96396">
        <ele>1022.499512</ele>
        <time>2013-05-06T11:22:53Z</time>
      </trkpt>
      <trkpt lat="45.64525" lon="2.96384">
        <ele>1022.980225</ele>
        <time>2013-05-06T11:22:57Z</time>
      </trkpt>
      <trkpt lat="45.64527" lon="2.96315">
        <ele>1022.980225</ele>
        <time>2013-05-06T11:23:18Z</time>
      </trkpt>
      <trkpt lat="45.64511" lon="2.96258">
        <ele>1023.941406</ele>
        <time>2013-05-06T11:23:36Z</time>
      </trkpt>
      <trkpt lat="45.64472" lon="2.96217">
        <ele>1022.499512</ele>
        <time>2013-05-06T11:23:55Z</time>
      </trkpt>
      <trkpt lat="45.64432" lon="2.96176">
        <ele>1022.980225</ele>
        <time>2013-05-06T11:24:14Z</time>
      </trkpt>
      <trkpt lat="45.6442" lon="2.96113">
        <ele>1023.941406</ele>
        <time>2013-05-06T11:24:30Z</time>
      </trkpt>
      <trkpt lat="45.6442" lon="2.96036">
        <ele>1025.383301</ele>
        <time>2013-05-06T11:24:52Z</time>
      </trkpt>
      <trkpt lat="45.6442" lon="2.95958">
        <ele>1027.306152</ele>
        <time>2013-05-06T11:25:17Z</time>
      </trkpt>
      <trkpt lat="45.6442" lon="2.95887">
        <ele>1028.748047</ele>
        <time>2013-05-06T11:25:40Z</time>
      </trkpt>
      <trkpt lat="45.64419" lon="2.9581">
        <ele>1029.709229</ele>
        <time>2013-05-06T11:26:04Z</time>
      </trkpt>
      <trkpt lat="45.64419" lon="2.95757">
        <ele>1030.189941</ele>
        <time>2013-05-06T11:26:19Z</time>
      </trkpt>
      <trkpt lat="45.64417" lon="2.95654">
        <ele>1030.670654</ele>
        <time>2013-05-06T11:26:46Z</time>
      </trkpt>
      <trkpt lat="45.64417" lon="2.95598">
        <ele>1031.151367</ele>
        <time>2013-05-06T11:27:02Z</time>
      </trkpt>
      <trkpt lat="45.64415" lon="2.95509">
        <ele>1032.112549</ele>
        <time>2013-05-06T11:27:24Z</time>
      </trkpt>
      <trkpt lat="45.64393" lon="2.95374">
        <ele>1029.709229</ele>
        <time>2013-05-06T11:27:45Z</time>
      </trkpt>
      <trkpt lat="45.64371" lon="2.95252">
        <ele>1028.267334</ele>
        <time>2013-05-06T11:28:04Z</time>
      </trkpt>
      <trkpt lat="45.64352" lon="2.95153">
        <ele>1029.228516</ele>
        <time>2013-05-06T11:28:28Z</time>
      </trkpt>
      <trkpt lat="45.64341" lon="2.95094">
        <ele>1030.670654</ele>
        <time>2013-05-06T11:28:51Z</time>
      </trkpt>
      <trkpt lat="45.64335" lon="2.95059">
        <ele>1034.035156</ele>
        <time>2013-05-06T11:29:06Z</time>
      </trkpt>
      <trkpt lat="45.64326" lon="2.9501">
        <ele>1034.515869</ele>
        <time>2013-05-06T11:29:28Z</time>
      </trkpt>
      <trkpt lat="45.64327" lon="2.9501">
        <ele>1035.477051</ele>
        <time>2013-05-06T11:29:57Z</time>
      </trkpt>
      <trkpt lat="45.64324" lon="2.94996">
        <ele>1034.035156</ele>
        <time>2013-05-06T11:30:25Z</time>
      </trkpt>
      <trkpt lat="45.64308" lon="2.94912">
        <ele>1034.515869</ele>
        <time>2013-05-06T11:30:46Z</time>
      </trkpt>
      <trkpt lat="45.64287" lon="2.94808">
        <ele>1034.515869</ele>
        <time>2013-05-06T11:31:08Z</time>
      </trkpt>
      <trkpt lat="45.64266" lon="2.94732">
        <ele>1034.996582</ele>
        <time>2013-05-06T11:31:31Z</time>
      </trkpt>
      <trkpt lat="45.64243" lon="2.94661">
        <ele>1035.477051</ele>
        <time>2013-05-06T11:31:55Z</time>
      </trkpt>
      <trkpt lat="45.64216" lon="2.94576">
        <ele>1036.919189</ele>
        <time>2013-05-06T11:32:23Z</time>
      </trkpt>
      <trkpt lat="45.6419" lon="2.94521">
        <ele>1039.803223</ele>
        <time>2013-05-06T11:32:45Z</time>
      </trkpt>
      <trkpt lat="45.64166" lon="2.9448">
        <ele>1041.245117</ele>
        <time>2013-05-06T11:33:05Z</time>
      </trkpt>
      <trkpt lat="45.6414" lon="2.94436">
        <ele>1041.245117</ele>
        <time>2013-05-06T11:33:25Z</time>
      </trkpt>
      <trkpt lat="45.64109" lon="2.94398">
        <ele>1042.206543</ele>
        <time>2013-05-06T11:33:47Z</time>
      </trkpt>
      <trkpt lat="45.64075" lon="2.94389">
        <ele>1042.687256</ele>
        <time>2013-05-06T11:34:06Z</time>
      </trkpt>
      <trkpt lat="45.64035" lon="2.9438">
        <ele>1043.648438</ele>
        <time>2013-05-06T11:34:30Z</time>
      </trkpt>
      <trkpt lat="45.64025" lon="2.94373">
        <ele>1043.167725</ele>
        <time>2013-05-06T11:34:35Z</time>
      </trkpt>
      <trkpt lat="45.64037" lon="2.94311">
        <ele>1040.764404</ele>
        <time>2013-05-06T11:34:48Z</time>
      </trkpt>
      <trkpt lat="45.64045" lon="2.94272">
        <ele>1039.32251</ele>
        <time>2013-05-06T11:34:59Z</time>
      </trkpt>
      <trkpt lat="45.64046" lon="2.94274">
        <ele>1039.32251</ele>
        <time>2013-05-06T11:36:13Z</time>
      </trkpt>
      <trkpt lat="45.64046" lon="2.94241">
        <ele>1039.32251</ele>
        <time>2013-05-06T11:36:28Z</time>
      </trkpt>
      <trkpt lat="45.64035" lon="2.9417">
        <ele>1039.32251</ele>
        <time>2013-05-06T11:36:50Z</time>
      </trkpt>
      <trkpt lat="45.64028" lon="2.94107">
        <ele>1041.245117</ele>
        <time>2013-05-06T11:37:10Z</time>
      </trkpt>
      <trkpt lat="45.64027" lon="2.94057">
        <ele>1041.72583</ele>
        <time>2013-05-06T11:37:29Z</time>
      </trkpt>
      <trkpt lat="45.64026" lon="2.94005">
        <ele>1042.687256</ele>
        <time>2013-05-06T11:37:52Z</time>
      </trkpt>
      <trkpt lat="45.64029" lon="2.93962">
        <ele>1044.609619</ele>
        <time>2013-05-06T11:38:13Z</time>
      </trkpt>
      <trkpt lat="45.64038" lon="2.93944">
        <ele>1045.571045</ele>
        <time>2013-05-06T11:38:23Z</time>
      </trkpt>
      <trkpt lat="45.64026" lon="2.93923">
        <ele>1047.012939</ele>
        <time>2013-05-06T11:38:39Z</time>
      </trkpt>
      <trkpt lat="45.64022" lon="2.93917">
        <ele>1047.493652</ele>
        <time>2013-05-06T11:38:44Z</time>
      </trkpt>
      <trkpt lat="45.64021" lon="2.93911">
        <ele>1047.493652</ele>
        <time>2013-05-06T11:38:48Z</time>
      </trkpt>
      <trkpt lat="45.64013" lon="2.93889">
        <ele>1048.454834</ele>
        <time>2013-05-06T11:39:02Z</time>
      </trkpt>
      <trkpt lat="45.64001" lon="2.93849">
        <ele>1049.41626</ele>
        <time>2013-05-06T11:39:26Z</time>
      </trkpt>
      <trkpt lat="45.63999" lon="2.93844">
        <ele>1050.377686</ele>
        <time>2013-05-06T11:39:29Z</time>
      </trkpt>
      <trkpt lat="45.63997" lon="2.93831">
        <ele>1050.377686</ele>
        <time>2013-05-06T11:39:36Z</time>
      </trkpt>
      <trkpt lat="45.63989" lon="2.93791">
        <ele>1050.377686</ele>
        <time>2013-05-06T11:39:57Z</time>
      </trkpt>
      <trkpt lat="45.63976" lon="2.93744">
        <ele>1051.81958</ele>
        <time>2013-05-06T11:40:18Z</time>
      </trkpt>
      <trkpt lat="45.6396" lon="2.93678">
        <ele>1050.858154</ele>
        <time>2013-05-06T11:40:34Z</time>
      </trkpt>
      <trkpt lat="45.63944" lon="2.93607">
        <ele>1050.858154</ele>
        <time>2013-05-06T11:40:53Z</time>
      </trkpt>
      <trkpt lat="45.63923" lon="2.9353">
        <ele>1050.858154</ele>
        <time>2013-05-06T11:41:14Z</time>
      </trkpt>
      <trkpt lat="45.63905" lon="2.93454">
        <ele>1051.81958</ele>
        <time>2013-05-06T11:41:38Z</time>
      </trkpt>
      <trkpt lat="45.63896" lon="2.93415">
        <ele>1054.223145</ele>
        <time>2013-05-06T11:41:58Z</time>
      </trkpt>
      <trkpt lat="45.63892" lon="2.93398">
        <ele>1054.223145</ele>
        <time>2013-05-06T11:42:09Z</time>
      </trkpt>
      <trkpt lat="45.6389" lon="2.93392">
        <ele>1055.184326</ele>
        <time>2013-05-06T11:42:13Z</time>
      </trkpt>
      <trkpt lat="45.63882" lon="2.93362">
        <ele>1056.145508</ele>
        <time>2013-05-06T11:42:34Z</time>
      </trkpt>
      <trkpt lat="45.63878" lon="2.93343">
        <ele>1057.106934</ele>
        <time>2013-05-06T11:43:42Z</time>
      </trkpt>
      <trkpt lat="45.63868" lon="2.93312">
        <ele>1057.587646</ele>
        <time>2013-05-06T11:44:10Z</time>
      </trkpt>
      <trkpt lat="45.63861" lon="2.93293">
        <ele>1059.990723</ele>
        <time>2013-05-06T11:44:36Z</time>
      </trkpt>
      <trkpt lat="45.63856" lon="2.93283">
        <ele>1060.471436</ele>
        <time>2013-05-06T11:45:05Z</time>
      </trkpt>
      <trkpt lat="45.63848" lon="2.93265">
        <ele>1060.471436</ele>
        <time>2013-05-06T11:45:18Z</time>
      </trkpt>
      <trkpt lat="45.63835" lon="2.93241">
        <ele>1060.952148</ele>
        <time>2013-05-06T11:45:39Z</time>
      </trkpt>
      <trkpt lat="45.63826" lon="2.93226">
        <ele>1061.432861</ele>
        <time>2013-05-06T11:45:51Z</time>
      </trkpt>
      <trkpt lat="45.63815" lon="2.93203">
        <ele>1063.835938</ele>
        <time>2013-05-06T11:46:09Z</time>
      </trkpt>
      <trkpt lat="45.63808" lon="2.9319">
        <ele>1065.278076</ele>
        <time>2013-05-06T11:46:20Z</time>
      </trkpt>
      <trkpt lat="45.63801" lon="2.93173">
        <ele>1065.278076</ele>
        <time>2013-05-06T11:46:33Z</time>
      </trkpt>
      <trkpt lat="45.63786" lon="2.93139">
        <ele>1066.719971</ele>
        <time>2013-05-06T11:46:57Z</time>
      </trkpt>
      <trkpt lat="45.63772" lon="2.93109">
        <ele>1067.200684</ele>
        <time>2013-05-06T11:47:15Z</time>
      </trkpt>
      <trkpt lat="45.63754" lon="2.93066">
        <ele>1067.681152</ele>
        <time>2013-05-06T11:47:38Z</time>
      </trkpt>
      <trkpt lat="45.63736" lon="2.93024">
        <ele>1069.604248</ele>
        <time>2013-05-06T11:47:55Z</time>
      </trkpt>
      <trkpt lat="45.63713" lon="2.92979">
        <ele>1072.007324</ele>
        <time>2013-05-06T11:48:16Z</time>
      </trkpt>
      <trkpt lat="45.63703" lon="2.92949">
        <ele>1072.007324</ele>
        <time>2013-05-06T11:48:29Z</time>
      </trkpt>
      <trkpt lat="45.63698" lon="2.92937">
        <ele>1072.488037</ele>
        <time>2013-05-06T11:48:34Z</time>
      </trkpt>
      <trkpt lat="45.63676" lon="2.92879">
        <ele>1072.96875</ele>
        <time>2013-05-06T11:49:01Z</time>
      </trkpt>
      <trkpt lat="45.63657" lon="2.92842">
        <ele>1074.891357</ele>
        <time>2013-05-06T11:49:23Z</time>
      </trkpt>
      <trkpt lat="45.63649" lon="2.9283">
        <ele>1076.333252</ele>
        <time>2013-05-06T11:49:31Z</time>
      </trkpt>
      <trkpt lat="45.63631" lon="2.92801">
        <ele>1077.775146</ele>
        <time>2013-05-06T11:49:50Z</time>
      </trkpt>
      <trkpt lat="45.63605" lon="2.92767">
        <ele>1078.255859</ele>
        <time>2013-05-06T11:50:16Z</time>
      </trkpt>
      <trkpt lat="45.63604" lon="2.92766">
        <ele>1078.736572</ele>
        <time>2013-05-06T11:50:43Z</time>
      </trkpt>
      <trkpt lat="45.63565" lon="2.92737">
        <ele>1075.852539</ele>
        <time>2013-05-06T11:50:59Z</time>
      </trkpt>
      <trkpt lat="45.63555" lon="2.9273">
        <ele>1074.891357</ele>
        <time>2013-05-06T11:51:01Z</time>
      </trkpt>
      <trkpt lat="45.63522" lon="2.92707">
        <ele>1072.488037</ele>
        <time>2013-05-06T11:51:07Z</time>
      </trkpt>
      <trkpt lat="45.63461" lon="2.92661">
        <ele>1073.449463</ele>
        <time>2013-05-06T11:51:23Z</time>
      </trkpt>
      <trkpt lat="45.63398" lon="2.92619">
        <ele>1075.371826</ele>
        <time>2013-05-06T11:51:48Z</time>
      </trkpt>
      <trkpt lat="45.63348" lon="2.92587">
        <ele>1075.371826</ele>
        <time>2013-05-06T11:52:09Z</time>
      </trkpt>
      <trkpt lat="45.63292" lon="2.92539">
        <ele>1076.813965</ele>
        <time>2013-05-06T11:52:35Z</time>
      </trkpt>
      <trkpt lat="45.63242" lon="2.92487">
        <ele>1078.255859</ele>
        <time>2013-05-06T11:53:01Z</time>
      </trkpt>
      <trkpt lat="45.6323" lon="2.92473">
        <ele>1079.217041</ele>
        <time>2013-05-06T11:53:20Z</time>
      </trkpt>
      <trkpt lat="45.6323" lon="2.92472">
        <ele>1078.736572</ele>
        <time>2013-05-06T11:54:23Z</time>
      </trkpt>
      <trkpt lat="45.63227" lon="2.92474">
        <ele>1078.255859</ele>
        <time>2013-05-06T11:54:38Z</time>
      </trkpt>
      <trkpt lat="45.632" lon="2.92483">
        <ele>1079.697754</ele>
        <time>2013-05-06T11:54:56Z</time>
      </trkpt>
      <trkpt lat="45.63172" lon="2.92488">
        <ele>1081.620361</ele>
        <time>2013-05-06T11:55:16Z</time>
      </trkpt>
      <trkpt lat="45.63133" lon="2.92498">
        <ele>1081.620361</ele>
        <time>2013-05-06T11:55:43Z</time>
      </trkpt>
      <trkpt lat="45.63118" lon="2.92499">
        <ele>1082.101074</ele>
        <time>2013-05-06T11:56:01Z</time>
      </trkpt>
      <trkpt lat="45.63125" lon="2.92501">
        <ele>1082.101074</ele>
        <time>2013-05-06T11:56:16Z</time>
      </trkpt>
      <trkpt lat="45.63132" lon="2.92493">
        <ele>1081.620361</ele>
        <time>2013-05-06T11:56:37Z</time>
      </trkpt>
      <trkpt lat="45.63132" lon="2.92492">
        <ele>1083.062256</ele>
        <time>2013-05-06T11:57:43Z</time>
      </trkpt>
      <trkpt lat="45.63141" lon="2.92497">
        <ele>1083.542969</ele>
        <time>2013-05-06T12:49:10Z</time>
      </trkpt>
      <trkpt lat="45.63144" lon="2.92496">
        <ele>1083.542969</ele>
        <time>2013-05-06T12:49:46Z</time>
      </trkpt>
      <trkpt lat="45.6315" lon="2.92496">
        <ele>1083.542969</ele>
        <time>2013-05-06T12:49:50Z</time>
      </trkpt>
      <trkpt lat="45.63192" lon="2.92488">
        <ele>1081.620361</ele>
        <time>2013-05-06T12:50:09Z</time>
      </trkpt>
      <trkpt lat="45.63221" lon="2.92479">
        <ele>1079.697754</ele>
        <time>2013-05-06T12:50:21Z</time>
      </trkpt>
      <trkpt lat="45.6323" lon="2.92477">
        <ele>1079.217041</ele>
        <time>2013-05-06T12:50:25Z</time>
      </trkpt>
      <trkpt lat="45.63233" lon="2.92478">
        <ele>1079.217041</ele>
        <time>2013-05-06T12:50:27Z</time>
      </trkpt>
      <trkpt lat="45.63238" lon="2.92476">
        <ele>1079.217041</ele>
        <time>2013-05-06T12:50:47Z</time>
      </trkpt>
      <trkpt lat="45.63238" lon="2.92476">
        <ele>1077.775146</ele>
        <time>2013-05-06T12:50:51Z</time>
      </trkpt>
      <trkpt lat="45.63263" lon="2.92453">
        <ele>1076.333252</ele>
        <time>2013-05-06T12:51:05Z</time>
      </trkpt>
      <trkpt lat="45.63275" lon="2.92445">
        <ele>1074.891357</ele>
        <time>2013-05-06T12:51:08Z</time>
      </trkpt>
      <trkpt lat="45.63293" lon="2.92428">
        <ele>1073.929932</ele>
        <time>2013-05-06T12:51:13Z</time>
      </trkpt>
      <trkpt lat="45.63317" lon="2.92403">
        <ele>1071.046143</ele>
        <time>2013-05-06T12:51:20Z</time>
      </trkpt>
      <trkpt lat="45.63358" lon="2.92364">
        <ele>1067.681152</ele>
        <time>2013-05-06T12:51:30Z</time>
      </trkpt>
      <trkpt lat="45.63374" lon="2.92348">
        <ele>1065.278076</ele>
        <time>2013-05-06T12:51:35Z</time>
      </trkpt>
      <trkpt lat="45.63381" lon="2.9234">
        <ele>1065.278076</ele>
        <time>2013-05-06T12:51:37Z</time>
      </trkpt>
      <trkpt lat="45.63391" lon="2.92325">
        <ele>1061.432861</ele>
        <time>2013-05-06T12:51:40Z</time>
      </trkpt>
      <trkpt lat="45.63394" lon="2.92318">
        <ele>1061.913574</ele>
        <time>2013-05-06T12:51:41Z</time>
      </trkpt>
      <trkpt lat="45.63403" lon="2.9229">
        <ele>1058.548828</ele>
        <time>2013-05-06T12:51:44Z</time>
      </trkpt>
      <trkpt lat="45.63414" lon="2.92256">
        <ele>1055.184326</ele>
        <time>2013-05-06T12:51:47Z</time>
      </trkpt>
      <trkpt lat="45.63425" lon="2.9222">
        <ele>1051.81958</ele>
        <time>2013-05-06T12:51:50Z</time>
      </trkpt>
      <trkpt lat="45.63436" lon="2.92186">
        <ele>1048.935547</ele>
        <time>2013-05-06T12:51:53Z</time>
      </trkpt>
      <trkpt lat="45.63455" lon="2.92137">
        <ele>1045.090332</ele>
        <time>2013-05-06T12:51:57Z</time>
      </trkpt>
      <trkpt lat="45.63472" lon="2.92097">
        <ele>1041.72583</ele>
        <time>2013-05-06T12:52:00Z</time>
      </trkpt>
      <trkpt lat="45.63485" lon="2.92058">
        <ele>1038.361328</ele>
        <time>2013-05-06T12:52:03Z</time>
      </trkpt>
      <trkpt lat="45.63494" lon="2.9203">
        <ele>1034.515869</ele>
        <time>2013-05-06T12:52:05Z</time>
      </trkpt>
      <trkpt lat="45.6351" lon="2.91989">
        <ele>1032.112549</ele>
        <time>2013-05-06T12:52:08Z</time>
      </trkpt>
      <trkpt lat="45.63529" lon="2.91888">
        <ele>1028.267334</ele>
        <time>2013-05-06T12:52:15Z</time>
      </trkpt>
      <trkpt lat="45.63535" lon="2.91869">
        <ele>1026.825439</ele>
        <time>2013-05-06T12:52:17Z</time>
      </trkpt>
      <trkpt lat="45.63545" lon="2.91853">
        <ele>1026.825439</ele>
        <time>2013-05-06T12:52:20Z</time>
      </trkpt>
      <trkpt lat="45.63553" lon="2.91846">
        <ele>1026.825439</ele>
        <time>2013-05-06T12:52:37Z</time>
      </trkpt>
      <trkpt lat="45.63556" lon="2.91843">
        <ele>1026.344727</ele>
        <time>2013-05-06T12:52:53Z</time>
      </trkpt>
      <trkpt lat="45.63546" lon="2.91838">
        <ele>1026.344727</ele>
        <time>2013-05-06T12:52:58Z</time>
      </trkpt>
      <trkpt lat="45.63522" lon="2.91811">
        <ele>1026.825439</ele>
        <time>2013-05-06T12:53:14Z</time>
      </trkpt>
      <trkpt lat="45.63515" lon="2.91774">
        <ele>1028.267334</ele>
        <time>2013-05-06T12:53:26Z</time>
      </trkpt>
      <trkpt lat="45.63504" lon="2.91711">
        <ele>1028.748047</ele>
        <time>2013-05-06T12:53:46Z</time>
      </trkpt>
      <trkpt lat="45.63487" lon="2.91655">
        <ele>1029.228516</ele>
        <time>2013-05-06T12:54:07Z</time>
      </trkpt>
      <trkpt lat="45.63458" lon="2.91633">
        <ele>1030.670654</ele>
        <time>2013-05-06T12:54:24Z</time>
      </trkpt>
      <trkpt lat="45.63433" lon="2.9156">
        <ele>1029.709229</ele>
        <time>2013-05-06T12:54:50Z</time>
      </trkpt>
      <trkpt lat="45.63415" lon="2.91506">
        <ele>1030.670654</ele>
        <time>2013-05-06T12:55:11Z</time>
      </trkpt>
      <trkpt lat="45.63404" lon="2.9147">
        <ele>1031.151367</ele>
        <time>2013-05-06T12:55:27Z</time>
      </trkpt>
      <trkpt lat="45.63393" lon="2.91416">
        <ele>1034.035156</ele>
        <time>2013-05-06T12:55:48Z</time>
      </trkpt>
      <trkpt lat="45.6339" lon="2.91385">
        <ele>1034.996582</ele>
        <time>2013-05-06T12:56:01Z</time>
      </trkpt>
      <trkpt lat="45.63378" lon="2.91321">
        <ele>1034.515869</ele>
        <time>2013-05-06T12:56:24Z</time>
      </trkpt>
      <trkpt lat="45.63365" lon="2.91264">
        <ele>1036.919189</ele>
        <time>2013-05-06T12:56:44Z</time>
      </trkpt>
      <trkpt lat="45.63354" lon="2.91208">
        <ele>1037.399902</ele>
        <time>2013-05-06T12:57:05Z</time>
      </trkpt>
      <trkpt lat="45.63341" lon="2.91153">
        <ele>1037.880615</ele>
        <time>2013-05-06T12:57:26Z</time>
      </trkpt>
      <trkpt lat="45.63339" lon="2.91112">
        <ele>1039.32251</ele>
        <time>2013-05-06T12:57:42Z</time>
      </trkpt>
      <trkpt lat="45.63338" lon="2.91068">
        <ele>1039.32251</ele>
        <time>2013-05-06T12:58:00Z</time>
      </trkpt>
      <trkpt lat="45.63334" lon="2.91026">
        <ele>1039.803223</ele>
        <time>2013-05-06T12:58:15Z</time>
      </trkpt>
      <trkpt lat="45.63331" lon="2.90991">
        <ele>1041.245117</ele>
        <time>2013-05-06T12:58:29Z</time>
      </trkpt>
      <trkpt lat="45.63327" lon="2.90974">
        <ele>1040.764404</ele>
        <time>2013-05-06T12:58:36Z</time>
      </trkpt>
      <trkpt lat="45.63307" lon="2.9095">
        <ele>1041.72583</ele>
        <time>2013-05-06T12:58:52Z</time>
      </trkpt>
      <trkpt lat="45.63284" lon="2.90917">
        <ele>1041.245117</ele>
        <time>2013-05-06T12:59:11Z</time>
      </trkpt>
      <trkpt lat="45.63269" lon="2.90875">
        <ele>1042.206543</ele>
        <time>2013-05-06T12:59:31Z</time>
      </trkpt>
      <trkpt lat="45.63265" lon="2.9083">
        <ele>1044.12915</ele>
        <time>2013-05-06T12:59:54Z</time>
      </trkpt>
      <trkpt lat="45.63263" lon="2.90813">
        <ele>1044.609619</ele>
        <time>2013-05-06T13:00:04Z</time>
      </trkpt>
      <trkpt lat="45.63243" lon="2.90781">
        <ele>1045.571045</ele>
        <time>2013-05-06T13:00:24Z</time>
      </trkpt>
      <trkpt lat="45.63224" lon="2.90752">
        <ele>1046.051758</ele>
        <time>2013-05-06T13:00:44Z</time>
      </trkpt>
      <trkpt lat="45.63201" lon="2.90729">
        <ele>1047.012939</ele>
        <time>2013-05-06T13:01:05Z</time>
      </trkpt>
      <trkpt lat="45.63194" lon="2.90722">
        <ele>1047.974365</ele>
        <time>2013-05-06T13:01:12Z</time>
      </trkpt>
      <trkpt lat="45.63182" lon="2.9071">
        <ele>1048.454834</ele>
        <time>2013-05-06T13:01:32Z</time>
      </trkpt>
      <trkpt lat="45.63172" lon="2.90701">
        <ele>1049.896973</ele>
        <time>2013-05-06T13:01:55Z</time>
      </trkpt>
      <trkpt lat="45.63164" lon="2.90693">
        <ele>1050.858154</ele>
        <time>2013-05-06T13:02:19Z</time>
      </trkpt>
      <trkpt lat="45.63149" lon="2.90678">
        <ele>1052.781006</ele>
        <time>2013-05-06T13:02:45Z</time>
      </trkpt>
      <trkpt lat="45.63143" lon="2.90671">
        <ele>1054.223145</ele>
        <time>2013-05-06T13:03:09Z</time>
      </trkpt>
      <trkpt lat="45.6313" lon="2.90657">
        <ele>1056.626221</ele>
        <time>2013-05-06T13:03:31Z</time>
      </trkpt>
      <trkpt lat="45.63115" lon="2.90644">
        <ele>1059.029541</ele>
        <time>2013-05-06T13:03:53Z</time>
      </trkpt>
      <trkpt lat="45.63105" lon="2.90626">
        <ele>1060.471436</ele>
        <time>2013-05-06T13:04:15Z</time>
      </trkpt>
      <trkpt lat="45.63105" lon="2.90622">
        <ele>1059.990723</ele>
        <time>2013-05-06T13:04:23Z</time>
      </trkpt>
      <trkpt lat="45.63093" lon="2.90591">
        <ele>1059.990723</ele>
        <time>2013-05-06T13:04:44Z</time>
      </trkpt>
      <trkpt lat="45.63092" lon="2.90586">
        <ele>1059.029541</ele>
        <time>2013-05-06T13:04:47Z</time>
      </trkpt>
      <trkpt lat="45.63091" lon="2.90577">
        <ele>1059.510254</ele>
        <time>2013-05-06T13:05:07Z</time>
      </trkpt>
      <trkpt lat="45.63088" lon="2.90571">
        <ele>1059.029541</ele>
        <time>2013-05-06T13:05:21Z</time>
      </trkpt>
      <trkpt lat="45.63086" lon="2.90562">
        <ele>1058.068359</ele>
        <time>2013-05-06T13:05:45Z</time>
      </trkpt>
      <trkpt lat="45.63084" lon="2.9055">
        <ele>1058.068359</ele>
        <time>2013-05-06T13:05:58Z</time>
      </trkpt>
      <trkpt lat="45.63084" lon="2.90546">
        <ele>1057.587646</ele>
        <time>2013-05-06T13:06:01Z</time>
      </trkpt>
      <trkpt lat="45.63079" lon="2.90531">
        <ele>1058.068359</ele>
        <time>2013-05-06T13:06:20Z</time>
      </trkpt>
      <trkpt lat="45.63075" lon="2.90509">
        <ele>1059.510254</ele>
        <time>2013-05-06T13:06:35Z</time>
      </trkpt>
      <trkpt lat="45.63074" lon="2.90508">
        <ele>1059.510254</ele>
        <time>2013-05-06T13:06:36Z</time>
      </trkpt>
      <trkpt lat="45.63072" lon="2.90495">
        <ele>1058.548828</ele>
        <time>2013-05-06T13:06:50Z</time>
      </trkpt>
      <trkpt lat="45.63072" lon="2.90488">
        <ele>1058.068359</ele>
        <time>2013-05-06T13:07:09Z</time>
      </trkpt>
      <trkpt lat="45.6307" lon="2.90477">
        <ele>1058.068359</ele>
        <time>2013-05-06T13:07:25Z</time>
      </trkpt>
      <trkpt lat="45.63061" lon="2.90454">
        <ele>1059.510254</ele>
        <time>2013-05-06T13:07:42Z</time>
      </trkpt>
      <trkpt lat="45.6306" lon="2.90447">
        <ele>1059.990723</ele>
        <time>2013-05-06T13:07:46Z</time>
      </trkpt>
      <trkpt lat="45.63058" lon="2.90434">
        <ele>1059.510254</ele>
        <time>2013-05-06T13:07:52Z</time>
      </trkpt>
      <trkpt lat="45.63052" lon="2.90416">
        <ele>1059.029541</ele>
        <time>2013-05-06T13:08:04Z</time>
      </trkpt>
      <trkpt lat="45.63047" lon="2.9038">
        <ele>1059.990723</ele>
        <time>2013-05-06T13:08:24Z</time>
      </trkpt>
      <trkpt lat="45.63045" lon="2.90358">
        <ele>1060.471436</ele>
        <time>2013-05-06T13:08:36Z</time>
      </trkpt>
      <trkpt lat="45.63038" lon="2.90325">
        <ele>1060.471436</ele>
        <time>2013-05-06T13:08:50Z</time>
      </trkpt>
      <trkpt lat="45.63029" lon="2.9029">
        <ele>1060.952148</ele>
        <time>2013-05-06T13:09:10Z</time>
      </trkpt>
      <trkpt lat="45.63022" lon="2.90268">
        <ele>1060.952148</ele>
        <time>2013-05-06T13:09:29Z</time>
      </trkpt>
      <trkpt lat="45.63024" lon="2.9026">
        <ele>1061.913574</ele>
        <time>2013-05-06T13:09:57Z</time>
      </trkpt>
      <trkpt lat="45.6302" lon="2.90249">
        <ele>1062.394043</ele>
        <time>2013-05-06T13:10:15Z</time>
      </trkpt>
      <trkpt lat="45.6302" lon="2.90235">
        <ele>1061.913574</ele>
        <time>2013-05-06T13:10:28Z</time>
      </trkpt>
      <trkpt lat="45.63021" lon="2.90232">
        <ele>1061.432861</ele>
        <time>2013-05-06T13:10:30Z</time>
      </trkpt>
      <trkpt lat="45.63029" lon="2.90217">
        <ele>1060.952148</ele>
        <time>2013-05-06T13:10:37Z</time>
      </trkpt>
      <trkpt lat="45.63042" lon="2.90206">
        <ele>1060.471436</ele>
        <time>2013-05-06T13:10:53Z</time>
      </trkpt>
      <trkpt lat="45.6305" lon="2.90198">
        <ele>1060.952148</ele>
        <time>2013-05-06T13:11:13Z</time>
      </trkpt>
      <trkpt lat="45.63056" lon="2.90191">
        <ele>1061.913574</ele>
        <time>2013-05-06T13:11:35Z</time>
      </trkpt>
      <trkpt lat="45.6306" lon="2.90187">
        <ele>1062.394043</ele>
        <time>2013-05-06T13:12:09Z</time>
      </trkpt>
      <trkpt lat="45.63067" lon="2.90178">
        <ele>1063.835938</ele>
        <time>2013-05-06T13:12:35Z</time>
      </trkpt>
      <trkpt lat="45.63075" lon="2.90168">
        <ele>1065.758789</ele>
        <time>2013-05-06T13:12:57Z</time>
      </trkpt>
      <trkpt lat="45.63079" lon="2.90163">
        <ele>1066.239258</ele>
        <time>2013-05-06T13:13:22Z</time>
      </trkpt>
      <trkpt lat="45.63081" lon="2.90162">
        <ele>1067.200684</ele>
        <time>2013-05-06T13:13:51Z</time>
      </trkpt>
      <trkpt lat="45.63091" lon="2.90152">
        <ele>1068.642822</ele>
        <time>2013-05-06T13:14:12Z</time>
      </trkpt>
      <trkpt lat="45.63105" lon="2.90135">
        <ele>1070.084717</ele>
        <time>2013-05-06T13:14:35Z</time>
      </trkpt>
      <trkpt lat="45.63107" lon="2.90132">
        <ele>1072.007324</ele>
        <time>2013-05-06T13:15:06Z</time>
      </trkpt>
      <trkpt lat="45.6312" lon="2.90118">
        <ele>1072.96875</ele>
        <time>2013-05-06T13:15:56Z</time>
      </trkpt>
      <trkpt lat="45.63133" lon="2.90099">
        <ele>1074.891357</ele>
        <time>2013-05-06T13:16:21Z</time>
      </trkpt>
      <trkpt lat="45.63134" lon="2.90097">
        <ele>1074.891357</ele>
        <time>2013-05-06T13:16:52Z</time>
      </trkpt>
      <trkpt lat="45.6314" lon="2.90079">
        <ele>1076.333252</ele>
        <time>2013-05-06T13:17:22Z</time>
      </trkpt>
      <trkpt lat="45.63145" lon="2.90065">
        <ele>1079.697754</ele>
        <time>2013-05-06T13:17:38Z</time>
      </trkpt>
      <trkpt lat="45.63145" lon="2.90051">
        <ele>1079.217041</ele>
        <time>2013-05-06T13:18:03Z</time>
      </trkpt>
      <trkpt lat="45.63143" lon="2.90047">
        <ele>1079.697754</ele>
        <time>2013-05-06T13:19:08Z</time>
      </trkpt>
      <trkpt lat="45.63143" lon="2.90044">
        <ele>1079.697754</ele>
        <time>2013-05-06T13:19:12Z</time>
      </trkpt>
      <trkpt lat="45.6314" lon="2.90025">
        <ele>1080.65918</ele>
        <time>2013-05-06T13:19:25Z</time>
      </trkpt>
      <trkpt lat="45.63138" lon="2.9001">
        <ele>1081.139893</ele>
        <time>2013-05-06T13:19:35Z</time>
      </trkpt>
      <trkpt lat="45.63142" lon="2.8998">
        <ele>1083.542969</ele>
        <time>2013-05-06T13:19:55Z</time>
      </trkpt>
      <trkpt lat="45.63143" lon="2.89961">
        <ele>1084.504639</ele>
        <time>2013-05-06T13:20:07Z</time>
      </trkpt>
      <trkpt lat="45.63152" lon="2.89939">
        <ele>1086.427246</ele>
        <time>2013-05-06T13:20:24Z</time>
      </trkpt>
      <trkpt lat="45.63158" lon="2.89929">
        <ele>1086.427246</ele>
        <time>2013-05-06T13:20:42Z</time>
      </trkpt>
      <trkpt lat="45.63161" lon="2.89924">
        <ele>1087.388428</ele>
        <time>2013-05-06T13:21:14Z</time>
      </trkpt>
      <trkpt lat="45.63162" lon="2.8992">
        <ele>1087.388428</ele>
        <time>2013-05-06T13:21:58Z</time>
      </trkpt>
      <trkpt lat="45.63168" lon="2.8991">
        <ele>1086.907715</ele>
        <time>2013-05-06T13:23:43Z</time>
      </trkpt>
      <trkpt lat="45.63184" lon="2.89885">
        <ele>1090.272461</ele>
        <time>2013-05-06T13:24:10Z</time>
      </trkpt>
      <trkpt lat="45.63195" lon="2.89857">
        <ele>1092.195068</ele>
        <time>2013-05-06T13:24:35Z</time>
      </trkpt>
      <trkpt lat="45.63204" lon="2.89834">
        <ele>1094.117676</ele>
        <time>2013-05-06T13:25:00Z</time>
      </trkpt>
      <trkpt lat="45.63209" lon="2.89821">
        <ele>1095.55957</ele>
        <time>2013-05-06T13:25:25Z</time>
      </trkpt>
      <trkpt lat="45.63219" lon="2.89797">
        <ele>1098.443359</ele>
        <time>2013-05-06T13:25:51Z</time>
      </trkpt>
      <trkpt lat="45.63229" lon="2.89777">
        <ele>1100.846924</ele>
        <time>2013-05-06T13:26:12Z</time>
      </trkpt>
      <trkpt lat="45.63238" lon="2.89764">
        <ele>1101.80835</ele>
        <time>2013-05-06T13:26:40Z</time>
      </trkpt>
      <trkpt lat="45.63248" lon="2.89749">
        <ele>1102.769531</ele>
        <time>2013-05-06T13:27:05Z</time>
      </trkpt>
      <trkpt lat="45.63254" lon="2.89741">
        <ele>1105.653564</ele>
        <time>2013-05-06T13:27:17Z</time>
      </trkpt>
      <trkpt lat="45.6327" lon="2.89725">
        <ele>1106.614746</ele>
        <time>2013-05-06T13:27:42Z</time>
      </trkpt>
      <trkpt lat="45.63286" lon="2.89713">
        <ele>1109.979248</ele>
        <time>2013-05-06T13:28:06Z</time>
      </trkpt>
      <trkpt lat="45.633" lon="2.89705">
        <ele>1112.863281</ele>
        <time>2013-05-06T13:28:27Z</time>
      </trkpt>
      <trkpt lat="45.63315" lon="2.89684">
        <ele>1114.305176</ele>
        <time>2013-05-06T13:28:52Z</time>
      </trkpt>
      <trkpt lat="45.63317" lon="2.89682">
        <ele>1114.785889</ele>
        <time>2013-05-06T13:29:19Z</time>
      </trkpt>
      <trkpt lat="45.63324" lon="2.89669">
        <ele>1114.785889</ele>
        <time>2013-05-06T13:29:46Z</time>
      </trkpt>
      <trkpt lat="45.6334" lon="2.8964">
        <ele>1117.189453</ele>
        <time>2013-05-06T13:30:13Z</time>
      </trkpt>
      <trkpt lat="45.63354" lon="2.89616">
        <ele>1118.150635</ele>
        <time>2013-05-06T13:30:38Z</time>
      </trkpt>
      <trkpt lat="45.63368" lon="2.89592">
        <ele>1120.553955</ele>
        <time>2013-05-06T13:31:05Z</time>
      </trkpt>
      <trkpt lat="45.63384" lon="2.89562">
        <ele>1123.918457</ele>
        <time>2013-05-06T13:31:38Z</time>
      </trkpt>
      <trkpt lat="45.63397" lon="2.89543">
        <ele>1125.841064</ele>
        <time>2013-05-06T13:32:07Z</time>
      </trkpt>
      <trkpt lat="45.63404" lon="2.89538">
        <ele>1126.80249</ele>
        <time>2013-05-06T13:32:33Z</time>
      </trkpt>
      <trkpt lat="45.63416" lon="2.89533">
        <ele>1129.205566</ele>
        <time>2013-05-06T13:32:59Z</time>
      </trkpt>
      <trkpt lat="45.63436" lon="2.89526">
        <ele>1131.608887</ele>
        <time>2013-05-06T13:33:28Z</time>
      </trkpt>
      <trkpt lat="45.63459" lon="2.89518">
        <ele>1134.012451</ele>
        <time>2013-05-06T13:33:59Z</time>
      </trkpt>
      <trkpt lat="45.63468" lon="2.89514">
        <ele>1134.973877</ele>
        <time>2013-05-06T13:34:28Z</time>
      </trkpt>
      <trkpt lat="45.63482" lon="2.89505">
        <ele>1137.857666</ele>
        <time>2013-05-06T13:34:52Z</time>
      </trkpt>
      <trkpt lat="45.63485" lon="2.89501">
        <ele>1138.338379</ele>
        <time>2013-05-06T13:35:13Z</time>
      </trkpt>
      <trkpt lat="45.63504" lon="2.89487">
        <ele>1141.702881</ele>
        <time>2013-05-06T13:35:40Z</time>
      </trkpt>
      <trkpt lat="45.63508" lon="2.89484">
        <ele>1141.702881</ele>
        <time>2013-05-06T13:36:14Z</time>
      </trkpt>
      <trkpt lat="45.63525" lon="2.8947">
        <ele>1144.106201</ele>
        <time>2013-05-06T13:36:41Z</time>
      </trkpt>
      <trkpt lat="45.63541" lon="2.89457">
        <ele>1147.470703</ele>
        <time>2013-05-06T13:37:06Z</time>
      </trkpt>
      <trkpt lat="45.63558" lon="2.89442">
        <ele>1148.912842</ele>
        <time>2013-05-06T13:37:31Z</time>
      </trkpt>
      <trkpt lat="45.63577" lon="2.8943">
        <ele>1150.835449</ele>
        <time>2013-05-06T13:37:55Z</time>
      </trkpt>
      <trkpt lat="45.63582" lon="2.89424">
        <ele>1151.316162</ele>
        <time>2013-05-06T13:38:02Z</time>
      </trkpt>
      <trkpt lat="45.63605" lon="2.89404">
        <ele>1152.758057</ele>
        <time>2013-05-06T13:38:29Z</time>
      </trkpt>
      <trkpt lat="45.63624" lon="2.89386">
        <ele>1154.200195</ele>
        <time>2013-05-06T13:38:55Z</time>
      </trkpt>
      <trkpt lat="45.63625" lon="2.89385">
        <ele>1154.200195</ele>
        <time>2013-05-06T13:39:24Z</time>
      </trkpt>
      <trkpt lat="45.63626" lon="2.89386">
        <ele>1153.719482</ele>
        <time>2013-05-06T13:40:35Z</time>
      </trkpt>
      <trkpt lat="45.63625" lon="2.89386">
        <ele>1152.758057</ele>
        <time>2013-05-06T13:41:39Z</time>
      </trkpt>
      <trkpt lat="45.63623" lon="2.89391">
        <ele>1153.23877</ele>
        <time>2013-05-06T13:42:01Z</time>
      </trkpt>
      <trkpt lat="45.63621" lon="2.89389">
        <ele>1154.200195</ele>
        <time>2013-05-06T13:42:10Z</time>
      </trkpt>
      <trkpt lat="45.63612" lon="2.89378">
        <ele>1154.200195</ele>
        <time>2013-05-06T13:42:20Z</time>
      </trkpt>
      <trkpt lat="45.63597" lon="2.89359">
        <ele>1155.161377</ele>
        <time>2013-05-06T13:42:37Z</time>
      </trkpt>
      <trkpt lat="45.63577" lon="2.89332">
        <ele>1156.122559</ele>
        <time>2013-05-06T13:42:59Z</time>
      </trkpt>
      <trkpt lat="45.63561" lon="2.8931">
        <ele>1158.04541</ele>
        <time>2013-05-06T13:43:18Z</time>
      </trkpt>
      <trkpt lat="45.6356" lon="2.89309">
        <ele>1157.564697</ele>
        <time>2013-05-06T13:43:19Z</time>
      </trkpt>
      <trkpt lat="45.6354" lon="2.89281">
        <ele>1158.04541</ele>
        <time>2013-05-06T13:43:42Z</time>
      </trkpt>
      <trkpt lat="45.63521" lon="2.89252">
        <ele>1159.967773</ele>
        <time>2013-05-06T13:44:05Z</time>
      </trkpt>
      <trkpt lat="45.63504" lon="2.89228">
        <ele>1160.448486</ele>
        <time>2013-05-06T13:44:26Z</time>
      </trkpt>
      <trkpt lat="45.63501" lon="2.89224">
        <ele>1160.929199</ele>
        <time>2013-05-06T13:44:29Z</time>
      </trkpt>
      <trkpt lat="45.63483" lon="2.892">
        <ele>1162.371094</ele>
        <time>2013-05-06T13:44:51Z</time>
      </trkpt>
      <trkpt lat="45.63468" lon="2.8918">
        <ele>1163.812988</ele>
        <time>2013-05-06T13:45:10Z</time>
      </trkpt>
      <trkpt lat="45.63463" lon="2.89173">
        <ele>1164.293945</ele>
        <time>2013-05-06T13:45:16Z</time>
      </trkpt>
      <trkpt lat="45.63458" lon="2.89168">
        <ele>1164.293945</ele>
        <time>2013-05-06T13:45:21Z</time>
      </trkpt>
      <trkpt lat="45.63447" lon="2.89151">
        <ele>1165.736084</ele>
        <time>2013-05-06T13:45:36Z</time>
      </trkpt>
      <trkpt lat="45.63442" lon="2.89134">
        <ele>1165.736084</ele>
        <time>2013-05-06T13:45:48Z</time>
      </trkpt>
      <trkpt lat="45.63445" lon="2.89116">
        <ele>1167.177979</ele>
        <time>2013-05-06T13:46:00Z</time>
      </trkpt>
      <trkpt lat="45.63452" lon="2.89089">
        <ele>1169.581299</ele>
        <time>2013-05-06T13:46:21Z</time>
      </trkpt>
      <trkpt lat="45.63457" lon="2.89064">
        <ele>1170.061768</ele>
        <time>2013-05-06T13:46:40Z</time>
      </trkpt>
      <trkpt lat="45.63462" lon="2.89037">
        <ele>1173.426514</ele>
        <time>2013-05-06T13:47:00Z</time>
      </trkpt>
      <trkpt lat="45.63463" lon="2.89025">
        <ele>1173.906982</ele>
        <time>2013-05-06T13:47:09Z</time>
      </trkpt>
      <trkpt lat="45.63477" lon="2.89009">
        <ele>1175.348877</ele>
        <time>2013-05-06T13:47:28Z</time>
      </trkpt>
      <trkpt lat="45.6348" lon="2.89007">
        <ele>1175.348877</ele>
        <time>2013-05-06T13:47:31Z</time>
      </trkpt>
      <trkpt lat="45.63483" lon="2.89006">
        <ele>1176.310303</ele>
        <time>2013-05-06T13:47:34Z</time>
      </trkpt>
      <trkpt lat="45.63494" lon="2.88996">
        <ele>1177.752197</ele>
        <time>2013-05-06T13:47:48Z</time>
      </trkpt>
      <trkpt lat="45.63517" lon="2.88982">
        <ele>1177.752197</ele>
        <time>2013-05-06T13:48:10Z</time>
      </trkpt>
      <trkpt lat="45.63524" lon="2.88964">
        <ele>1178.23291</ele>
        <time>2013-05-06T13:48:20Z</time>
      </trkpt>
      <trkpt lat="45.63523" lon="2.88952">
        <ele>1178.713623</ele>
        <time>2013-05-06T13:48:35Z</time>
      </trkpt>
      <trkpt lat="45.6351" lon="2.88928">
        <ele>1180.155762</ele>
        <time>2013-05-06T13:48:54Z</time>
      </trkpt>
      <trkpt lat="45.63509" lon="2.88925">
        <ele>1180.155762</ele>
        <time>2013-05-06T13:48:56Z</time>
      </trkpt>
      <trkpt lat="45.63506" lon="2.88913">
        <ele>1180.636475</ele>
        <time>2013-05-06T13:49:05Z</time>
      </trkpt>
      <trkpt lat="45.63505" lon="2.88911">
        <ele>1180.636475</ele>
        <time>2013-05-06T13:49:07Z</time>
      </trkpt>
      <trkpt lat="45.63499" lon="2.88898">
        <ele>1181.117188</ele>
        <time>2013-05-06T13:49:16Z</time>
      </trkpt>
      <trkpt lat="45.63492" lon="2.88872">
        <ele>1181.597656</ele>
        <time>2013-05-06T13:49:34Z</time>
      </trkpt>
      <trkpt lat="45.63487" lon="2.88858">
        <ele>1182.078369</ele>
        <time>2013-05-06T13:49:55Z</time>
      </trkpt>
      <trkpt lat="45.63488" lon="2.8886">
        <ele>1182.078369</ele>
        <time>2013-05-06T13:50:29Z</time>
      </trkpt>
      <trkpt lat="45.63487" lon="2.88856">
        <ele>1183.039551</ele>
        <time>2013-05-06T13:50:49Z</time>
      </trkpt>
      <trkpt lat="45.63486" lon="2.88859">
        <ele>1183.520264</ele>
        <time>2013-05-06T13:55:20Z</time>
      </trkpt>
      <trkpt lat="45.63485" lon="2.88859">
        <ele>1184.000977</ele>
        <time>2013-05-06T13:58:05Z</time>
      </trkpt>
      <trkpt lat="45.63485" lon="2.88858">
        <ele>1185.442871</ele>
        <time>2013-05-06T13:58:54Z</time>
      </trkpt>
      <trkpt lat="45.63485" lon="2.88858">
        <ele>1183.520264</ele>
        <time>2013-05-06T13:59:03Z</time>
      </trkpt>
      <trkpt lat="45.63483" lon="2.88852">
        <ele>1184.000977</ele>
        <time>2013-05-06T13:59:56Z</time>
      </trkpt>
      <trkpt lat="45.63482" lon="2.88846">
        <ele>1183.039551</ele>
        <time>2013-05-06T14:00:57Z</time>
      </trkpt>
      <trkpt lat="45.63482" lon="2.88831">
        <ele>1184.481689</ele>
        <time>2013-05-06T14:01:16Z</time>
      </trkpt>
      <trkpt lat="45.63471" lon="2.88808">
        <ele>1186.404297</ele>
        <time>2013-05-06T14:01:37Z</time>
      </trkpt>
      <trkpt lat="45.63463" lon="2.88807">
        <ele>1186.884766</ele>
        <time>2013-05-06T14:01:45Z</time>
      </trkpt>
      <trkpt lat="45.63445" lon="2.88811">
        <ele>1189.768799</ele>
        <time>2013-05-06T14:02:04Z</time>
      </trkpt>
      <trkpt lat="45.63419" lon="2.88813">
        <ele>1191.210693</ele>
        <time>2013-05-06T14:02:28Z</time>
      </trkpt>
      <trkpt lat="45.63393" lon="2.88808">
        <ele>1193.133301</ele>
        <time>2013-05-06T14:02:50Z</time>
      </trkpt>
      <trkpt lat="45.6337" lon="2.88792">
        <ele>1194.575195</ele>
        <time>2013-05-06T14:03:11Z</time>
      </trkpt>
      <trkpt lat="45.63358" lon="2.88777">
        <ele>1194.575195</ele>
        <time>2013-05-06T14:03:23Z</time>
      </trkpt>
      <trkpt lat="45.63341" lon="2.88747">
        <ele>1195.536621</ele>
        <time>2013-05-06T14:03:46Z</time>
      </trkpt>
      <trkpt lat="45.63331" lon="2.88719">
        <ele>1194.575195</ele>
        <time>2013-05-06T14:04:06Z</time>
      </trkpt>
      <trkpt lat="45.63322" lon="2.88677">
        <ele>1196.498291</ele>
        <time>2013-05-06T14:04:32Z</time>
      </trkpt>
      <trkpt lat="45.63313" lon="2.88642">
        <ele>1198.420654</ele>
        <time>2013-05-06T14:04:56Z</time>
      </trkpt>
      <trkpt lat="45.63308" lon="2.88621">
        <ele>1199.862793</ele>
        <time>2013-05-06T14:05:11Z</time>
      </trkpt>
      <trkpt lat="45.63297" lon="2.88587">
        <ele>1201.304688</ele>
        <time>2013-05-06T14:05:33Z</time>
      </trkpt>
      <trkpt lat="45.63275" lon="2.88571">
        <ele>1201.304688</ele>
        <time>2013-05-06T14:05:54Z</time>
      </trkpt>
      <trkpt lat="45.63261" lon="2.88566">
        <ele>1203.227295</ele>
        <time>2013-05-06T14:06:07Z</time>
      </trkpt>
      <trkpt lat="45.63232" lon="2.88558">
        <ele>1204.188721</ele>
        <time>2013-05-06T14:06:31Z</time>
      </trkpt>
      <trkpt lat="45.63207" lon="2.8855">
        <ele>1203.227295</ele>
        <time>2013-05-06T14:06:53Z</time>
      </trkpt>
      <trkpt lat="45.63202" lon="2.88549">
        <ele>1203.708008</ele>
        <time>2013-05-06T14:06:58Z</time>
      </trkpt>
      <trkpt lat="45.63186" lon="2.88543">
        <ele>1205.630615</ele>
        <time>2013-05-06T14:07:13Z</time>
      </trkpt>
      <trkpt lat="45.63168" lon="2.88537">
        <ele>1208.033936</ele>
        <time>2013-05-06T14:07:37Z</time>
      </trkpt>
      <trkpt lat="45.63163" lon="2.88538">
        <ele>1208.514404</ele>
        <time>2013-05-06T14:08:00Z</time>
      </trkpt>
      <trkpt lat="45.63158" lon="2.88539">
        <ele>1208.995117</ele>
        <time>2013-05-06T14:08:05Z</time>
      </trkpt>
      <trkpt lat="45.63139" lon="2.88545">
        <ele>1210.917725</ele>
        <time>2013-05-06T14:08:27Z</time>
      </trkpt>
      <trkpt lat="45.63123" lon="2.88545">
        <ele>1210.917725</ele>
        <time>2013-05-06T14:08:49Z</time>
      </trkpt>
      <trkpt lat="45.63117" lon="2.88545">
        <ele>1211.87915</ele>
        <time>2013-05-06T14:09:28Z</time>
      </trkpt>
      <trkpt lat="45.63099" lon="2.8853">
        <ele>1212.840576</ele>
        <time>2013-05-06T14:09:53Z</time>
      </trkpt>
      <trkpt lat="45.63098" lon="2.88529">
        <ele>1213.801758</ele>
        <time>2013-05-06T14:10:29Z</time>
      </trkpt>
      <trkpt lat="45.63096" lon="2.88524">
        <ele>1214.282471</ele>
        <time>2013-05-06T14:10:33Z</time>
      </trkpt>
      <trkpt lat="45.63079" lon="2.88496">
        <ele>1215.243896</ele>
        <time>2013-05-06T14:10:56Z</time>
      </trkpt>
      <trkpt lat="45.63076" lon="2.88491">
        <ele>1215.243896</ele>
        <time>2013-05-06T14:11:00Z</time>
      </trkpt>
      <trkpt lat="45.63062" lon="2.88466">
        <ele>1217.166504</ele>
        <time>2013-05-06T14:11:21Z</time>
      </trkpt>
      <trkpt lat="45.63049" lon="2.88441">
        <ele>1218.127686</ele>
        <time>2013-05-06T14:11:41Z</time>
      </trkpt>
      <trkpt lat="45.63037" lon="2.88419">
        <ele>1219.089111</ele>
        <time>2013-05-06T14:11:58Z</time>
      </trkpt>
      <trkpt lat="45.63036" lon="2.88416">
        <ele>1219.089111</ele>
        <time>2013-05-06T14:12:00Z</time>
      </trkpt>
      <trkpt lat="45.63031" lon="2.88408">
        <ele>1220.050293</ele>
        <time>2013-05-06T14:12:07Z</time>
      </trkpt>
      <trkpt lat="45.63017" lon="2.88374">
        <ele>1221.9729</ele>
        <time>2013-05-06T14:12:31Z</time>
      </trkpt>
      <trkpt lat="45.63003" lon="2.88338">
        <ele>1221.011719</ele>
        <time>2013-05-06T14:12:53Z</time>
      </trkpt>
      <trkpt lat="45.62991" lon="2.8831">
        <ele>1222.934326</ele>
        <time>2013-05-06T14:13:10Z</time>
      </trkpt>
      <trkpt lat="45.62976" lon="2.88276">
        <ele>1224.376221</ele>
        <time>2013-05-06T14:13:32Z</time>
      </trkpt>
      <trkpt lat="45.62957" lon="2.88233">
        <ele>1225.337402</ele>
        <time>2013-05-06T14:13:56Z</time>
      </trkpt>
      <trkpt lat="45.6294" lon="2.8819">
        <ele>1227.260254</ele>
        <time>2013-05-06T14:14:18Z</time>
      </trkpt>
      <trkpt lat="45.62921" lon="2.88144">
        <ele>1226.779541</ele>
        <time>2013-05-06T14:14:42Z</time>
      </trkpt>
      <trkpt lat="45.62902" lon="2.88098">
        <ele>1229.663574</ele>
        <time>2013-05-06T14:15:06Z</time>
      </trkpt>
      <trkpt lat="45.62885" lon="2.88049">
        <ele>1230.144287</ele>
        <time>2013-05-06T14:15:31Z</time>
      </trkpt>
      <trkpt lat="45.62864" lon="2.87996">
        <ele>1230.144287</ele>
        <time>2013-05-06T14:15:54Z</time>
      </trkpt>
      <trkpt lat="45.62838" lon="2.87973">
        <ele>1231.586182</ele>
        <time>2013-05-06T14:16:10Z</time>
      </trkpt>
      <trkpt lat="45.62828" lon="2.87972">
        <ele>1232.066895</ele>
        <time>2013-05-06T14:16:18Z</time>
      </trkpt>
      <trkpt lat="45.62819" lon="2.87969">
        <ele>1232.547607</ele>
        <time>2013-05-06T14:16:25Z</time>
      </trkpt>
      <trkpt lat="45.62814" lon="2.87974">
        <ele>1233.508789</ele>
        <time>2013-05-06T14:16:40Z</time>
      </trkpt>
      <trkpt lat="45.62806" lon="2.87972">
        <ele>1233.508789</ele>
        <time>2013-05-06T14:17:21Z</time>
      </trkpt>
      <trkpt lat="45.62798" lon="2.87972">
        <ele>1233.028076</ele>
        <time>2013-05-06T14:17:46Z</time>
      </trkpt>
      <trkpt lat="45.62789" lon="2.87972">
        <ele>1234.470215</ele>
        <time>2013-05-06T14:18:06Z</time>
      </trkpt>
      <trkpt lat="45.62776" lon="2.87959">
        <ele>1236.873291</ele>
        <time>2013-05-06T14:18:29Z</time>
      </trkpt>
      <trkpt lat="45.62777" lon="2.87959">
        <ele>1235.912109</ele>
        <time>2013-05-06T14:20:01Z</time>
      </trkpt>
      <trkpt lat="45.62776" lon="2.87952">
        <ele>1236.873291</ele>
        <time>2013-05-06T14:20:28Z</time>
      </trkpt>
      <trkpt lat="45.62778" lon="2.8792">
        <ele>1238.796143</ele>
        <time>2013-05-06T14:20:54Z</time>
      </trkpt>
      <trkpt lat="45.62784" lon="2.87894">
        <ele>1241.679932</ele>
        <time>2013-05-06T14:21:17Z</time>
      </trkpt>
      <trkpt lat="45.62789" lon="2.87875">
        <ele>1244.083496</ele>
        <time>2013-05-06T14:21:38Z</time>
      </trkpt>
      <trkpt lat="45.62792" lon="2.87856">
        <ele>1246.006104</ele>
        <time>2013-05-06T14:22:09Z</time>
      </trkpt>
      <trkpt lat="45.62793" lon="2.8783">
        <ele>1248.40918</ele>
        <time>2013-05-06T14:22:32Z</time>
      </trkpt>
      <trkpt lat="45.62792" lon="2.87818">
        <ele>1248.889893</ele>
        <time>2013-05-06T14:22:52Z</time>
      </trkpt>
      <trkpt lat="45.62791" lon="2.87814">
        <ele>1249.851318</ele>
        <time>2013-05-06T14:23:09Z</time>
      </trkpt>
      <trkpt lat="45.62788" lon="2.87792">
        <ele>1251.773926</ele>
        <time>2013-05-06T14:23:40Z</time>
      </trkpt>
      <trkpt lat="45.62785" lon="2.87781">
        <ele>1252.735107</ele>
        <time>2013-05-06T14:24:03Z</time>
      </trkpt>
      <trkpt lat="45.62785" lon="2.87777">
        <ele>1252.735107</ele>
        <time>2013-05-06T14:24:23Z</time>
      </trkpt>
      <trkpt lat="45.6278" lon="2.87757">
        <ele>1254.177246</ele>
        <time>2013-05-06T14:24:38Z</time>
      </trkpt>
      <trkpt lat="45.62776" lon="2.87728">
        <ele>1254.177246</ele>
        <time>2013-05-06T14:24:57Z</time>
      </trkpt>
      <trkpt lat="45.62772" lon="2.87719">
        <ele>1254.657715</ele>
        <time>2013-05-06T14:25:03Z</time>
      </trkpt>
      <trkpt lat="45.62768" lon="2.87708">
        <ele>1255.138428</ele>
        <time>2013-05-06T14:25:12Z</time>
      </trkpt>
      <trkpt lat="45.62764" lon="2.87686">
        <ele>1257.541748</ele>
        <time>2013-05-06T14:25:27Z</time>
      </trkpt>
      <trkpt lat="45.62757" lon="2.87659">
        <ele>1259.944824</ele>
        <time>2013-05-06T14:25:46Z</time>
      </trkpt>
      <trkpt lat="45.62753" lon="2.87644">
        <ele>1259.944824</ele>
        <time>2013-05-06T14:26:03Z</time>
      </trkpt>
      <trkpt lat="45.62752" lon="2.87642">
        <ele>1259.944824</ele>
        <time>2013-05-06T14:27:37Z</time>
      </trkpt>
      <trkpt lat="45.6275" lon="2.87622">
        <ele>1261.387207</ele>
        <time>2013-05-06T14:27:57Z</time>
      </trkpt>
      <trkpt lat="45.62742" lon="2.876">
        <ele>1262.829102</ele>
        <time>2013-05-06T14:28:12Z</time>
      </trkpt>
      <trkpt lat="45.62737" lon="2.87583">
        <ele>1263.790283</ele>
        <time>2013-05-06T14:28:32Z</time>
      </trkpt>
      <trkpt lat="45.62729" lon="2.8756">
        <ele>1265.713135</ele>
        <time>2013-05-06T14:28:57Z</time>
      </trkpt>
      <trkpt lat="45.62727" lon="2.87554">
        <ele>1266.193604</ele>
        <time>2013-05-06T14:29:23Z</time>
      </trkpt>
      <trkpt lat="45.62726" lon="2.87553">
        <ele>1266.193604</ele>
        <time>2013-05-06T14:30:11Z</time>
      </trkpt>
      <trkpt lat="45.62723" lon="2.87545">
        <ele>1267.635498</ele>
        <time>2013-05-06T14:30:19Z</time>
      </trkpt>
      <trkpt lat="45.62714" lon="2.87517">
        <ele>1267.635498</ele>
        <time>2013-05-06T14:30:44Z</time>
      </trkpt>
      <trkpt lat="45.62705" lon="2.87494">
        <ele>1270.519531</ele>
        <time>2013-05-06T14:31:05Z</time>
      </trkpt>
      <trkpt lat="45.62703" lon="2.87488">
        <ele>1271.000244</ele>
        <time>2013-05-06T14:31:11Z</time>
      </trkpt>
      <trkpt lat="45.62691" lon="2.87465">
        <ele>1273.884033</ele>
        <time>2013-05-06T14:31:35Z</time>
      </trkpt>
      <trkpt lat="45.62682" lon="2.87449">
        <ele>1273.884033</ele>
        <time>2013-05-06T14:31:53Z</time>
      </trkpt>
      <trkpt lat="45.62668" lon="2.87432">
        <ele>1275.806641</ele>
        <time>2013-05-06T14:32:15Z</time>
      </trkpt>
      <trkpt lat="45.6265" lon="2.87417">
        <ele>1278.690918</ele>
        <time>2013-05-06T14:32:42Z</time>
      </trkpt>
      <trkpt lat="45.62637" lon="2.87412">
        <ele>1280.132813</ele>
        <time>2013-05-06T14:33:06Z</time>
      </trkpt>
      <trkpt lat="45.62634" lon="2.8741">
        <ele>1280.613525</ele>
        <time>2013-05-06T14:33:24Z</time>
      </trkpt>
      <trkpt lat="45.62624" lon="2.87406">
        <ele>1280.613525</ele>
        <time>2013-05-06T14:34:10Z</time>
      </trkpt>
      <trkpt lat="45.62614" lon="2.8742">
        <ele>1282.05542</ele>
        <time>2013-05-06T14:34:29Z</time>
      </trkpt>
      <trkpt lat="45.62619" lon="2.87449">
        <ele>1283.978027</ele>
        <time>2013-05-06T14:34:53Z</time>
      </trkpt>
      <trkpt lat="45.62621" lon="2.87458">
        <ele>1284.45874</ele>
        <time>2013-05-06T14:35:00Z</time>
      </trkpt>
      <trkpt lat="45.62629" lon="2.87486">
        <ele>1285.419922</ele>
        <time>2013-05-06T14:35:26Z</time>
      </trkpt>
      <trkpt lat="45.6263" lon="2.87492">
        <ele>1284.939453</ele>
        <time>2013-05-06T14:36:00Z</time>
      </trkpt>
      <trkpt lat="45.6263" lon="2.87498">
        <ele>1285.419922</ele>
        <time>2013-05-06T14:36:04Z</time>
      </trkpt>
      <trkpt lat="45.62632" lon="2.87505">
        <ele>1285.900635</ele>
        <time>2013-05-06T14:36:09Z</time>
      </trkpt>
      <trkpt lat="45.62634" lon="2.87513">
        <ele>1285.900635</ele>
        <time>2013-05-06T14:36:14Z</time>
      </trkpt>
      <trkpt lat="45.62635" lon="2.87518">
        <ele>1285.900635</ele>
        <time>2013-05-06T14:36:17Z</time>
      </trkpt>
      <trkpt lat="45.6264" lon="2.87534">
        <ele>1286.861816</ele>
        <time>2013-05-06T14:36:28Z</time>
      </trkpt>
      <trkpt lat="45.62648" lon="2.87565">
        <ele>1287.342529</ele>
        <time>2013-05-06T14:36:49Z</time>
      </trkpt>
      <trkpt lat="45.62649" lon="2.87568">
        <ele>1287.342529</ele>
        <time>2013-05-06T14:36:51Z</time>
      </trkpt>
      <trkpt lat="45.62655" lon="2.87603">
        <ele>1288.303955</ele>
        <time>2013-05-06T14:37:13Z</time>
      </trkpt>
      <trkpt lat="45.62656" lon="2.87618">
        <ele>1288.303955</ele>
        <time>2013-05-06T14:37:22Z</time>
      </trkpt>
      <trkpt lat="45.62656" lon="2.87627">
        <ele>1289.265137</ele>
        <time>2013-05-06T14:37:28Z</time>
      </trkpt>
      <trkpt lat="45.62655" lon="2.87664">
        <ele>1290.707031</ele>
        <time>2013-05-06T14:37:52Z</time>
      </trkpt>
      <trkpt lat="45.62655" lon="2.8767">
        <ele>1290.707031</ele>
        <time>2013-05-06T14:37:56Z</time>
      </trkpt>
      <trkpt lat="45.62654" lon="2.87677">
        <ele>1290.707031</ele>
        <time>2013-05-06T14:38:01Z</time>
      </trkpt>
      <trkpt lat="45.62651" lon="2.87701">
        <ele>1291.668457</ele>
        <time>2013-05-06T14:38:16Z</time>
      </trkpt>
      <trkpt lat="45.62647" lon="2.87735">
        <ele>1293.110596</ele>
        <time>2013-05-06T14:38:39Z</time>
      </trkpt>
      <trkpt lat="45.62645" lon="2.87744">
        <ele>1293.591309</ele>
        <time>2013-05-06T14:38:45Z</time>
      </trkpt>
      <trkpt lat="45.6264" lon="2.87765">
        <ele>1295.033203</ele>
        <time>2013-05-06T14:39:01Z</time>
      </trkpt>
      <trkpt lat="45.62633" lon="2.8779">
        <ele>1295.994629</ele>
        <time>2013-05-06T14:39:21Z</time>
      </trkpt>
      <trkpt lat="45.62629" lon="2.87804">
        <ele>1296.955811</ele>
        <time>2013-05-06T14:39:32Z</time>
      </trkpt>
      <trkpt lat="45.62627" lon="2.87813">
        <ele>1297.436523</ele>
        <time>2013-05-06T14:39:38Z</time>
      </trkpt>
      <trkpt lat="45.62626" lon="2.87815">
        <ele>1297.436523</ele>
        <time>2013-05-06T14:39:40Z</time>
      </trkpt>
      <trkpt lat="45.62625" lon="2.8782">
        <ele>1298.397705</ele>
        <time>2013-05-06T14:39:44Z</time>
      </trkpt>
      <trkpt lat="45.62622" lon="2.87829">
        <ele>1298.878418</ele>
        <time>2013-05-06T14:39:51Z</time>
      </trkpt>
      <trkpt lat="45.62614" lon="2.87855">
        <ele>1300.801025</ele>
        <time>2013-05-06T14:40:11Z</time>
      </trkpt>
      <trkpt lat="45.62605" lon="2.87883">
        <ele>1301.281738</ele>
        <time>2013-05-06T14:40:32Z</time>
      </trkpt>
      <trkpt lat="45.62603" lon="2.87888">
        <ele>1302.24292</ele>
        <time>2013-05-06T14:40:36Z</time>
      </trkpt>
      <trkpt lat="45.6259" lon="2.87915">
        <ele>1303.685059</ele>
        <time>2013-05-06T14:40:58Z</time>
      </trkpt>
      <trkpt lat="45.62584" lon="2.87931">
        <ele>1306.088135</ele>
        <time>2013-05-06T14:41:10Z</time>
      </trkpt>
      <trkpt lat="45.62574" lon="2.87948">
        <ele>1307.049561</ele>
        <time>2013-05-06T14:41:25Z</time>
      </trkpt>
      <trkpt lat="45.62567" lon="2.87955">
        <ele>1306.568848</ele>
        <time>2013-05-06T14:41:42Z</time>
      </trkpt>
      <trkpt lat="45.62567" lon="2.87955">
        <ele>1306.568848</ele>
        <time>2013-05-06T14:41:56Z</time>
      </trkpt>
      <trkpt lat="45.62556" lon="2.87968">
        <ele>1308.491699</ele>
        <time>2013-05-06T14:47:09Z</time>
      </trkpt>
      <trkpt lat="45.62556" lon="2.87968">
        <ele>1307.530273</ele>
        <time>2013-05-06T14:48:02Z</time>
      </trkpt>
      <trkpt lat="45.62549" lon="2.87975">
        <ele>1308.01123</ele>
        <time>2013-05-06T14:48:51Z</time>
      </trkpt>
      <trkpt lat="45.62525" lon="2.87983">
        <ele>1310.89502</ele>
        <time>2013-05-06T14:49:15Z</time>
      </trkpt>
      <trkpt lat="45.62504" lon="2.87979">
        <ele>1311.375732</ele>
        <time>2013-05-06T14:49:38Z</time>
      </trkpt>
      <trkpt lat="45.62489" lon="2.87972">
        <ele>1312.336914</ele>
        <time>2013-05-06T14:50:00Z</time>
      </trkpt>
      <trkpt lat="45.62468" lon="2.87959">
        <ele>1314.740234</ele>
        <time>2013-05-06T14:50:25Z</time>
      </trkpt>
      <trkpt lat="45.62451" lon="2.87947">
        <ele>1316.662842</ele>
        <time>2013-05-06T14:50:47Z</time>
      </trkpt>
      <trkpt lat="45.62452" lon="2.87926">
        <ele>1318.104736</ele>
        <time>2013-05-06T14:51:08Z</time>
      </trkpt>
      <trkpt lat="45.62456" lon="2.87921">
        <ele>1318.585449</ele>
        <time>2013-05-06T14:51:14Z</time>
      </trkpt>
      <trkpt lat="45.62473" lon="2.87903">
        <ele>1320.027344</ele>
        <time>2013-05-06T14:51:37Z</time>
      </trkpt>
      <trkpt lat="45.62478" lon="2.87895">
        <ele>1320.508057</ele>
        <time>2013-05-06T14:52:01Z</time>
      </trkpt>
      <trkpt lat="45.62481" lon="2.87891">
        <ele>1321.469238</ele>
        <time>2013-05-06T14:52:10Z</time>
      </trkpt>
      <trkpt lat="45.62492" lon="2.87868">
        <ele>1321.949951</ele>
        <time>2013-05-06T14:52:28Z</time>
      </trkpt>
      <trkpt lat="45.62505" lon="2.87841">
        <ele>1322.430664</ele>
        <time>2013-05-06T14:52:48Z</time>
      </trkpt>
      <trkpt lat="45.6251" lon="2.87828">
        <ele>1322.911377</ele>
        <time>2013-05-06T14:52:58Z</time>
      </trkpt>
      <trkpt lat="45.62517" lon="2.87812">
        <ele>1323.872559</ele>
        <time>2013-05-06T14:53:10Z</time>
      </trkpt>
      <trkpt lat="45.62524" lon="2.8779">
        <ele>1324.834229</ele>
        <time>2013-05-06T14:53:25Z</time>
      </trkpt>
      <trkpt lat="45.62526" lon="2.87785">
        <ele>1325.314697</ele>
        <time>2013-05-06T14:53:28Z</time>
      </trkpt>
      <trkpt lat="45.62531" lon="2.87768">
        <ele>1324.834229</ele>
        <time>2013-05-06T14:53:40Z</time>
      </trkpt>
      <trkpt lat="45.62536" lon="2.87735">
        <ele>1326.276123</ele>
        <time>2013-05-06T14:54:02Z</time>
      </trkpt>
      <trkpt lat="45.62538" lon="2.87695">
        <ele>1328.679443</ele>
        <time>2013-05-06T14:54:28Z</time>
      </trkpt>
      <trkpt lat="45.62535" lon="2.87664">
        <ele>1330.121338</ele>
        <time>2013-05-06T14:54:48Z</time>
      </trkpt>
      <trkpt lat="45.62533" lon="2.87655">
        <ele>1331.082764</ele>
        <time>2013-05-06T14:54:54Z</time>
      </trkpt>
      <trkpt lat="45.62532" lon="2.87644">
        <ele>1331.082764</ele>
        <time>2013-05-06T14:55:01Z</time>
      </trkpt>
      <trkpt lat="45.62527" lon="2.87611">
        <ele>1332.524658</ele>
        <time>2013-05-06T14:55:24Z</time>
      </trkpt>
      <trkpt lat="45.62524" lon="2.87598">
        <ele>1333.005127</ele>
        <time>2013-05-06T14:55:33Z</time>
      </trkpt>
      <trkpt lat="45.62513" lon="2.87569">
        <ele>1334.927979</ele>
        <time>2013-05-06T14:55:57Z</time>
      </trkpt>
      <trkpt lat="45.62505" lon="2.87555">
        <ele>1336.369873</ele>
        <time>2013-05-06T14:56:10Z</time>
      </trkpt>
      <trkpt lat="45.62493" lon="2.87537">
        <ele>1336.850342</ele>
        <time>2013-05-06T14:56:27Z</time>
      </trkpt>
      <trkpt lat="45.62481" lon="2.87522">
        <ele>1337.811768</ele>
        <time>2013-05-06T14:56:43Z</time>
      </trkpt>
      <trkpt lat="45.62462" lon="2.875">
        <ele>1339.253662</ele>
        <time>2013-05-06T14:57:07Z</time>
      </trkpt>
      <trkpt lat="45.62446" lon="2.87483">
        <ele>1340.215332</ele>
        <time>2013-05-06T14:57:26Z</time>
      </trkpt>
      <trkpt lat="45.6244" lon="2.87476">
        <ele>1340.695801</ele>
        <time>2013-05-06T14:57:33Z</time>
      </trkpt>
      <trkpt lat="45.62433" lon="2.87466">
        <ele>1341.176514</ele>
        <time>2013-05-06T14:57:43Z</time>
      </trkpt>
      <trkpt lat="45.62423" lon="2.87455">
        <ele>1342.137939</ele>
        <time>2013-05-06T14:57:54Z</time>
      </trkpt>
      <trkpt lat="45.62412" lon="2.87443">
        <ele>1342.618652</ele>
        <time>2013-05-06T14:58:06Z</time>
      </trkpt>
      <trkpt lat="45.62408" lon="2.87438">
        <ele>1342.618652</ele>
        <time>2013-05-06T14:58:10Z</time>
      </trkpt>
      <trkpt lat="45.62387" lon="2.87414">
        <ele>1344.060547</ele>
        <time>2013-05-06T14:58:32Z</time>
      </trkpt>
      <trkpt lat="45.62374" lon="2.874">
        <ele>1344.060547</ele>
        <time>2013-05-06T14:58:45Z</time>
      </trkpt>
      <trkpt lat="45.62369" lon="2.87394">
        <ele>1344.541016</ele>
        <time>2013-05-06T14:58:50Z</time>
      </trkpt>
      <trkpt lat="45.62346" lon="2.87368">
        <ele>1345.502441</ele>
        <time>2013-05-06T14:59:13Z</time>
      </trkpt>
      <trkpt lat="45.62327" lon="2.87346">
        <ele>1345.502441</ele>
        <time>2013-05-06T14:59:32Z</time>
      </trkpt>
      <trkpt lat="45.62305" lon="2.87319">
        <ele>1347.905762</ele>
        <time>2013-05-06T14:59:55Z</time>
      </trkpt>
      <trkpt lat="45.62286" lon="2.87296">
        <ele>1349.347656</ele>
        <time>2013-05-06T15:00:15Z</time>
      </trkpt>
      <trkpt lat="45.6228" lon="2.8729">
        <ele>1349.828369</ele>
        <time>2013-05-06T15:00:21Z</time>
      </trkpt>
      <trkpt lat="45.62275" lon="2.87282">
        <ele>1349.347656</ele>
        <time>2013-05-06T15:00:27Z</time>
      </trkpt>
      <trkpt lat="45.62271" lon="2.87277">
        <ele>1349.828369</ele>
        <time>2013-05-06T15:00:51Z</time>
      </trkpt>
      <trkpt lat="45.62257" lon="2.8726">
        <ele>1350.309082</ele>
        <time>2013-05-06T15:02:10Z</time>
      </trkpt>
      <trkpt lat="45.62233" lon="2.8723">
        <ele>1350.789551</ele>
        <time>2013-05-06T15:02:32Z</time>
      </trkpt>
      <trkpt lat="45.62201" lon="2.87187">
        <ele>1350.789551</ele>
        <time>2013-05-06T15:03:01Z</time>
      </trkpt>
      <trkpt lat="45.6218" lon="2.8716">
        <ele>1352.231445</ele>
        <time>2013-05-06T15:03:21Z</time>
      </trkpt>
      <trkpt lat="45.62158" lon="2.87135">
        <ele>1353.192871</ele>
        <time>2013-05-06T15:03:42Z</time>
      </trkpt>
      <trkpt lat="45.62139" lon="2.87113">
        <ele>1354.154297</ele>
        <time>2013-05-06T15:04:03Z</time>
      </trkpt>
      <trkpt lat="45.62122" lon="2.87087">
        <ele>1356.076904</ele>
        <time>2013-05-06T15:04:25Z</time>
      </trkpt>
      <trkpt lat="45.62107" lon="2.87068">
        <ele>1357.519043</ele>
        <time>2013-05-06T15:04:45Z</time>
      </trkpt>
      <trkpt lat="45.62089" lon="2.87047">
        <ele>1358.960938</ele>
        <time>2013-05-06T15:05:08Z</time>
      </trkpt>
      <trkpt lat="45.62073" lon="2.87029">
        <ele>1360.402832</ele>
        <time>2013-05-06T15:05:27Z</time>
      </trkpt>
      <trkpt lat="45.62058" lon="2.87013">
        <ele>1362.325439</ele>
        <time>2013-05-06T15:05:46Z</time>
      </trkpt>
      <trkpt lat="45.62053" lon="2.87006">
        <ele>1362.325439</ele>
        <time>2013-05-06T15:06:06Z</time>
      </trkpt>
      <trkpt lat="45.62042" lon="2.86991">
        <ele>1364.72876</ele>
        <time>2013-05-06T15:06:29Z</time>
      </trkpt>
      <trkpt lat="45.6204" lon="2.86981">
        <ele>1365.690186</ele>
        <time>2013-05-06T15:08:07Z</time>
      </trkpt>
      <trkpt lat="45.62041" lon="2.86981">
        <ele>1365.209473</ele>
        <time>2013-05-06T15:10:34Z</time>
      </trkpt>
      <trkpt lat="45.6204" lon="2.8698">
        <ele>1364.248047</ele>
        <time>2013-05-06T15:15:27Z</time>
      </trkpt>
      <trkpt lat="45.62037" lon="2.86975">
        <ele>1364.248047</ele>
        <time>2013-05-06T15:16:14Z</time>
      </trkpt>
      <trkpt lat="45.6203" lon="2.86937">
        <ele>1368.573975</ele>
        <time>2013-05-06T15:16:43Z</time>
      </trkpt>
      <trkpt lat="45.6202" lon="2.8691">
        <ele>1370.496582</ele>
        <time>2013-05-06T15:17:07Z</time>
      </trkpt>
      <trkpt lat="45.62006" lon="2.86895">
        <ele>1372.900146</ele>
        <time>2013-05-06T15:17:28Z</time>
      </trkpt>
      <trkpt lat="45.6199" lon="2.86891">
        <ele>1373.861328</ele>
        <time>2013-05-06T15:17:44Z</time>
      </trkpt>
      <trkpt lat="45.61965" lon="2.86892">
        <ele>1375.303223</ele>
        <time>2013-05-06T15:18:11Z</time>
      </trkpt>
      <trkpt lat="45.61943" lon="2.86894">
        <ele>1377.226074</ele>
        <time>2013-05-06T15:18:34Z</time>
      </trkpt>
      <trkpt lat="45.61919" lon="2.86892">
        <ele>1378.187256</ele>
        <time>2013-05-06T15:18:58Z</time>
      </trkpt>
      <trkpt lat="45.61911" lon="2.86876">
        <ele>1380.590576</ele>
        <time>2013-05-06T15:19:18Z</time>
      </trkpt>
      <trkpt lat="45.61912" lon="2.86873">
        <ele>1380.590576</ele>
        <time>2013-05-06T15:19:35Z</time>
      </trkpt>
      <trkpt lat="45.61914" lon="2.86874">
        <ele>1383.474365</ele>
        <time>2013-05-06T15:41:18Z</time>
      </trkpt>
      <trkpt lat="45.61914" lon="2.86873">
        <ele>1380.590576</ele>
        <time>2013-05-06T15:44:07Z</time>
      </trkpt>
      <trkpt lat="45.61916" lon="2.86873">
        <ele>1383.474365</ele>
        <time>2013-05-06T15:52:02Z</time>
      </trkpt>
      <trkpt lat="45.61912" lon="2.86868">
        <ele>1383.474365</ele>
        <time>2013-05-06T15:56:03Z</time>
      </trkpt>
      <trkpt lat="45.61911" lon="2.86842">
        <ele>1385.396973</ele>
        <time>2013-05-06T15:56:24Z</time>
      </trkpt>
      <trkpt lat="45.61908" lon="2.86806">
        <ele>1387.800293</ele>
        <time>2013-05-06T15:56:50Z</time>
      </trkpt>
      <trkpt lat="45.61902" lon="2.86767">
        <ele>1389.242432</ele>
        <time>2013-05-06T15:57:16Z</time>
      </trkpt>
      <trkpt lat="45.61901" lon="2.86761">
        <ele>1389.723145</ele>
        <time>2013-05-06T15:57:20Z</time>
      </trkpt>
      <trkpt lat="45.61899" lon="2.86748">
        <ele>1390.684326</ele>
        <time>2013-05-06T15:57:29Z</time>
      </trkpt>
      <trkpt lat="45.61895" lon="2.86719">
        <ele>1391.645752</ele>
        <time>2013-05-06T15:57:51Z</time>
      </trkpt>
      <trkpt lat="45.6189" lon="2.86703">
        <ele>1393.087646</ele>
        <time>2013-05-06T15:58:10Z</time>
      </trkpt>
      <trkpt lat="45.61899" lon="2.86701">
        <ele>1393.568359</ele>
        <time>2013-05-06T15:58:38Z</time>
      </trkpt>
      <trkpt lat="45.61894" lon="2.86674">
        <ele>1395.010254</ele>
        <time>2013-05-06T15:58:58Z</time>
      </trkpt>
      <trkpt lat="45.61892" lon="2.86658">
        <ele>1395.490967</ele>
        <time>2013-05-06T15:59:11Z</time>
      </trkpt>
      <trkpt lat="45.61887" lon="2.86645">
        <ele>1396.452393</ele>
        <time>2013-05-06T15:59:29Z</time>
      </trkpt>
      <trkpt lat="45.61884" lon="2.86629">
        <ele>1396.932861</ele>
        <time>2013-05-06T15:59:48Z</time>
      </trkpt>
      <trkpt lat="45.6188" lon="2.86612">
        <ele>1397.894287</ele>
        <time>2013-05-06T15:59:58Z</time>
      </trkpt>
      <trkpt lat="45.61866" lon="2.86583">
        <ele>1400.297607</ele>
        <time>2013-05-06T16:00:19Z</time>
      </trkpt>
      <trkpt lat="45.61849" lon="2.86563">
        <ele>1401.739502</ele>
        <time>2013-05-06T16:00:39Z</time>
      </trkpt>
      <trkpt lat="45.61843" lon="2.86554">
        <ele>1402.700684</ele>
        <time>2013-05-06T16:01:02Z</time>
      </trkpt>
      <trkpt lat="45.61834" lon="2.86548">
        <ele>1403.662109</ele>
        <time>2013-05-06T16:01:20Z</time>
      </trkpt>
      <trkpt lat="45.61827" lon="2.8654">
        <ele>1404.143066</ele>
        <time>2013-05-06T16:01:34Z</time>
      </trkpt>
      <trkpt lat="45.61808" lon="2.8652">
        <ele>1405.584961</ele>
        <time>2013-05-06T16:01:58Z</time>
      </trkpt>
      <trkpt lat="45.61802" lon="2.86509">
        <ele>1406.546143</ele>
        <time>2013-05-06T16:02:24Z</time>
      </trkpt>
      <trkpt lat="45.6179" lon="2.86499">
        <ele>1407.026855</ele>
        <time>2013-05-06T16:02:43Z</time>
      </trkpt>
      <trkpt lat="45.61784" lon="2.86491">
        <ele>1408.46875</ele>
        <time>2013-05-06T16:03:15Z</time>
      </trkpt>
      <trkpt lat="45.6178" lon="2.86472">
        <ele>1409.430176</ele>
        <time>2013-05-06T16:03:36Z</time>
      </trkpt>
      <trkpt lat="45.61773" lon="2.86457">
        <ele>1410.87207</ele>
        <time>2013-05-06T16:03:53Z</time>
      </trkpt>
      <trkpt lat="45.61766" lon="2.8644">
        <ele>1412.313965</ele>
        <time>2013-05-06T16:04:11Z</time>
      </trkpt>
      <trkpt lat="45.61761" lon="2.86429">
        <ele>1412.794678</ele>
        <time>2013-05-06T16:04:30Z</time>
      </trkpt>
      <trkpt lat="45.61751" lon="2.86412">
        <ele>1414.236572</ele>
        <time>2013-05-06T16:05:20Z</time>
      </trkpt>
      <trkpt lat="45.6175" lon="2.86408">
        <ele>1415.197998</ele>
        <time>2013-05-06T16:05:23Z</time>
      </trkpt>
      <trkpt lat="45.61738" lon="2.86379">
        <ele>1416.15918</ele>
        <time>2013-05-06T16:05:43Z</time>
      </trkpt>
      <trkpt lat="45.61734" lon="2.86371">
        <ele>1416.639893</ele>
        <time>2013-05-06T16:05:49Z</time>
      </trkpt>
      <trkpt lat="45.61733" lon="2.86368">
        <ele>1416.639893</ele>
        <time>2013-05-06T16:05:51Z</time>
      </trkpt>
      <trkpt lat="45.6172" lon="2.86346">
        <ele>1419.523926</ele>
        <time>2013-05-06T16:06:10Z</time>
      </trkpt>
      <trkpt lat="45.61703" lon="2.86323">
        <ele>1420.966064</ele>
        <time>2013-05-06T16:06:31Z</time>
      </trkpt>
      <trkpt lat="45.6168" lon="2.86305">
        <ele>1422.888672</ele>
        <time>2013-05-06T16:06:55Z</time>
      </trkpt>
      <trkpt lat="45.6167" lon="2.86299">
        <ele>1423.369385</ele>
        <time>2013-05-06T16:07:04Z</time>
      </trkpt>
      <trkpt lat="45.61652" lon="2.86287">
        <ele>1423.849854</ele>
        <time>2013-05-06T16:07:23Z</time>
      </trkpt>
      <trkpt lat="45.61647" lon="2.86283">
        <ele>1423.849854</ele>
        <time>2013-05-06T16:07:28Z</time>
      </trkpt>
      <trkpt lat="45.61628" lon="2.86268">
        <ele>1425.291748</ele>
        <time>2013-05-06T16:07:48Z</time>
      </trkpt>
      <trkpt lat="45.61608" lon="2.86253">
        <ele>1427.2146</ele>
        <time>2013-05-06T16:08:09Z</time>
      </trkpt>
      <trkpt lat="45.61607" lon="2.86253">
        <ele>1427.2146</ele>
        <time>2013-05-06T16:08:10Z</time>
      </trkpt>
      <trkpt lat="45.61584" lon="2.86232">
        <ele>1426.253174</ele>
        <time>2013-05-06T16:08:33Z</time>
      </trkpt>
      <trkpt lat="45.61583" lon="2.86231">
        <ele>1426.253174</ele>
        <time>2013-05-06T16:08:34Z</time>
      </trkpt>
      <trkpt lat="45.61564" lon="2.86212">
        <ele>1427.2146</ele>
        <time>2013-05-06T16:08:54Z</time>
      </trkpt>
      <trkpt lat="45.61544" lon="2.86198">
        <ele>1429.136963</ele>
        <time>2013-05-06T16:09:14Z</time>
      </trkpt>
      <trkpt lat="45.6154" lon="2.86194">
        <ele>1429.136963</ele>
        <time>2013-05-06T16:09:19Z</time>
      </trkpt>
      <trkpt lat="45.61524" lon="2.86174">
        <ele>1431.059814</ele>
        <time>2013-05-06T16:09:38Z</time>
      </trkpt>
      <trkpt lat="45.61505" lon="2.8615">
        <ele>1432.020996</ele>
        <time>2013-05-06T16:09:59Z</time>
      </trkpt>
      <trkpt lat="45.61484" lon="2.86121">
        <ele>1434.424316</ele>
        <time>2013-05-06T16:10:21Z</time>
      </trkpt>
      <trkpt lat="45.61477" lon="2.86113">
        <ele>1433.462891</ele>
        <time>2013-05-06T16:10:35Z</time>
      </trkpt>
      <trkpt lat="45.61457" lon="2.86082">
        <ele>1433.462891</ele>
        <time>2013-05-06T16:11:18Z</time>
      </trkpt>
      <trkpt lat="45.61455" lon="2.86078">
        <ele>1432.982178</ele>
        <time>2013-05-06T16:11:19Z</time>
      </trkpt>
      <trkpt lat="45.61441" lon="2.86062">
        <ele>1432.982178</ele>
        <time>2013-05-06T16:11:23Z</time>
      </trkpt>
      <trkpt lat="45.61369" lon="2.85968">
        <ele>1430.098389</ele>
        <time>2013-05-06T16:11:45Z</time>
      </trkpt>
      <trkpt lat="45.61354" lon="2.85949">
        <ele>1429.136963</ele>
        <time>2013-05-06T16:11:49Z</time>
      </trkpt>
      <trkpt lat="45.61333" lon="2.85915">
        <ele>1426.733887</ele>
        <time>2013-05-06T16:11:55Z</time>
      </trkpt>
      <trkpt lat="45.6132" lon="2.85894">
        <ele>1424.330566</ele>
        <time>2013-05-06T16:11:59Z</time>
      </trkpt>
      <trkpt lat="45.61308" lon="2.85871">
        <ele>1422.407959</ele>
        <time>2013-05-06T16:12:03Z</time>
      </trkpt>
      <trkpt lat="45.6128" lon="2.85833">
        <ele>1419.523926</ele>
        <time>2013-05-06T16:12:10Z</time>
      </trkpt>
      <trkpt lat="45.61242" lon="2.85782">
        <ele>1419.043213</ele>
        <time>2013-05-06T16:12:21Z</time>
      </trkpt>
      <trkpt lat="45.61233" lon="2.85773">
        <ele>1419.043213</ele>
        <time>2013-05-06T16:12:25Z</time>
      </trkpt>
      <trkpt lat="45.61194" lon="2.85723">
        <ele>1418.5625</ele>
        <time>2013-05-06T16:12:42Z</time>
      </trkpt>
      <trkpt lat="45.61137" lon="2.85673">
        <ele>1417.120605</ele>
        <time>2013-05-06T16:12:59Z</time>
      </trkpt>
      <trkpt lat="45.61087" lon="2.85635">
        <ele>1416.639893</ele>
        <time>2013-05-06T16:13:17Z</time>
      </trkpt>
      <trkpt lat="45.61064" lon="2.8561">
        <ele>1416.639893</ele>
        <time>2013-05-06T16:13:32Z</time>
      </trkpt>
      <trkpt lat="45.61024" lon="2.85563">
        <ele>1420.004639</ele>
        <time>2013-05-06T16:13:51Z</time>
      </trkpt>
      <trkpt lat="45.60994" lon="2.85529">
        <ele>1420.485352</ele>
        <time>2013-05-06T16:14:09Z</time>
      </trkpt>
      <trkpt lat="45.60975" lon="2.85511">
        <ele>1419.523926</ele>
        <time>2013-05-06T16:14:25Z</time>
      </trkpt>
      <trkpt lat="45.60975" lon="2.8551">
        <ele>1420.004639</ele>
        <time>2013-05-06T16:15:01Z</time>
      </trkpt>
      <trkpt lat="45.60974" lon="2.8551">
        <ele>1419.523926</ele>
        <time>2013-05-06T16:15:17Z</time>
      </trkpt>
      <trkpt lat="45.60973" lon="2.85507">
        <ele>1418.081787</ele>
        <time>2013-05-06T16:16:18Z</time>
      </trkpt>
      <trkpt lat="45.60965" lon="2.85498">
        <ele>1418.081787</ele>
        <time>2013-05-06T16:16:30Z</time>
      </trkpt>
      <trkpt lat="45.60957" lon="2.85488">
        <ele>1416.639893</ele>
        <time>2013-05-06T16:16:44Z</time>
      </trkpt>
      <trkpt lat="45.60955" lon="2.85486">
        <ele>1416.639893</ele>
        <time>2013-05-06T16:17:09Z</time>
      </trkpt>
      <trkpt lat="45.60923" lon="2.85459">
        <ele>1414.236572</ele>
        <time>2013-05-06T16:17:28Z</time>
      </trkpt>
      <trkpt lat="45.60905" lon="2.85446">
        <ele>1413.755859</ele>
        <time>2013-05-06T16:17:36Z</time>
      </trkpt>
      <trkpt lat="45.60846" lon="2.85422">
        <ele>1412.313965</ele>
        <time>2013-05-06T16:17:51Z</time>
      </trkpt>
      <trkpt lat="45.60787" lon="2.85419">
        <ele>1410.391357</ele>
        <time>2013-05-06T16:18:07Z</time>
      </trkpt>
      <trkpt lat="45.60769" lon="2.85418">
        <ele>1408.46875</ele>
        <time>2013-05-06T16:18:19Z</time>
      </trkpt>
      <trkpt lat="45.6075" lon="2.85416">
        <ele>1406.546143</ele>
        <time>2013-05-06T16:18:41Z</time>
      </trkpt>
      <trkpt lat="45.60741" lon="2.85416">
        <ele>1406.06543</ele>
        <time>2013-05-06T16:18:59Z</time>
      </trkpt>
      <trkpt lat="45.60734" lon="2.85416">
        <ele>1405.584961</ele>
        <time>2013-05-06T16:19:20Z</time>
      </trkpt>
      <trkpt lat="45.60728" lon="2.85415">
        <ele>1405.584961</ele>
        <time>2013-05-06T16:19:35Z</time>
      </trkpt>
      <trkpt lat="45.60715" lon="2.85414">
        <ele>1405.104248</ele>
        <time>2013-05-06T16:19:52Z</time>
      </trkpt>
      <trkpt lat="45.6071" lon="2.85414">
        <ele>1404.623535</ele>
        <time>2013-05-06T16:20:11Z</time>
      </trkpt>
      <trkpt lat="45.60699" lon="2.85413">
        <ele>1403.181396</ele>
        <time>2013-05-06T16:21:04Z</time>
      </trkpt>
      <trkpt lat="45.6069" lon="2.85415">
        <ele>1404.143066</ele>
        <time>2013-05-06T16:21:19Z</time>
      </trkpt>
      <trkpt lat="45.60674" lon="2.85413">
        <ele>1402.700684</ele>
        <time>2013-05-06T16:21:35Z</time>
      </trkpt>
      <trkpt lat="45.60639" lon="2.85403">
        <ele>1400.297607</ele>
        <time>2013-05-06T16:21:52Z</time>
      </trkpt>
      <trkpt lat="45.60626" lon="2.85402">
        <ele>1399.336182</ele>
        <time>2013-05-06T16:22:08Z</time>
      </trkpt>
      <trkpt lat="45.60599" lon="2.85397">
        <ele>1397.894287</ele>
        <time>2013-05-06T16:22:30Z</time>
      </trkpt>
      <trkpt lat="45.60555" lon="2.8538">
        <ele>1396.932861</ele>
        <time>2013-05-06T16:22:47Z</time>
      </trkpt>
      <trkpt lat="45.60539" lon="2.85347">
        <ele>1396.452393</ele>
        <time>2013-05-06T16:22:57Z</time>
      </trkpt>
      <trkpt lat="45.60527" lon="2.8532">
        <ele>1395.010254</ele>
        <time>2013-05-06T16:23:02Z</time>
      </trkpt>
      <trkpt lat="45.60474" lon="2.85251">
        <ele>1391.645752</ele>
        <time>2013-05-06T16:23:16Z</time>
      </trkpt>
      <trkpt lat="45.60458" lon="2.85219">
        <ele>1391.165039</ele>
        <time>2013-05-06T16:23:21Z</time>
      </trkpt>
      <trkpt lat="45.60442" lon="2.85193">
        <ele>1390.684326</ele>
        <time>2013-05-06T16:23:26Z</time>
      </trkpt>
      <trkpt lat="45.60429" lon="2.85148">
        <ele>1391.165039</ele>
        <time>2013-05-06T16:23:33Z</time>
      </trkpt>
      <trkpt lat="45.60417" lon="2.85129">
        <ele>1391.645752</ele>
        <time>2013-05-06T16:23:37Z</time>
      </trkpt>
      <trkpt lat="45.6035" lon="2.85079">
        <ele>1391.165039</ele>
        <time>2013-05-06T16:23:55Z</time>
      </trkpt>
      <trkpt lat="45.6027" lon="2.85016">
        <ele>1387.800293</ele>
        <time>2013-05-06T16:24:11Z</time>
      </trkpt>
      <trkpt lat="45.6026" lon="2.85006">
        <ele>1386.838867</ele>
        <time>2013-05-06T16:24:13Z</time>
      </trkpt>
      <trkpt lat="45.60223" lon="2.8496">
        <ele>1382.993652</ele>
        <time>2013-05-06T16:24:20Z</time>
      </trkpt>
      <trkpt lat="45.60176" lon="2.84904">
        <ele>1380.109863</ele>
        <time>2013-05-06T16:24:29Z</time>
      </trkpt>
      <trkpt lat="45.60167" lon="2.84892">
        <ele>1379.148438</ele>
        <time>2013-05-06T16:24:31Z</time>
      </trkpt>
      <trkpt lat="45.60102" lon="2.84808">
        <ele>1375.783936</ele>
        <time>2013-05-06T16:24:44Z</time>
      </trkpt>
      <trkpt lat="45.60077" lon="2.84776">
        <ele>1372.419434</ele>
        <time>2013-05-06T16:24:49Z</time>
      </trkpt>
      <trkpt lat="45.60071" lon="2.84769">
        <ele>1372.419434</ele>
        <time>2013-05-06T16:24:50Z</time>
      </trkpt>
      <trkpt lat="45.60008" lon="2.84693">
        <ele>1370.496582</ele>
        <time>2013-05-06T16:25:01Z</time>
      </trkpt>
      <trkpt lat="45.59982" lon="2.84657">
        <ele>1370.015869</ele>
        <time>2013-05-06T16:25:06Z</time>
      </trkpt>
      <trkpt lat="45.59964" lon="2.84569">
        <ele>1370.015869</ele>
        <time>2013-05-06T16:25:19Z</time>
      </trkpt>
      <trkpt lat="45.59954" lon="2.84517">
        <ele>1371.457764</ele>
        <time>2013-05-06T16:25:32Z</time>
      </trkpt>
      <trkpt lat="45.59949" lon="2.84484">
        <ele>1373.380859</ele>
        <time>2013-05-06T16:25:50Z</time>
      </trkpt>
      <trkpt lat="45.59952" lon="2.84482">
        <ele>1373.861328</ele>
        <time>2013-05-06T16:26:49Z</time>
      </trkpt>
      <trkpt lat="45.59949" lon="2.84498">
        <ele>1373.861328</ele>
        <time>2013-05-06T16:27:04Z</time>
      </trkpt>
      <trkpt lat="45.59956" lon="2.84523">
        <ele>1370.977295</ele>
        <time>2013-05-06T16:27:27Z</time>
      </trkpt>
      <trkpt lat="45.59954" lon="2.84533">
        <ele>1371.457764</ele>
        <time>2013-05-06T16:27:49Z</time>
      </trkpt>
      <trkpt lat="45.59954" lon="2.84536">
        <ele>1371.457764</ele>
        <time>2013-05-06T16:29:06Z</time>
      </trkpt>
      <trkpt lat="45.59961" lon="2.84534">
        <ele>1370.015869</ele>
        <time>2013-05-06T16:29:21Z</time>
      </trkpt>
      <trkpt lat="45.59965" lon="2.84533">
        <ele>1369.5354</ele>
        <time>2013-05-06T16:29:41Z</time>
      </trkpt>
      <trkpt lat="45.5997" lon="2.8453">
        <ele>1369.5354</ele>
        <time>2013-05-06T16:29:56Z</time>
      </trkpt>
      <trkpt lat="45.59985" lon="2.84511">
        <ele>1367.612549</ele>
        <time>2013-05-06T16:30:42Z</time>
      </trkpt>
      <trkpt lat="45.60011" lon="2.84472">
        <ele>1363.767334</ele>
        <time>2013-05-06T16:30:52Z</time>
      </trkpt>
      <trkpt lat="45.60016" lon="2.84463">
        <ele>1363.286865</ele>
        <time>2013-05-06T16:30:54Z</time>
      </trkpt>
      <trkpt lat="45.60024" lon="2.84446">
        <ele>1360.883545</ele>
        <time>2013-05-06T16:30:59Z</time>
      </trkpt>
      <trkpt lat="45.6003" lon="2.84416">
        <ele>1359.922119</ele>
        <time>2013-05-06T16:31:06Z</time>
      </trkpt>
      <trkpt lat="45.60041" lon="2.84402">
        <ele>1359.44165</ele>
        <time>2013-05-06T16:31:13Z</time>
      </trkpt>
      <trkpt lat="45.60054" lon="2.8438">
        <ele>1357.03833</ele>
        <time>2013-05-06T16:31:20Z</time>
      </trkpt>
      <trkpt lat="45.60054" lon="2.84366">
        <ele>1355.596191</ele>
        <time>2013-05-06T16:31:24Z</time>
      </trkpt>
      <trkpt lat="45.60055" lon="2.84358">
        <ele>1354.154297</ele>
        <time>2013-05-06T16:31:27Z</time>
      </trkpt>
      <trkpt lat="45.6006" lon="2.84316">
        <ele>1352.231445</ele>
        <time>2013-05-06T16:31:40Z</time>
      </trkpt>
      <trkpt lat="45.6005" lon="2.84296">
        <ele>1350.789551</ele>
        <time>2013-05-06T16:31:49Z</time>
      </trkpt>
      <trkpt lat="45.60046" lon="2.84284">
        <ele>1350.789551</ele>
        <time>2013-05-06T16:32:03Z</time>
      </trkpt>
      <trkpt lat="45.60051" lon="2.84281">
        <ele>1349.347656</ele>
        <time>2013-05-06T16:32:19Z</time>
      </trkpt>
      <trkpt lat="45.60055" lon="2.84278">
        <ele>1347.905762</ele>
        <time>2013-05-06T16:33:04Z</time>
      </trkpt>
      <trkpt lat="45.60063" lon="2.8426">
        <ele>1347.425049</ele>
        <time>2013-05-06T16:33:14Z</time>
      </trkpt>
      <trkpt lat="45.60065" lon="2.84256">
        <ele>1347.425049</ele>
        <time>2013-05-06T16:33:16Z</time>
      </trkpt>
      <trkpt lat="45.60067" lon="2.84242">
        <ele>1346.463867</ele>
        <time>2013-05-06T16:33:21Z</time>
      </trkpt>
      <trkpt lat="45.60073" lon="2.84217">
        <ele>1343.099121</ele>
        <time>2013-05-06T16:33:28Z</time>
      </trkpt>
      <trkpt lat="45.60076" lon="2.84206">
        <ele>1342.137939</ele>
        <time>2013-05-06T16:33:31Z</time>
      </trkpt>
      <trkpt lat="45.6008" lon="2.84173">
        <ele>1338.29248</ele>
        <time>2013-05-06T16:33:39Z</time>
      </trkpt>
      <trkpt lat="45.6008" lon="2.84123">
        <ele>1335.88916</ele>
        <time>2013-05-06T16:33:51Z</time>
      </trkpt>
      <trkpt lat="45.60082" lon="2.84086">
        <ele>1332.043945</ele>
        <time>2013-05-06T16:33:58Z</time>
      </trkpt>
      <trkpt lat="45.60083" lon="2.84075">
        <ele>1331.563232</ele>
        <time>2013-05-06T16:34:00Z</time>
      </trkpt>
      <trkpt lat="45.60081" lon="2.84015">
        <ele>1329.159912</ele>
        <time>2013-05-06T16:34:12Z</time>
      </trkpt>
      <trkpt lat="45.60074" lon="2.83986">
        <ele>1326.276123</ele>
        <time>2013-05-06T16:34:29Z</time>
      </trkpt>
      <trkpt lat="45.60064" lon="2.83937">
        <ele>1322.911377</ele>
        <time>2013-05-06T16:34:42Z</time>
      </trkpt>
      <trkpt lat="45.60063" lon="2.83931">
        <ele>1322.911377</ele>
        <time>2013-05-06T16:34:43Z</time>
      </trkpt>
      <trkpt lat="45.60061" lon="2.83914">
        <ele>1321.949951</ele>
        <time>2013-05-06T16:34:46Z</time>
      </trkpt>
      <trkpt lat="45.60062" lon="2.83881">
        <ele>1319.546875</ele>
        <time>2013-05-06T16:34:51Z</time>
      </trkpt>
      <trkpt lat="45.60061" lon="2.83863">
        <ele>1318.104736</ele>
        <time>2013-05-06T16:34:54Z</time>
      </trkpt>
      <trkpt lat="45.60051" lon="2.83831">
        <ele>1314.740234</ele>
        <time>2013-05-06T16:34:59Z</time>
      </trkpt>
      <trkpt lat="45.60037" lon="2.83785">
        <ele>1313.29834</ele>
        <time>2013-05-06T16:35:08Z</time>
      </trkpt>
      <trkpt lat="45.60034" lon="2.83757">
        <ele>1309.933594</ele>
        <time>2013-05-06T16:35:12Z</time>
      </trkpt>
      <trkpt lat="45.60034" lon="2.83727">
        <ele>1308.972412</ele>
        <time>2013-05-06T16:35:16Z</time>
      </trkpt>
      <trkpt lat="45.60023" lon="2.83684">
        <ele>1305.607666</ele>
        <time>2013-05-06T16:35:21Z</time>
      </trkpt>
      <trkpt lat="45.60017" lon="2.83668">
        <ele>1304.64624</ele>
        <time>2013-05-06T16:35:23Z</time>
      </trkpt>
      <trkpt lat="45.60007" lon="2.83637">
        <ele>1303.204346</ele>
        <time>2013-05-06T16:35:29Z</time>
      </trkpt>
      <trkpt lat="45.60003" lon="2.83626">
        <ele>1302.24292</ele>
        <time>2013-05-06T16:35:31Z</time>
      </trkpt>
      <trkpt lat="45.59999" lon="2.83616">
        <ele>1302.24292</ele>
        <time>2013-05-06T16:35:33Z</time>
      </trkpt>
      <trkpt lat="45.59991" lon="2.83577">
        <ele>1299.839844</ele>
        <time>2013-05-06T16:35:39Z</time>
      </trkpt>
      <trkpt lat="45.59981" lon="2.83541">
        <ele>1297.436523</ele>
        <time>2013-05-06T16:35:44Z</time>
      </trkpt>
      <trkpt lat="45.59963" lon="2.83485">
        <ele>1293.110596</ele>
        <time>2013-05-06T16:35:50Z</time>
      </trkpt>
      <trkpt lat="45.59953" lon="2.83457">
        <ele>1290.707031</ele>
        <time>2013-05-06T16:35:53Z</time>
      </trkpt>
      <trkpt lat="45.59938" lon="2.8342">
        <ele>1287.823242</ele>
        <time>2013-05-06T16:35:58Z</time>
      </trkpt>
      <trkpt lat="45.5992" lon="2.83366">
        <ele>1284.45874</ele>
        <time>2013-05-06T16:36:08Z</time>
      </trkpt>
      <trkpt lat="45.59907" lon="2.8333">
        <ele>1282.536133</ele>
        <time>2013-05-06T16:36:13Z</time>
      </trkpt>
      <trkpt lat="45.59892" lon="2.83288">
        <ele>1278.690918</ele>
        <time>2013-05-06T16:36:18Z</time>
      </trkpt>
      <trkpt lat="45.59874" lon="2.8324">
        <ele>1275.325928</ele>
        <time>2013-05-06T16:36:23Z</time>
      </trkpt>
      <trkpt lat="45.59871" lon="2.83231">
        <ele>1275.325928</ele>
        <time>2013-05-06T16:36:24Z</time>
      </trkpt>
      <trkpt lat="45.59848" lon="2.83172">
        <ele>1271.000244</ele>
        <time>2013-05-06T16:36:31Z</time>
      </trkpt>
      <trkpt lat="45.59835" lon="2.83144">
        <ele>1268.116211</ele>
        <time>2013-05-06T16:36:35Z</time>
      </trkpt>
      <trkpt lat="45.59828" lon="2.83131">
        <ele>1267.155029</ele>
        <time>2013-05-06T16:36:37Z</time>
      </trkpt>
      <trkpt lat="45.59821" lon="2.83122">
        <ele>1266.193604</ele>
        <time>2013-05-06T16:36:39Z</time>
      </trkpt>
      <trkpt lat="45.59803" lon="2.83109">
        <ele>1264.751709</ele>
        <time>2013-05-06T16:36:43Z</time>
      </trkpt>
      <trkpt lat="45.59789" lon="2.83104">
        <ele>1263.790283</ele>
        <time>2013-05-06T16:36:46Z</time>
      </trkpt>
      <trkpt lat="45.59757" lon="2.83107">
        <ele>1261.387207</ele>
        <time>2013-05-06T16:36:52Z</time>
      </trkpt>
      <trkpt lat="45.59742" lon="2.83087">
        <ele>1258.50293</ele>
        <time>2013-05-06T16:37:01Z</time>
      </trkpt>
      <trkpt lat="45.59756" lon="2.8306">
        <ele>1255.619141</ele>
        <time>2013-05-06T16:37:35Z</time>
      </trkpt>
      <trkpt lat="45.59772" lon="2.83019">
        <ele>1251.773926</ele>
        <time>2013-05-06T16:37:41Z</time>
      </trkpt>
      <trkpt lat="45.59775" lon="2.83011">
        <ele>1251.773926</ele>
        <time>2013-05-06T16:37:42Z</time>
      </trkpt>
      <trkpt lat="45.59783" lon="2.82988">
        <ele>1250.332031</ele>
        <time>2013-05-06T16:37:45Z</time>
      </trkpt>
      <trkpt lat="45.59786" lon="2.82981">
        <ele>1250.332031</ele>
        <time>2013-05-06T16:37:46Z</time>
      </trkpt>
      <trkpt lat="45.59785" lon="2.82962">
        <ele>1248.889893</ele>
        <time>2013-05-06T16:37:49Z</time>
      </trkpt>
      <trkpt lat="45.59783" lon="2.82956">
        <ele>1248.40918</ele>
        <time>2013-05-06T16:37:50Z</time>
      </trkpt>
      <trkpt lat="45.59769" lon="2.82916">
        <ele>1248.40918</ele>
        <time>2013-05-06T16:37:59Z</time>
      </trkpt>
      <trkpt lat="45.59767" lon="2.82913">
        <ele>1248.889893</ele>
        <time>2013-05-06T16:38:19Z</time>
      </trkpt>
      <trkpt lat="45.59768" lon="2.82914">
        <ele>1249.851318</ele>
        <time>2013-05-06T16:38:42Z</time>
      </trkpt>
      <trkpt lat="45.59757" lon="2.82901">
        <ele>1248.889893</ele>
        <time>2013-05-06T16:39:39Z</time>
      </trkpt>
      <trkpt lat="45.59743" lon="2.8288">
        <ele>1246.486816</ele>
        <time>2013-05-06T16:39:44Z</time>
      </trkpt>
      <trkpt lat="45.59713" lon="2.82845">
        <ele>1243.602539</ele>
        <time>2013-05-06T16:39:50Z</time>
      </trkpt>
      <trkpt lat="45.59689" lon="2.82815">
        <ele>1240.238037</ele>
        <time>2013-05-06T16:39:54Z</time>
      </trkpt>
      <trkpt lat="45.59664" lon="2.82777">
        <ele>1236.392822</ele>
        <time>2013-05-06T16:39:58Z</time>
      </trkpt>
      <trkpt lat="45.59639" lon="2.82734">
        <ele>1233.989502</ele>
        <time>2013-05-06T16:40:02Z</time>
      </trkpt>
      <trkpt lat="45.59613" lon="2.82684">
        <ele>1230.144287</ele>
        <time>2013-05-06T16:40:06Z</time>
      </trkpt>
      <trkpt lat="45.59593" lon="2.82642">
        <ele>1227.260254</ele>
        <time>2013-05-06T16:40:09Z</time>
      </trkpt>
      <trkpt lat="45.5958" lon="2.82617">
        <ele>1223.415039</ele>
        <time>2013-05-06T16:40:11Z</time>
      </trkpt>
      <trkpt lat="45.59561" lon="2.82585">
        <ele>1218.608398</ele>
        <time>2013-05-06T16:40:14Z</time>
      </trkpt>
      <trkpt lat="45.59548" lon="2.82563">
        <ele>1215.243896</ele>
        <time>2013-05-06T16:40:16Z</time>
      </trkpt>
      <trkpt lat="45.59541" lon="2.8255">
        <ele>1215.243896</ele>
        <time>2013-05-06T16:40:17Z</time>
      </trkpt>
      <trkpt lat="45.59516" lon="2.82513">
        <ele>1209.956299</ele>
        <time>2013-05-06T16:40:20Z</time>
      </trkpt>
      <trkpt lat="45.59499" lon="2.8249">
        <ele>1206.591797</ele>
        <time>2013-05-06T16:40:22Z</time>
      </trkpt>
      <trkpt lat="45.59491" lon="2.82479">
        <ele>1205.630615</ele>
        <time>2013-05-06T16:40:23Z</time>
      </trkpt>
      <trkpt lat="45.59468" lon="2.82452">
        <ele>1202.746582</ele>
        <time>2013-05-06T16:40:27Z</time>
      </trkpt>
      <trkpt lat="45.59455" lon="2.82418">
        <ele>1197.940186</ele>
        <time>2013-05-06T16:40:32Z</time>
      </trkpt>
      <trkpt lat="45.59451" lon="2.8241">
        <ele>1197.459473</ele>
        <time>2013-05-06T16:40:33Z</time>
      </trkpt>
      <trkpt lat="45.59438" lon="2.82338">
        <ele>1197.459473</ele>
        <time>2013-05-06T16:40:42Z</time>
      </trkpt>
      <trkpt lat="45.59432" lon="2.82209">
        <ele>1200.343506</ele>
        <time>2013-05-06T16:41:03Z</time>
      </trkpt>
      <trkpt lat="45.5947" lon="2.82183">
        <ele>1200.343506</ele>
        <time>2013-05-06T16:41:16Z</time>
      </trkpt>
      <trkpt lat="45.59504" lon="2.82211">
        <ele>1200.823975</ele>
        <time>2013-05-06T16:41:30Z</time>
      </trkpt>
      <trkpt lat="45.59549" lon="2.82249">
        <ele>1201.304688</ele>
        <time>2013-05-06T16:41:47Z</time>
      </trkpt>
      <trkpt lat="45.59592" lon="2.8229">
        <ele>1202.265869</ele>
        <time>2013-05-06T16:42:06Z</time>
      </trkpt>
      <trkpt lat="45.59614" lon="2.82322">
        <ele>1203.708008</ele>
        <time>2013-05-06T16:42:20Z</time>
      </trkpt>
      <trkpt lat="45.59651" lon="2.82357">
        <ele>1204.188721</ele>
        <time>2013-05-06T16:42:37Z</time>
      </trkpt>
      <trkpt lat="45.59684" lon="2.82392">
        <ele>1205.149902</ele>
        <time>2013-05-06T16:42:54Z</time>
      </trkpt>
      <trkpt lat="45.59726" lon="2.82431">
        <ele>1206.111084</ele>
        <time>2013-05-06T16:43:13Z</time>
      </trkpt>
      <trkpt lat="45.59755" lon="2.82464">
        <ele>1207.07251</ele>
        <time>2013-05-06T16:43:29Z</time>
      </trkpt>
      <trkpt lat="45.59797" lon="2.82496">
        <ele>1208.514404</ele>
        <time>2013-05-06T16:43:46Z</time>
      </trkpt>
      <trkpt lat="45.59829" lon="2.82524">
        <ele>1208.514404</ele>
        <time>2013-05-06T16:44:00Z</time>
      </trkpt>
      <trkpt lat="45.59841" lon="2.82559">
        <ele>1208.995117</ele>
        <time>2013-05-06T16:44:16Z</time>
      </trkpt>
      <trkpt lat="45.59868" lon="2.82587">
        <ele>1209.47583</ele>
        <time>2013-05-06T16:44:32Z</time>
      </trkpt>
      <trkpt lat="45.59898" lon="2.82607">
        <ele>1209.956299</ele>
        <time>2013-05-06T16:44:46Z</time>
      </trkpt>
      <trkpt lat="45.59931" lon="2.82625">
        <ele>1211.87915</ele>
        <time>2013-05-06T16:45:00Z</time>
      </trkpt>
      <trkpt lat="45.59971" lon="2.82654">
        <ele>1213.801758</ele>
        <time>2013-05-06T16:45:16Z</time>
      </trkpt>
      <trkpt lat="45.60004" lon="2.82695">
        <ele>1214.763184</ele>
        <time>2013-05-06T16:45:35Z</time>
      </trkpt>
      <trkpt lat="45.60047" lon="2.82712">
        <ele>1215.724609</ele>
        <time>2013-05-06T16:45:59Z</time>
      </trkpt>
      <trkpt lat="45.60081" lon="2.82692">
        <ele>1216.685791</ele>
        <time>2013-05-06T16:46:20Z</time>
      </trkpt>
      <trkpt lat="45.601" lon="2.82649">
        <ele>1219.089111</ele>
        <time>2013-05-06T16:46:40Z</time>
      </trkpt>
      <trkpt lat="45.60105" lon="2.82598">
        <ele>1219.089111</ele>
        <time>2013-05-06T16:47:01Z</time>
      </trkpt>
      <trkpt lat="45.60124" lon="2.82563">
        <ele>1221.9729</ele>
        <time>2013-05-06T16:47:21Z</time>
      </trkpt>
      <trkpt lat="45.60145" lon="2.82549">
        <ele>1223.415039</ele>
        <time>2013-05-06T16:47:39Z</time>
      </trkpt>
      <trkpt lat="45.60168" lon="2.82544">
        <ele>1224.376221</ele>
        <time>2013-05-06T16:48:01Z</time>
      </trkpt>
      <trkpt lat="45.60182" lon="2.82549">
        <ele>1225.337402</ele>
        <time>2013-05-06T16:48:16Z</time>
      </trkpt>
      <trkpt lat="45.602" lon="2.82557">
        <ele>1227.260254</ele>
        <time>2013-05-06T16:48:33Z</time>
      </trkpt>
      <trkpt lat="45.6022" lon="2.8256">
        <ele>1229.182861</ele>
        <time>2013-05-06T16:48:48Z</time>
      </trkpt>
      <trkpt lat="45.60239" lon="2.82561">
        <ele>1230.625</ele>
        <time>2013-05-06T16:49:02Z</time>
      </trkpt>
      <trkpt lat="45.60261" lon="2.8256">
        <ele>1231.586182</ele>
        <time>2013-05-06T16:49:19Z</time>
      </trkpt>
      <trkpt lat="45.60284" lon="2.82554">
        <ele>1233.508789</ele>
        <time>2013-05-06T16:49:37Z</time>
      </trkpt>
      <trkpt lat="45.6032" lon="2.82544">
        <ele>1234.950928</ele>
        <time>2013-05-06T16:50:03Z</time>
      </trkpt>
      <trkpt lat="45.60346" lon="2.82536">
        <ele>1235.912109</ele>
        <time>2013-05-06T16:50:25Z</time>
      </trkpt>
      <trkpt lat="45.60364" lon="2.82544">
        <ele>1236.873291</ele>
        <time>2013-05-06T16:50:44Z</time>
      </trkpt>
      <trkpt lat="45.60383" lon="2.82555">
        <ele>1238.796143</ele>
        <time>2013-05-06T16:51:03Z</time>
      </trkpt>
      <trkpt lat="45.60386" lon="2.82557">
        <ele>1238.796143</ele>
        <time>2013-05-06T16:51:06Z</time>
      </trkpt>
      <trkpt lat="45.60393" lon="2.82556">
        <ele>1239.757324</ele>
        <time>2013-05-06T16:51:35Z</time>
      </trkpt>
      <trkpt lat="45.60403" lon="2.82562">
        <ele>1241.679932</ele>
        <time>2013-05-06T16:52:29Z</time>
      </trkpt>
      <trkpt lat="45.60423" lon="2.82572">
        <ele>1242.160645</ele>
        <time>2013-05-06T16:52:45Z</time>
      </trkpt>
      <trkpt lat="45.60448" lon="2.82579">
        <ele>1243.121826</ele>
        <time>2013-05-06T16:53:02Z</time>
      </trkpt>
      <trkpt lat="45.60477" lon="2.82583">
        <ele>1244.083496</ele>
        <time>2013-05-06T16:53:22Z</time>
      </trkpt>
      <trkpt lat="45.60508" lon="2.82581">
        <ele>1244.083496</ele>
        <time>2013-05-06T16:53:43Z</time>
      </trkpt>
      <trkpt lat="45.60537" lon="2.82575">
        <ele>1245.525391</ele>
        <time>2013-05-06T16:54:00Z</time>
      </trkpt>
      <trkpt lat="45.60563" lon="2.82566">
        <ele>1247.447998</ele>
        <time>2013-05-06T16:54:18Z</time>
      </trkpt>
      <trkpt lat="45.60586" lon="2.82561">
        <ele>1247.928711</ele>
        <time>2013-05-06T16:54:34Z</time>
      </trkpt>
      <trkpt lat="45.60617" lon="2.82555">
        <ele>1248.889893</ele>
        <time>2013-05-06T16:54:53Z</time>
      </trkpt>
      <trkpt lat="45.60637" lon="2.8255">
        <ele>1249.370605</ele>
        <time>2013-05-06T16:55:13Z</time>
      </trkpt>
      <trkpt lat="45.6064" lon="2.82545">
        <ele>1249.370605</ele>
        <time>2013-05-06T16:55:45Z</time>
      </trkpt>
      <trkpt lat="45.60668" lon="2.82537">
        <ele>1249.851318</ele>
        <time>2013-05-06T16:56:06Z</time>
      </trkpt>
      <trkpt lat="45.60706" lon="2.82517">
        <ele>1250.8125</ele>
        <time>2013-05-06T16:56:32Z</time>
      </trkpt>
      <trkpt lat="45.60747" lon="2.82519">
        <ele>1252.254395</ele>
        <time>2013-05-06T16:56:55Z</time>
      </trkpt>
      <trkpt lat="45.60784" lon="2.82534">
        <ele>1253.696533</ele>
        <time>2013-05-06T16:57:17Z</time>
      </trkpt>
      <trkpt lat="45.60822" lon="2.8254">
        <ele>1255.138428</ele>
        <time>2013-05-06T16:57:39Z</time>
      </trkpt>
      <trkpt lat="45.60856" lon="2.82544">
        <ele>1255.619141</ele>
        <time>2013-05-06T16:57:59Z</time>
      </trkpt>
      <trkpt lat="45.60891" lon="2.82538">
        <ele>1256.580322</ele>
        <time>2013-05-06T16:58:21Z</time>
      </trkpt>
      <trkpt lat="45.60938" lon="2.82523">
        <ele>1258.022461</ele>
        <time>2013-05-06T16:58:49Z</time>
      </trkpt>
      <trkpt lat="45.60984" lon="2.82511">
        <ele>1259.464355</ele>
        <time>2013-05-06T16:59:18Z</time>
      </trkpt>
      <trkpt lat="45.61018" lon="2.82506">
        <ele>1260.906494</ele>
        <time>2013-05-06T16:59:40Z</time>
      </trkpt>
      <trkpt lat="45.61054" lon="2.82489">
        <ele>1261.387207</ele>
        <time>2013-05-06T17:00:04Z</time>
      </trkpt>
      <trkpt lat="45.61086" lon="2.82472">
        <ele>1262.348389</ele>
        <time>2013-05-06T17:00:25Z</time>
      </trkpt>
      <trkpt lat="45.61114" lon="2.82457">
        <ele>1262.829102</ele>
        <time>2013-05-06T17:00:44Z</time>
      </trkpt>
      <trkpt lat="45.61126" lon="2.82439">
        <ele>1263.309814</ele>
        <time>2013-05-06T17:00:55Z</time>
      </trkpt>
      <trkpt lat="45.61128" lon="2.82436">
        <ele>1263.790283</ele>
        <time>2013-05-06T17:01:15Z</time>
      </trkpt>
      <trkpt lat="45.6113" lon="2.82435">
        <ele>1263.309814</ele>
        <time>2013-05-06T17:01:38Z</time>
      </trkpt>
      <trkpt lat="45.61134" lon="2.82435">
        <ele>1263.309814</ele>
        <time>2013-05-06T17:01:41Z</time>
      </trkpt>
      <trkpt lat="45.61153" lon="2.8245">
        <ele>1264.270996</ele>
        <time>2013-05-06T17:01:56Z</time>
      </trkpt>
      <trkpt lat="45.6116" lon="2.82453">
        <ele>1265.232422</ele>
        <time>2013-05-06T17:02:01Z</time>
      </trkpt>
      <trkpt lat="45.61193" lon="2.82492">
        <ele>1265.232422</ele>
        <time>2013-05-06T17:02:24Z</time>
      </trkpt>
      <trkpt lat="45.61189" lon="2.82567">
        <ele>1265.232422</ele>
        <time>2013-05-06T17:02:46Z</time>
      </trkpt>
      <trkpt lat="45.61208" lon="2.82617">
        <ele>1265.232422</ele>
        <time>2013-05-06T17:03:04Z</time>
      </trkpt>
      <trkpt lat="45.61258" lon="2.82647">
        <ele>1265.232422</ele>
        <time>2013-05-06T17:03:21Z</time>
      </trkpt>
      <trkpt lat="45.61328" lon="2.82636">
        <ele>1264.751709</ele>
        <time>2013-05-06T17:03:42Z</time>
      </trkpt>
      <trkpt lat="45.6143" lon="2.8258">
        <ele>1264.270996</ele>
        <time>2013-05-06T17:04:11Z</time>
      </trkpt>
      <trkpt lat="45.6152" lon="2.8253">
        <ele>1262.348389</ele>
        <time>2013-05-06T17:04:37Z</time>
      </trkpt>
      <trkpt lat="45.61595" lon="2.82498">
        <ele>1263.790283</ele>
        <time>2013-05-06T17:05:00Z</time>
      </trkpt>
      <trkpt lat="45.61673" lon="2.82465">
        <ele>1265.713135</ele>
        <time>2013-05-06T17:05:27Z</time>
      </trkpt>
      <trkpt lat="45.61747" lon="2.82442">
        <ele>1267.155029</ele>
        <time>2013-05-06T17:05:55Z</time>
      </trkpt>
      <trkpt lat="45.61802" lon="2.82421">
        <ele>1269.55835</ele>
        <time>2013-05-06T17:06:17Z</time>
      </trkpt>
      <trkpt lat="45.61874" lon="2.82381">
        <ele>1271.000244</ele>
        <time>2013-05-06T17:06:45Z</time>
      </trkpt>
      <trkpt lat="45.61931" lon="2.82336">
        <ele>1272.442139</ele>
        <time>2013-05-06T17:07:10Z</time>
      </trkpt>
      <trkpt lat="45.61965" lon="2.82299">
        <ele>1272.442139</ele>
        <time>2013-05-06T17:07:29Z</time>
      </trkpt>
      <trkpt lat="45.61984" lon="2.8226">
        <ele>1272.442139</ele>
        <time>2013-05-06T17:07:47Z</time>
      </trkpt>
      <trkpt lat="45.62006" lon="2.82203">
        <ele>1274.845459</ele>
        <time>2013-05-06T17:08:09Z</time>
      </trkpt>
      <trkpt lat="45.62024" lon="2.8214">
        <ele>1274.845459</ele>
        <time>2013-05-06T17:08:32Z</time>
      </trkpt>
      <trkpt lat="45.62056" lon="2.82085">
        <ele>1277.249023</ele>
        <time>2013-05-06T17:08:56Z</time>
      </trkpt>
      <trkpt lat="45.6208" lon="2.82059">
        <ele>1278.210205</ele>
        <time>2013-05-06T17:09:11Z</time>
      </trkpt>
      <trkpt lat="45.62105" lon="2.82047">
        <ele>1277.249023</ele>
        <time>2013-05-06T17:09:25Z</time>
      </trkpt>
      <trkpt lat="45.62109" lon="2.82054">
        <ele>1277.729492</ele>
        <time>2013-05-06T17:10:16Z</time>
      </trkpt>
      <trkpt lat="45.6211" lon="2.82053">
        <ele>1277.249023</ele>
        <time>2013-05-06T17:10:39Z</time>
      </trkpt>
      <trkpt lat="45.62108" lon="2.82054">
        <ele>1276.768311</ele>
        <time>2013-05-06T17:11:58Z</time>
      </trkpt>
      <trkpt lat="45.62112" lon="2.82051">
        <ele>1276.768311</ele>
        <time>2013-05-06T17:12:55Z</time>
      </trkpt>
      <trkpt lat="45.62122" lon="2.82044">
        <ele>1275.806641</ele>
        <time>2013-05-06T17:13:01Z</time>
      </trkpt>
      <trkpt lat="45.62189" lon="2.82053">
        <ele>1276.768311</ele>
        <time>2013-05-06T17:13:19Z</time>
      </trkpt>
      <trkpt lat="45.62217" lon="2.82059">
        <ele>1277.729492</ele>
        <time>2013-05-06T17:13:29Z</time>
      </trkpt>
      <trkpt lat="45.62238" lon="2.82042">
        <ele>1277.729492</ele>
        <time>2013-05-06T17:13:39Z</time>
      </trkpt>
      <trkpt lat="45.6224" lon="2.82041">
        <ele>1277.729492</ele>
        <time>2013-05-06T17:13:41Z</time>
      </trkpt>
      <trkpt lat="45.62238" lon="2.82037">
        <ele>1277.729492</ele>
        <time>2013-05-06T17:14:03Z</time>
      </trkpt>
      <trkpt lat="45.62233" lon="2.82037">
        <ele>1277.249023</ele>
        <time>2013-05-06T17:16:36Z</time>
      </trkpt>
      <trkpt lat="45.62232" lon="2.82036">
        <ele>1277.729492</ele>
        <time>2013-05-06T17:16:40Z</time>
      </trkpt>
      <trkpt lat="45.62204" lon="2.82021">
        <ele>1275.806641</ele>
        <time>2013-05-06T17:16:53Z</time>
      </trkpt>
      <trkpt lat="45.622" lon="2.8202">
        <ele>1275.806641</ele>
        <time>2013-05-06T17:16:54Z</time>
      </trkpt>
      <trkpt lat="45.6218" lon="2.82007">
        <ele>1274.845459</ele>
        <time>2013-05-06T17:16:59Z</time>
      </trkpt>
      <trkpt lat="45.62152" lon="2.81978">
        <ele>1272.922852</ele>
        <time>2013-05-06T17:17:12Z</time>
      </trkpt>
      <trkpt lat="45.62152" lon="2.81977">
        <ele>1272.442139</ele>
        <time>2013-05-06T17:17:24Z</time>
      </trkpt>
      <trkpt lat="45.62157" lon="2.81959">
        <ele>1271.000244</ele>
        <time>2013-05-06T17:17:31Z</time>
      </trkpt>
      <trkpt lat="45.62163" lon="2.81935">
        <ele>1269.55835</ele>
        <time>2013-05-06T17:17:36Z</time>
      </trkpt>
      <trkpt lat="45.62178" lon="2.8185">
        <ele>1265.232422</ele>
        <time>2013-05-06T17:17:47Z</time>
      </trkpt>
      <trkpt lat="45.6218" lon="2.81842">
        <ele>1265.232422</ele>
        <time>2013-05-06T17:17:48Z</time>
      </trkpt>
      <trkpt lat="45.62206" lon="2.81811">
        <ele>1263.309814</ele>
        <time>2013-05-06T17:17:53Z</time>
      </trkpt>
      <trkpt lat="45.6223" lon="2.81754">
        <ele>1261.387207</ele>
        <time>2013-05-06T17:18:00Z</time>
      </trkpt>
      <trkpt lat="45.62251" lon="2.81733">
        <ele>1259.944824</ele>
        <time>2013-05-06T17:18:07Z</time>
      </trkpt>
      <trkpt lat="45.6226" lon="2.81755">
        <ele>1258.022461</ele>
        <time>2013-05-06T17:18:13Z</time>
      </trkpt>
      <trkpt lat="45.62251" lon="2.81796">
        <ele>1253.696533</ele>
        <time>2013-05-06T17:18:19Z</time>
      </trkpt>
      <trkpt lat="45.62217" lon="2.81849">
        <ele>1250.332031</ele>
        <time>2013-05-06T17:18:26Z</time>
      </trkpt>
      <trkpt lat="45.62205" lon="2.81903">
        <ele>1247.928711</ele>
        <time>2013-05-06T17:18:30Z</time>
      </trkpt>
      <trkpt lat="45.62218" lon="2.81939">
        <ele>1246.006104</ele>
        <time>2013-05-06T17:18:34Z</time>
      </trkpt>
      <trkpt lat="45.62238" lon="2.81964">
        <ele>1244.083496</ele>
        <time>2013-05-06T17:18:37Z</time>
      </trkpt>
      <trkpt lat="45.62262" lon="2.81985">
        <ele>1240.238037</ele>
        <time>2013-05-06T17:18:40Z</time>
      </trkpt>
      <trkpt lat="45.62283" lon="2.82028">
        <ele>1235.912109</ele>
        <time>2013-05-06T17:18:44Z</time>
      </trkpt>
      <trkpt lat="45.62286" lon="2.82042">
        <ele>1235.431396</ele>
        <time>2013-05-06T17:18:45Z</time>
      </trkpt>
      <trkpt lat="45.62295" lon="2.82097">
        <ele>1233.989502</ele>
        <time>2013-05-06T17:18:49Z</time>
      </trkpt>
      <trkpt lat="45.62326" lon="2.82157">
        <ele>1228.702393</ele>
        <time>2013-05-06T17:18:54Z</time>
      </trkpt>
      <trkpt lat="45.62338" lon="2.82178">
        <ele>1227.740723</ele>
        <time>2013-05-06T17:18:56Z</time>
      </trkpt>
      <trkpt lat="45.62371" lon="2.8219">
        <ele>1224.856934</ele>
        <time>2013-05-06T17:19:00Z</time>
      </trkpt>
      <trkpt lat="45.6239" lon="2.82194">
        <ele>1223.415039</ele>
        <time>2013-05-06T17:19:02Z</time>
      </trkpt>
      <trkpt lat="45.62411" lon="2.82207">
        <ele>1221.9729</ele>
        <time>2013-05-06T17:19:04Z</time>
      </trkpt>
      <trkpt lat="45.62442" lon="2.82233">
        <ele>1217.646973</ele>
        <time>2013-05-06T17:19:07Z</time>
      </trkpt>
      <trkpt lat="45.62453" lon="2.82242">
        <ele>1217.166504</ele>
        <time>2013-05-06T17:19:08Z</time>
      </trkpt>
      <trkpt lat="45.62484" lon="2.82273">
        <ele>1213.321289</ele>
        <time>2013-05-06T17:19:11Z</time>
      </trkpt>
      <trkpt lat="45.62523" lon="2.82311">
        <ele>1208.995117</ele>
        <time>2013-05-06T17:19:15Z</time>
      </trkpt>
      <trkpt lat="45.62532" lon="2.82319">
        <ele>1208.033936</ele>
        <time>2013-05-06T17:19:16Z</time>
      </trkpt>
      <trkpt lat="45.62593" lon="2.82323">
        <ele>1204.669189</ele>
        <time>2013-05-06T17:19:22Z</time>
      </trkpt>
      <trkpt lat="45.62625" lon="2.82337">
        <ele>1200.823975</ele>
        <time>2013-05-06T17:19:25Z</time>
      </trkpt>
      <trkpt lat="45.62635" lon="2.82348">
        <ele>1200.343506</ele>
        <time>2013-05-06T17:19:26Z</time>
      </trkpt>
      <trkpt lat="45.62653" lon="2.8237">
        <ele>1199.862793</ele>
        <time>2013-05-06T17:19:28Z</time>
      </trkpt>
      <trkpt lat="45.62686" lon="2.82418">
        <ele>1194.094727</ele>
        <time>2013-05-06T17:19:32Z</time>
      </trkpt>
      <trkpt lat="45.62705" lon="2.8246">
        <ele>1190.249512</ele>
        <time>2013-05-06T17:19:37Z</time>
      </trkpt>
      <trkpt lat="45.62717" lon="2.82466">
        <ele>1189.768799</ele>
        <time>2013-05-06T17:19:41Z</time>
      </trkpt>
      <trkpt lat="45.62734" lon="2.82456">
        <ele>1187.365479</ele>
        <time>2013-05-06T17:19:45Z</time>
      </trkpt>
      <trkpt lat="45.62775" lon="2.8241">
        <ele>1183.039551</ele>
        <time>2013-05-06T17:19:52Z</time>
      </trkpt>
      <trkpt lat="45.62783" lon="2.82402">
        <ele>1183.039551</ele>
        <time>2013-05-06T17:19:53Z</time>
      </trkpt>
      <trkpt lat="45.62829" lon="2.82391">
        <ele>1178.23291</ele>
        <time>2013-05-06T17:19:58Z</time>
      </trkpt>
      <trkpt lat="45.62839" lon="2.82389">
        <ele>1177.271729</ele>
        <time>2013-05-06T17:19:59Z</time>
      </trkpt>
      <trkpt lat="45.62878" lon="2.82399">
        <ele>1174.387695</ele>
        <time>2013-05-06T17:20:03Z</time>
      </trkpt>
      <trkpt lat="45.62909" lon="2.82393">
        <ele>1171.984375</ele>
        <time>2013-05-06T17:20:06Z</time>
      </trkpt>
      <trkpt lat="45.62925" lon="2.82387">
        <ele>1170.061768</ele>
        <time>2013-05-06T17:20:08Z</time>
      </trkpt>
      <trkpt lat="45.62937" lon="2.82376">
        <ele>1169.100586</ele>
        <time>2013-05-06T17:20:10Z</time>
      </trkpt>
      <trkpt lat="45.62942" lon="2.82348">
        <ele>1165.255371</ele>
        <time>2013-05-06T17:20:13Z</time>
      </trkpt>
      <trkpt lat="45.62942" lon="2.82336">
        <ele>1165.255371</ele>
        <time>2013-05-06T17:20:14Z</time>
      </trkpt>
      <trkpt lat="45.62946" lon="2.82291">
        <ele>1163.33252</ele>
        <time>2013-05-06T17:20:18Z</time>
      </trkpt>
      <trkpt lat="45.62994" lon="2.82256">
        <ele>1158.525879</ele>
        <time>2013-05-06T17:20:24Z</time>
      </trkpt>
      <trkpt lat="45.63004" lon="2.82252">
        <ele>1157.083984</ele>
        <time>2013-05-06T17:20:25Z</time>
      </trkpt>
      <trkpt lat="45.63033" lon="2.82245">
        <ele>1154.200195</ele>
        <time>2013-05-06T17:20:28Z</time>
      </trkpt>
      <trkpt lat="45.63069" lon="2.82255">
        <ele>1151.796875</ele>
        <time>2013-05-06T17:20:32Z</time>
      </trkpt>
      <trkpt lat="45.63085" lon="2.82265">
        <ele>1151.316162</ele>
        <time>2013-05-06T17:20:34Z</time>
      </trkpt>
      <trkpt lat="45.63114" lon="2.82268">
        <ele>1147.470703</ele>
        <time>2013-05-06T17:20:39Z</time>
      </trkpt>
      <trkpt lat="45.63135" lon="2.82257">
        <ele>1146.028809</ele>
        <time>2013-05-06T17:20:43Z</time>
      </trkpt>
      <trkpt lat="45.63154" lon="2.82189">
        <ele>1142.183594</ele>
        <time>2013-05-06T17:20:50Z</time>
      </trkpt>
      <trkpt lat="45.63119" lon="2.82186">
        <ele>1138.819092</ele>
        <time>2013-05-06T17:20:55Z</time>
      </trkpt>
      <trkpt lat="45.63112" lon="2.82192">
        <ele>1138.819092</ele>
        <time>2013-05-06T17:20:56Z</time>
      </trkpt>
      <trkpt lat="45.63067" lon="2.82207">
        <ele>1136.89624</ele>
        <time>2013-05-06T17:21:01Z</time>
      </trkpt>
      <trkpt lat="45.63058" lon="2.82199">
        <ele>1134.973877</ele>
        <time>2013-05-06T17:21:02Z</time>
      </trkpt>
      <trkpt lat="45.63041" lon="2.82189">
        <ele>1134.012451</ele>
        <time>2013-05-06T17:21:04Z</time>
      </trkpt>
      <trkpt lat="45.6301" lon="2.82184">
        <ele>1129.686279</ele>
        <time>2013-05-06T17:21:07Z</time>
      </trkpt>
      <trkpt lat="45.62999" lon="2.82182">
        <ele>1127.763672</ele>
        <time>2013-05-06T17:21:08Z</time>
      </trkpt>
      <trkpt lat="45.62976" lon="2.82177">
        <ele>1127.283203</ele>
        <time>2013-05-06T17:21:10Z</time>
      </trkpt>
      <trkpt lat="45.62946" lon="2.82162">
        <ele>1123.918457</ele>
        <time>2013-05-06T17:21:13Z</time>
      </trkpt>
      <trkpt lat="45.62922" lon="2.82144">
        <ele>1123.437988</ele>
        <time>2013-05-06T17:21:16Z</time>
      </trkpt>
      <trkpt lat="45.62886" lon="2.82139">
        <ele>1119.112061</ele>
        <time>2013-05-06T17:21:20Z</time>
      </trkpt>
      <trkpt lat="45.62823" lon="2.82163">
        <ele>1114.785889</ele>
        <time>2013-05-06T17:21:26Z</time>
      </trkpt>
      <trkpt lat="45.62795" lon="2.82149">
        <ele>1112.382568</ele>
        <time>2013-05-06T17:21:29Z</time>
      </trkpt>
      <trkpt lat="45.62772" lon="2.82112">
        <ele>1108.056885</ele>
        <time>2013-05-06T17:21:32Z</time>
      </trkpt>
      <trkpt lat="45.62724" lon="2.82033">
        <ele>1104.21167</ele>
        <time>2013-05-06T17:21:38Z</time>
      </trkpt>
      <trkpt lat="45.62678" lon="2.81982">
        <ele>1101.327637</ele>
        <time>2013-05-06T17:21:44Z</time>
      </trkpt>
      <trkpt lat="45.6268" lon="2.81947">
        <ele>1100.366455</ele>
        <time>2013-05-06T17:21:49Z</time>
      </trkpt>
      <trkpt lat="45.627" lon="2.81903">
        <ele>1098.924072</ele>
        <time>2013-05-06T17:21:54Z</time>
      </trkpt>
      <trkpt lat="45.62707" lon="2.81816">
        <ele>1095.078857</ele>
        <time>2013-05-06T17:22:02Z</time>
      </trkpt>
      <trkpt lat="45.62715" lon="2.81792">
        <ele>1093.636963</ele>
        <time>2013-05-06T17:22:04Z</time>
      </trkpt>
      <trkpt lat="45.62726" lon="2.8177">
        <ele>1093.15625</ele>
        <time>2013-05-06T17:22:06Z</time>
      </trkpt>
      <trkpt lat="45.62752" lon="2.81729">
        <ele>1090.75293</ele>
        <time>2013-05-06T17:22:10Z</time>
      </trkpt>
      <trkpt lat="45.62782" lon="2.81703">
        <ele>1087.388428</ele>
        <time>2013-05-06T17:22:14Z</time>
      </trkpt>
      <trkpt lat="45.6282" lon="2.81672">
        <ele>1083.062256</ele>
        <time>2013-05-06T17:22:19Z</time>
      </trkpt>
      <trkpt lat="45.62829" lon="2.81669">
        <ele>1083.062256</ele>
        <time>2013-05-06T17:22:20Z</time>
      </trkpt>
      <trkpt lat="45.62837" lon="2.81666">
        <ele>1082.581787</ele>
        <time>2013-05-06T17:22:21Z</time>
      </trkpt>
      <trkpt lat="45.62874" lon="2.81678">
        <ele>1080.178467</ele>
        <time>2013-05-06T17:22:26Z</time>
      </trkpt>
      <trkpt lat="45.62907" lon="2.81678">
        <ele>1078.255859</ele>
        <time>2013-05-06T17:22:30Z</time>
      </trkpt>
      <trkpt lat="45.62949" lon="2.81656">
        <ele>1076.333252</ele>
        <time>2013-05-06T17:22:35Z</time>
      </trkpt>
      <trkpt lat="45.62977" lon="2.81644">
        <ele>1074.410645</ele>
        <time>2013-05-06T17:22:38Z</time>
      </trkpt>
      <trkpt lat="45.63035" lon="2.81629">
        <ele>1071.046143</ele>
        <time>2013-05-06T17:22:44Z</time>
      </trkpt>
      <trkpt lat="45.63065" lon="2.81629">
        <ele>1068.642822</ele>
        <time>2013-05-06T17:22:48Z</time>
      </trkpt>
      <trkpt lat="45.63071" lon="2.81632">
        <ele>1068.642822</ele>
        <time>2013-05-06T17:22:49Z</time>
      </trkpt>
      <trkpt lat="45.63122" lon="2.81631">
        <ele>1066.239258</ele>
        <time>2013-05-06T17:22:56Z</time>
      </trkpt>
      <trkpt lat="45.63174" lon="2.81597">
        <ele>1062.874756</ele>
        <time>2013-05-06T17:23:02Z</time>
      </trkpt>
      <trkpt lat="45.63199" lon="2.81565">
        <ele>1061.913574</ele>
        <time>2013-05-06T17:23:05Z</time>
      </trkpt>
      <trkpt lat="45.63208" lon="2.81556">
        <ele>1060.952148</ele>
        <time>2013-05-06T17:23:06Z</time>
      </trkpt>
      <trkpt lat="45.63228" lon="2.81542">
        <ele>1059.029541</ele>
        <time>2013-05-06T17:23:08Z</time>
      </trkpt>
      <trkpt lat="45.63281" lon="2.81496">
        <ele>1055.184326</ele>
        <time>2013-05-06T17:23:14Z</time>
      </trkpt>
      <trkpt lat="45.633" lon="2.81473">
        <ele>1052.300293</ele>
        <time>2013-05-06T17:23:17Z</time>
      </trkpt>
      <trkpt lat="45.63308" lon="2.81459">
        <ele>1051.81958</ele>
        <time>2013-05-06T17:23:19Z</time>
      </trkpt>
      <trkpt lat="45.63344" lon="2.81397">
        <ele>1047.974365</ele>
        <time>2013-05-06T17:23:28Z</time>
      </trkpt>
      <trkpt lat="45.63375" lon="2.81348">
        <ele>1046.051758</ele>
        <time>2013-05-06T17:23:34Z</time>
      </trkpt>
      <trkpt lat="45.634" lon="2.81326">
        <ele>1044.12915</ele>
        <time>2013-05-06T17:23:38Z</time>
      </trkpt>
      <trkpt lat="45.6342" lon="2.81314">
        <ele>1042.206543</ele>
        <time>2013-05-06T17:23:41Z</time>
      </trkpt>
      <trkpt lat="45.63426" lon="2.81309">
        <ele>1042.206543</ele>
        <time>2013-05-06T17:23:42Z</time>
      </trkpt>
      <trkpt lat="45.63439" lon="2.81297">
        <ele>1041.245117</ele>
        <time>2013-05-06T17:23:44Z</time>
      </trkpt>
      <trkpt lat="45.63489" lon="2.81219">
        <ele>1037.880615</ele>
        <time>2013-05-06T17:23:53Z</time>
      </trkpt>
      <trkpt lat="45.63499" lon="2.81202">
        <ele>1037.399902</ele>
        <time>2013-05-06T17:23:55Z</time>
      </trkpt>
      <trkpt lat="45.6352" lon="2.81185">
        <ele>1036.919189</ele>
        <time>2013-05-06T17:23:59Z</time>
      </trkpt>
      <trkpt lat="45.63533" lon="2.81182">
        <ele>1036.919189</ele>
        <time>2013-05-06T17:24:01Z</time>
      </trkpt>
      <trkpt lat="45.63553" lon="2.81169">
        <ele>1035.957764</ele>
        <time>2013-05-06T17:24:05Z</time>
      </trkpt>
      <trkpt lat="45.63565" lon="2.81159">
        <ele>1037.399902</ele>
        <time>2013-05-06T17:24:08Z</time>
      </trkpt>
      <trkpt lat="45.63628" lon="2.81135">
        <ele>1038.361328</ele>
        <time>2013-05-06T17:24:28Z</time>
      </trkpt>
      <trkpt lat="45.6367" lon="2.81129">
        <ele>1039.32251</ele>
        <time>2013-05-06T17:24:47Z</time>
      </trkpt>
      <trkpt lat="45.63705" lon="2.81133">
        <ele>1036.919189</ele>
        <time>2013-05-06T17:25:05Z</time>
      </trkpt>
      <trkpt lat="45.63715" lon="2.8113">
        <ele>1036.919189</ele>
        <time>2013-05-06T17:25:10Z</time>
      </trkpt>
      <trkpt lat="45.63716" lon="2.81127">
        <ele>1036.438721</ele>
        <time>2013-05-06T17:25:13Z</time>
      </trkpt>
      <trkpt lat="45.63711" lon="2.81126">
        <ele>1036.438721</ele>
        <time>2013-05-06T17:25:17Z</time>
      </trkpt>
      <trkpt lat="45.637" lon="2.81129">
        <ele>1037.399902</ele>
        <time>2013-05-06T17:25:23Z</time>
      </trkpt>
      <trkpt lat="45.63694" lon="2.81128">
        <ele>1037.399902</ele>
        <time>2013-05-06T17:25:37Z</time>
      </trkpt>
      <trkpt lat="45.63688" lon="2.8113">
        <ele>1037.399902</ele>
        <time>2013-05-06T17:26:36Z</time>
      </trkpt>
      <trkpt lat="45.6367" lon="2.81126">
        <ele>1038.361328</ele>
        <time>2013-05-06T17:26:51Z</time>
      </trkpt>
      <trkpt lat="45.63604" lon="2.81137">
        <ele>1036.919189</ele>
        <time>2013-05-06T17:27:09Z</time>
      </trkpt>
      <trkpt lat="45.63579" lon="2.81146">
        <ele>1035.957764</ele>
        <time>2013-05-06T17:27:14Z</time>
      </trkpt>
      <trkpt lat="45.63552" lon="2.81167">
        <ele>1034.515869</ele>
        <time>2013-05-06T17:27:20Z</time>
      </trkpt>
      <trkpt lat="45.63525" lon="2.81194">
        <ele>1033.554443</ele>
        <time>2013-05-06T17:27:31Z</time>
      </trkpt>
      <trkpt lat="45.63498" lon="2.81228">
        <ele>1032.593262</ele>
        <time>2013-05-06T17:27:37Z</time>
      </trkpt>
      <trkpt lat="45.6349" lon="2.81245">
        <ele>1030.189941</ele>
        <time>2013-05-06T17:27:39Z</time>
      </trkpt>
      <trkpt lat="45.63475" lon="2.81278">
        <ele>1028.267334</ele>
        <time>2013-05-06T17:27:43Z</time>
      </trkpt>
      <trkpt lat="45.63458" lon="2.81353">
        <ele>1024.422119</ele>
        <time>2013-05-06T17:27:54Z</time>
      </trkpt>
      <trkpt lat="45.63451" lon="2.81376">
        <ele>1024.902832</ele>
        <time>2013-05-06T17:28:07Z</time>
      </trkpt>
      <trkpt lat="45.63438" lon="2.81403">
        <ele>1024.422119</ele>
        <time>2013-05-06T17:28:20Z</time>
      </trkpt>
      <trkpt lat="45.63416" lon="2.81452">
        <ele>1025.864014</ele>
        <time>2013-05-06T17:28:35Z</time>
      </trkpt>
      <trkpt lat="45.63387" lon="2.81512">
        <ele>1027.306152</ele>
        <time>2013-05-06T17:28:53Z</time>
      </trkpt>
      <trkpt lat="45.63378" lon="2.81598">
        <ele>1027.786621</ele>
        <time>2013-05-06T17:29:14Z</time>
      </trkpt>
      <trkpt lat="45.6338" lon="2.81616">
        <ele>1028.267334</ele>
        <time>2013-05-06T17:29:20Z</time>
      </trkpt>
      <trkpt lat="45.63365" lon="2.81626">
        <ele>1028.748047</ele>
        <time>2013-05-06T17:29:35Z</time>
      </trkpt>
      <trkpt lat="45.6336" lon="2.81627">
        <ele>1028.267334</ele>
        <time>2013-05-06T17:31:34Z</time>
      </trkpt>
      <trkpt lat="45.63353" lon="2.81632">
        <ele>1027.786621</ele>
        <time>2013-05-06T17:32:12Z</time>
      </trkpt>
    </trkseg>
  </trk>
</gpx>